<?xml version="1.0" encoding="UTF-8" standalone="no" ?>
<gpx xmlns="http://www.topografix.com/GPX/1/1" xmlns:xsi="http://www.w3.org/2001/XMLSchema-instance" xsi:schemaLocation="http://www.topografix.com/GPX/1/1 http://www.topografix.com/GPX/1/1/gpx.xsd" version="1.1" creator="VisuGPX - https://www.visugpx.com">
  <metadata>
    <name>Meyreuil route Valbrillant - Ancien Terril</name>
  </metadata>
  <trk>
    <name><![CDATA[Meyreuil route Valbrillant - Ancien Terril_1]]></name>
    <trkseg>
      <trkpt lat="43.49036" lon="5.51534">
        <ele>241.4</ele>
        <time>2021-04-27T12:02:42Z</time>
      </trkpt>
      <trkpt lat="43.49036" lon="5.51534">
        <ele>242.5</ele>
        <time>2021-04-27T12:02:47Z</time>
      </trkpt>
      <trkpt lat="43.49037" lon="5.51537">
        <ele>233.7</ele>
        <time>2021-04-27T12:02:53Z</time>
      </trkpt>
      <trkpt lat="43.49037" lon="5.51538">
        <ele>228.3</ele>
        <time>2021-04-27T12:02:58Z</time>
      </trkpt>
      <trkpt lat="43.49037" lon="5.51538">
        <ele>226.6</ele>
        <time>2021-04-27T12:03:04Z</time>
      </trkpt>
      <trkpt lat="43.49037" lon="5.51538">
        <ele>238.4</ele>
        <time>2021-04-27T12:03:09Z</time>
      </trkpt>
      <trkpt lat="43.49037" lon="5.51538">
        <ele>231.2</ele>
        <time>2021-04-27T12:03:14Z</time>
      </trkpt>
      <trkpt lat="43.49037" lon="5.51538">
        <ele>230.1</ele>
        <time>2021-04-27T12:03:20Z</time>
      </trkpt>
      <trkpt lat="43.49037" lon="5.51538">
        <ele>239.7</ele>
        <time>2021-04-27T12:03:25Z</time>
      </trkpt>
      <trkpt lat="43.49037" lon="5.51538">
        <ele>236.8</ele>
        <time>2021-04-27T12:03:30Z</time>
      </trkpt>
      <trkpt lat="43.49039" lon="5.51538">
        <ele>234.8</ele>
        <time>2021-04-27T12:03:36Z</time>
      </trkpt>
      <trkpt lat="43.4904" lon="5.51539">
        <ele>220.5</ele>
        <time>2021-04-27T12:03:42Z</time>
      </trkpt>
      <trkpt lat="43.49039" lon="5.5154">
        <ele>234.2</ele>
        <time>2021-04-27T12:03:47Z</time>
      </trkpt>
      <trkpt lat="43.4904" lon="5.51539">
        <ele>224.4</ele>
        <time>2021-04-27T12:03:53Z</time>
      </trkpt>
      <trkpt lat="43.4904" lon="5.51539">
        <ele>239.4</ele>
        <time>2021-04-27T12:03:58Z</time>
      </trkpt>
      <trkpt lat="43.4904" lon="5.51539">
        <ele>228.3</ele>
        <time>2021-04-27T12:04:03Z</time>
      </trkpt>
      <trkpt lat="43.4904" lon="5.51539">
        <ele>232.7</ele>
        <time>2021-04-27T12:04:09Z</time>
      </trkpt>
      <trkpt lat="43.4904" lon="5.51539">
        <ele>233.3</ele>
        <time>2021-04-27T12:04:15Z</time>
      </trkpt>
      <trkpt lat="43.4904" lon="5.51539">
        <ele>223</ele>
        <time>2021-04-27T12:04:21Z</time>
      </trkpt>
      <trkpt lat="43.4904" lon="5.51539">
        <ele>239.7</ele>
        <time>2021-04-27T12:04:27Z</time>
      </trkpt>
      <trkpt lat="43.4904" lon="5.51539">
        <ele>237.4</ele>
        <time>2021-04-27T12:04:32Z</time>
      </trkpt>
      <trkpt lat="43.4904" lon="5.51539">
        <ele>239.6</ele>
        <time>2021-04-27T12:04:37Z</time>
      </trkpt>
      <trkpt lat="43.4904" lon="5.51539">
        <ele>222</ele>
        <time>2021-04-27T12:04:43Z</time>
      </trkpt>
      <trkpt lat="43.4904" lon="5.51539">
        <ele>210</ele>
        <time>2021-04-27T12:04:48Z</time>
      </trkpt>
      <trkpt lat="43.4904" lon="5.51539">
        <ele>220.4</ele>
        <time>2021-04-27T12:04:54Z</time>
      </trkpt>
      <trkpt lat="43.4904" lon="5.51539">
        <ele>222.5</ele>
        <time>2021-04-27T12:04:59Z</time>
      </trkpt>
      <trkpt lat="43.4904" lon="5.5154">
        <ele>227.4</ele>
        <time>2021-04-27T12:05:04Z</time>
      </trkpt>
      <trkpt lat="43.4904" lon="5.5154">
        <ele>234.4</ele>
        <time>2021-04-27T12:05:10Z</time>
      </trkpt>
      <trkpt lat="43.4904" lon="5.5154">
        <ele>243.2</ele>
        <time>2021-04-27T12:05:16Z</time>
      </trkpt>
      <trkpt lat="43.4904" lon="5.5154">
        <ele>228.8</ele>
        <time>2021-04-27T12:05:22Z</time>
      </trkpt>
      <trkpt lat="43.4904" lon="5.51539">
        <ele>234.4</ele>
        <time>2021-04-27T12:05:28Z</time>
      </trkpt>
      <trkpt lat="43.4904" lon="5.51539">
        <ele>229.4</ele>
        <time>2021-04-27T12:05:33Z</time>
      </trkpt>
      <trkpt lat="43.4904" lon="5.51539">
        <ele>221.4</ele>
        <time>2021-04-27T12:05:38Z</time>
      </trkpt>
      <trkpt lat="43.4904" lon="5.51539">
        <ele>222.3</ele>
        <time>2021-04-27T12:05:43Z</time>
      </trkpt>
      <trkpt lat="43.4904" lon="5.51539">
        <ele>250.2</ele>
        <time>2021-04-27T12:05:49Z</time>
      </trkpt>
      <trkpt lat="43.4904" lon="5.51539">
        <ele>223.5</ele>
        <time>2021-04-27T12:05:55Z</time>
      </trkpt>
      <trkpt lat="43.4904" lon="5.51539">
        <ele>223.1</ele>
        <time>2021-04-27T12:06:00Z</time>
      </trkpt>
      <trkpt lat="43.4904" lon="5.51539">
        <ele>223</ele>
        <time>2021-04-27T12:06:06Z</time>
      </trkpt>
      <trkpt lat="43.4904" lon="5.51538">
        <ele>221.2</ele>
        <time>2021-04-27T12:06:11Z</time>
      </trkpt>
      <trkpt lat="43.49039" lon="5.51538">
        <ele>220.7</ele>
        <time>2021-04-27T12:06:16Z</time>
      </trkpt>
      <trkpt lat="43.49039" lon="5.51538">
        <ele>219.9</ele>
        <time>2021-04-27T12:06:21Z</time>
      </trkpt>
      <trkpt lat="43.49039" lon="5.51538">
        <ele>225.5</ele>
        <time>2021-04-27T12:06:27Z</time>
      </trkpt>
      <trkpt lat="43.49039" lon="5.51538">
        <ele>227</ele>
        <time>2021-04-27T12:06:33Z</time>
      </trkpt>
      <trkpt lat="43.49039" lon="5.51538">
        <ele>232.3</ele>
        <time>2021-04-27T12:06:39Z</time>
      </trkpt>
      <trkpt lat="43.49039" lon="5.51538">
        <ele>227.5</ele>
        <time>2021-04-27T12:06:45Z</time>
      </trkpt>
      <trkpt lat="43.49039" lon="5.51538">
        <ele>211.6</ele>
        <time>2021-04-27T12:06:50Z</time>
      </trkpt>
      <trkpt lat="43.49039" lon="5.51538">
        <ele>223.8</ele>
        <time>2021-04-27T12:06:55Z</time>
      </trkpt>
      <trkpt lat="43.49039" lon="5.51538">
        <ele>225.2</ele>
        <time>2021-04-27T12:07:01Z</time>
      </trkpt>
      <trkpt lat="43.49037" lon="5.5154">
        <ele>232.1</ele>
        <time>2021-04-27T12:07:07Z</time>
      </trkpt>
      <trkpt lat="43.49038" lon="5.5154">
        <ele>219</ele>
        <time>2021-04-27T12:07:12Z</time>
      </trkpt>
      <trkpt lat="43.49038" lon="5.5154">
        <ele>222</ele>
        <time>2021-04-27T12:07:17Z</time>
      </trkpt>
      <trkpt lat="43.49038" lon="5.5154">
        <ele>227</ele>
        <time>2021-04-27T12:07:22Z</time>
      </trkpt>
      <trkpt lat="43.49038" lon="5.5154">
        <ele>233.1</ele>
        <time>2021-04-27T12:07:28Z</time>
      </trkpt>
      <trkpt lat="43.49034" lon="5.51534">
        <ele>211</ele>
        <time>2021-04-27T12:07:34Z</time>
      </trkpt>
      <trkpt lat="43.49032" lon="5.51529">
        <ele>237.6</ele>
        <time>2021-04-27T12:07:39Z</time>
      </trkpt>
      <trkpt lat="43.49032" lon="5.51527">
        <ele>224.6</ele>
        <time>2021-04-27T12:07:44Z</time>
      </trkpt>
      <trkpt lat="43.49029" lon="5.51522">
        <ele>248.5</ele>
        <time>2021-04-27T12:07:49Z</time>
      </trkpt>
      <trkpt lat="43.49027" lon="5.51514">
        <ele>240.1</ele>
        <time>2021-04-27T12:07:55Z</time>
      </trkpt>
      <trkpt lat="43.49023" lon="5.5151">
        <ele>244.3</ele>
        <time>2021-04-27T12:08:01Z</time>
      </trkpt>
      <trkpt lat="43.49019" lon="5.51509">
        <ele>223</ele>
        <time>2021-04-27T12:08:07Z</time>
      </trkpt>
      <trkpt lat="43.49014" lon="5.51509">
        <ele>214.1</ele>
        <time>2021-04-27T12:08:13Z</time>
      </trkpt>
      <trkpt lat="43.4901" lon="5.51508">
        <ele>205.2</ele>
        <time>2021-04-27T12:08:18Z</time>
      </trkpt>
      <trkpt lat="43.49007" lon="5.51507">
        <ele>234.1</ele>
        <time>2021-04-27T12:08:23Z</time>
      </trkpt>
      <trkpt lat="43.49003" lon="5.51506">
        <ele>237.8</ele>
        <time>2021-04-27T12:08:28Z</time>
      </trkpt>
      <trkpt lat="43.48998" lon="5.51504">
        <ele>247.8</ele>
        <time>2021-04-27T12:08:33Z</time>
      </trkpt>
      <trkpt lat="43.48994" lon="5.515">
        <ele>223.4</ele>
        <time>2021-04-27T12:08:39Z</time>
      </trkpt>
      <trkpt lat="43.48989" lon="5.51498">
        <ele>229.1</ele>
        <time>2021-04-27T12:08:44Z</time>
      </trkpt>
      <trkpt lat="43.48984" lon="5.51494">
        <ele>221.9</ele>
        <time>2021-04-27T12:08:49Z</time>
      </trkpt>
      <trkpt lat="43.48979" lon="5.5149">
        <ele>236.2</ele>
        <time>2021-04-27T12:08:55Z</time>
      </trkpt>
      <trkpt lat="43.48975" lon="5.51486">
        <ele>233.2</ele>
        <time>2021-04-27T12:09:01Z</time>
      </trkpt>
      <trkpt lat="43.48971" lon="5.51482">
        <ele>218.6</ele>
        <time>2021-04-27T12:09:06Z</time>
      </trkpt>
      <trkpt lat="43.48966" lon="5.51477">
        <ele>223.2</ele>
        <time>2021-04-27T12:09:11Z</time>
      </trkpt>
      <trkpt lat="43.48962" lon="5.51473">
        <ele>240.1</ele>
        <time>2021-04-27T12:09:16Z</time>
      </trkpt>
      <trkpt lat="43.48958" lon="5.51466">
        <ele>236.5</ele>
        <time>2021-04-27T12:09:22Z</time>
      </trkpt>
      <trkpt lat="43.48956" lon="5.51463">
        <ele>236.7</ele>
        <time>2021-04-27T12:09:27Z</time>
      </trkpt>
      <trkpt lat="43.48953" lon="5.51459">
        <ele>233.3</ele>
        <time>2021-04-27T12:09:32Z</time>
      </trkpt>
      <trkpt lat="43.4895" lon="5.51456">
        <ele>224.3</ele>
        <time>2021-04-27T12:09:37Z</time>
      </trkpt>
      <trkpt lat="43.48945" lon="5.51451">
        <ele>232.6</ele>
        <time>2021-04-27T12:09:43Z</time>
      </trkpt>
      <trkpt lat="43.48942" lon="5.51445">
        <ele>225.1</ele>
        <time>2021-04-27T12:09:49Z</time>
      </trkpt>
      <trkpt lat="43.48938" lon="5.51441">
        <ele>256.7</ele>
        <time>2021-04-27T12:09:55Z</time>
      </trkpt>
      <trkpt lat="43.48935" lon="5.51435">
        <ele>221.2</ele>
        <time>2021-04-27T12:10:00Z</time>
      </trkpt>
      <trkpt lat="43.48933" lon="5.51429">
        <ele>234.5</ele>
        <time>2021-04-27T12:10:06Z</time>
      </trkpt>
      <trkpt lat="43.4893" lon="5.51429">
        <ele>224.1</ele>
        <time>2021-04-27T12:10:11Z</time>
      </trkpt>
      <trkpt lat="43.48929" lon="5.5143">
        <ele>236.5</ele>
        <time>2021-04-27T12:10:17Z</time>
      </trkpt>
      <trkpt lat="43.48928" lon="5.51436">
        <ele>248.9</ele>
        <time>2021-04-27T12:10:22Z</time>
      </trkpt>
      <trkpt lat="43.48928" lon="5.51443">
        <ele>218.6</ele>
        <time>2021-04-27T12:10:28Z</time>
      </trkpt>
      <trkpt lat="43.48928" lon="5.51451">
        <ele>219.1</ele>
        <time>2021-04-27T12:10:34Z</time>
      </trkpt>
      <trkpt lat="43.48925" lon="5.51457">
        <ele>226</ele>
        <time>2021-04-27T12:10:39Z</time>
      </trkpt>
      <trkpt lat="43.48922" lon="5.51465">
        <ele>230.2</ele>
        <time>2021-04-27T12:10:45Z</time>
      </trkpt>
      <trkpt lat="43.4892" lon="5.51473">
        <ele>233.1</ele>
        <time>2021-04-27T12:10:51Z</time>
      </trkpt>
      <trkpt lat="43.48918" lon="5.51478">
        <ele>233.9</ele>
        <time>2021-04-27T12:10:56Z</time>
      </trkpt>
      <trkpt lat="43.48916" lon="5.51484">
        <ele>230.8</ele>
        <time>2021-04-27T12:11:01Z</time>
      </trkpt>
      <trkpt lat="43.48913" lon="5.5149">
        <ele>239.2</ele>
        <time>2021-04-27T12:11:07Z</time>
      </trkpt>
      <trkpt lat="43.48912" lon="5.51496">
        <ele>232.2</ele>
        <time>2021-04-27T12:11:12Z</time>
      </trkpt>
      <trkpt lat="43.48909" lon="5.515">
        <ele>230.9</ele>
        <time>2021-04-27T12:11:18Z</time>
      </trkpt>
      <trkpt lat="43.48906" lon="5.51501">
        <ele>249.1</ele>
        <time>2021-04-27T12:11:23Z</time>
      </trkpt>
      <trkpt lat="43.48902" lon="5.51504">
        <ele>240</ele>
        <time>2021-04-27T12:11:29Z</time>
      </trkpt>
      <trkpt lat="43.48897" lon="5.51506">
        <ele>250.9</ele>
        <time>2021-04-27T12:11:35Z</time>
      </trkpt>
      <trkpt lat="43.48893" lon="5.51507">
        <ele>235.3</ele>
        <time>2021-04-27T12:11:40Z</time>
      </trkpt>
      <trkpt lat="43.48888" lon="5.51507">
        <ele>257.8</ele>
        <time>2021-04-27T12:11:46Z</time>
      </trkpt>
      <trkpt lat="43.48884" lon="5.51507">
        <ele>235.7</ele>
        <time>2021-04-27T12:11:51Z</time>
      </trkpt>
      <trkpt lat="43.4888" lon="5.51509">
        <ele>227.4</ele>
        <time>2021-04-27T12:11:57Z</time>
      </trkpt>
      <trkpt lat="43.48876" lon="5.51511">
        <ele>265</ele>
        <time>2021-04-27T12:12:03Z</time>
      </trkpt>
      <trkpt lat="43.48872" lon="5.51514">
        <ele>237.8</ele>
        <time>2021-04-27T12:12:08Z</time>
      </trkpt>
      <trkpt lat="43.48867" lon="5.51516">
        <ele>248.2</ele>
        <time>2021-04-27T12:12:13Z</time>
      </trkpt>
      <trkpt lat="43.48862" lon="5.51515">
        <ele>244.5</ele>
        <time>2021-04-27T12:12:19Z</time>
      </trkpt>
      <trkpt lat="43.48858" lon="5.51515">
        <ele>239.2</ele>
        <time>2021-04-27T12:12:24Z</time>
      </trkpt>
      <trkpt lat="43.48854" lon="5.51515">
        <ele>253.3</ele>
        <time>2021-04-27T12:12:29Z</time>
      </trkpt>
      <trkpt lat="43.4885" lon="5.51514">
        <ele>248</ele>
        <time>2021-04-27T12:12:35Z</time>
      </trkpt>
      <trkpt lat="43.48846" lon="5.51514">
        <ele>225.8</ele>
        <time>2021-04-27T12:12:40Z</time>
      </trkpt>
      <trkpt lat="43.48843" lon="5.51513">
        <ele>241.2</ele>
        <time>2021-04-27T12:12:45Z</time>
      </trkpt>
      <trkpt lat="43.48838" lon="5.51513">
        <ele>242</ele>
        <time>2021-04-27T12:12:51Z</time>
      </trkpt>
      <trkpt lat="43.48833" lon="5.51512">
        <ele>255.1</ele>
        <time>2021-04-27T12:12:57Z</time>
      </trkpt>
      <trkpt lat="43.4883" lon="5.51511">
        <ele>254.8</ele>
        <time>2021-04-27T12:13:02Z</time>
      </trkpt>
      <trkpt lat="43.48826" lon="5.5151">
        <ele>218.2</ele>
        <time>2021-04-27T12:13:07Z</time>
      </trkpt>
      <trkpt lat="43.48821" lon="5.51508">
        <ele>259.5</ele>
        <time>2021-04-27T12:13:13Z</time>
      </trkpt>
      <trkpt lat="43.48818" lon="5.51507">
        <ele>237.6</ele>
        <time>2021-04-27T12:13:18Z</time>
      </trkpt>
      <trkpt lat="43.48813" lon="5.51504">
        <ele>233</ele>
        <time>2021-04-27T12:13:24Z</time>
      </trkpt>
      <trkpt lat="43.48809" lon="5.51503">
        <ele>230</ele>
        <time>2021-04-27T12:13:29Z</time>
      </trkpt>
      <trkpt lat="43.48805" lon="5.51502">
        <ele>236.1</ele>
        <time>2021-04-27T12:13:34Z</time>
      </trkpt>
      <trkpt lat="43.48801" lon="5.51501">
        <ele>247.3</ele>
        <time>2021-04-27T12:13:40Z</time>
      </trkpt>
      <trkpt lat="43.48797" lon="5.51503">
        <ele>240.8</ele>
        <time>2021-04-27T12:13:45Z</time>
      </trkpt>
      <trkpt lat="43.48792" lon="5.51504">
        <ele>245.7</ele>
        <time>2021-04-27T12:13:51Z</time>
      </trkpt>
      <trkpt lat="43.48788" lon="5.51503">
        <ele>248.3</ele>
        <time>2021-04-27T12:13:56Z</time>
      </trkpt>
      <trkpt lat="43.48783" lon="5.51501">
        <ele>216.2</ele>
        <time>2021-04-27T12:14:02Z</time>
      </trkpt>
      <trkpt lat="43.48779" lon="5.51502">
        <ele>252.9</ele>
        <time>2021-04-27T12:14:07Z</time>
      </trkpt>
      <trkpt lat="43.48776" lon="5.51501">
        <ele>274.5</ele>
        <time>2021-04-27T12:14:12Z</time>
      </trkpt>
      <trkpt lat="43.48772" lon="5.51502">
        <ele>257.1</ele>
        <time>2021-04-27T12:14:17Z</time>
      </trkpt>
      <trkpt lat="43.48772" lon="5.51502">
        <ele>243.2</ele>
        <time>2021-04-27T12:14:23Z</time>
      </trkpt>
      <trkpt lat="43.48769" lon="5.51503">
        <ele>245</ele>
        <time>2021-04-27T12:14:28Z</time>
      </trkpt>
      <trkpt lat="43.48765" lon="5.51501">
        <ele>243.7</ele>
        <time>2021-04-27T12:14:33Z</time>
      </trkpt>
      <trkpt lat="43.48759" lon="5.51498">
        <ele>262</ele>
        <time>2021-04-27T12:14:39Z</time>
      </trkpt>
      <trkpt lat="43.48756" lon="5.51496">
        <ele>237.6</ele>
        <time>2021-04-27T12:14:44Z</time>
      </trkpt>
      <trkpt lat="43.4875" lon="5.51497">
        <ele>232.2</ele>
        <time>2021-04-27T12:14:50Z</time>
      </trkpt>
      <trkpt lat="43.48746" lon="5.51498">
        <ele>255.6</ele>
        <time>2021-04-27T12:14:55Z</time>
      </trkpt>
      <trkpt lat="43.48743" lon="5.51499">
        <ele>261.8</ele>
        <time>2021-04-27T12:15:00Z</time>
      </trkpt>
      <trkpt lat="43.48738" lon="5.515">
        <ele>249.4</ele>
        <time>2021-04-27T12:15:06Z</time>
      </trkpt>
      <trkpt lat="43.48738" lon="5.51501">
        <ele>249.6</ele>
        <time>2021-04-27T12:15:11Z</time>
      </trkpt>
      <trkpt lat="43.48738" lon="5.51501">
        <ele>236.1</ele>
        <time>2021-04-27T12:15:17Z</time>
      </trkpt>
      <trkpt lat="43.48738" lon="5.51501">
        <ele>237.2</ele>
        <time>2021-04-27T12:15:23Z</time>
      </trkpt>
      <trkpt lat="43.48737" lon="5.51502">
        <ele>241.9</ele>
        <time>2021-04-27T12:15:28Z</time>
      </trkpt>
      <trkpt lat="43.48736" lon="5.51501">
        <ele>250.6</ele>
        <time>2021-04-27T12:15:34Z</time>
      </trkpt>
      <trkpt lat="43.48734" lon="5.51498">
        <ele>253.6</ele>
        <time>2021-04-27T12:15:39Z</time>
      </trkpt>
      <trkpt lat="43.4873" lon="5.51496">
        <ele>250.5</ele>
        <time>2021-04-27T12:15:45Z</time>
      </trkpt>
      <trkpt lat="43.48725" lon="5.51494">
        <ele>264</ele>
        <time>2021-04-27T12:15:51Z</time>
      </trkpt>
      <trkpt lat="43.48722" lon="5.51493">
        <ele>248.9</ele>
        <time>2021-04-27T12:15:56Z</time>
      </trkpt>
      <trkpt lat="43.48718" lon="5.51492">
        <ele>261.9</ele>
        <time>2021-04-27T12:16:01Z</time>
      </trkpt>
      <trkpt lat="43.48715" lon="5.51491">
        <ele>264.2</ele>
        <time>2021-04-27T12:16:07Z</time>
      </trkpt>
      <trkpt lat="43.48713" lon="5.51489">
        <ele>247.6</ele>
        <time>2021-04-27T12:16:12Z</time>
      </trkpt>
      <trkpt lat="43.48709" lon="5.51487">
        <ele>247.6</ele>
        <time>2021-04-27T12:16:18Z</time>
      </trkpt>
      <trkpt lat="43.48704" lon="5.51487">
        <ele>242.2</ele>
        <time>2021-04-27T12:16:24Z</time>
      </trkpt>
      <trkpt lat="43.48699" lon="5.51487">
        <ele>260.4</ele>
        <time>2021-04-27T12:16:30Z</time>
      </trkpt>
      <trkpt lat="43.48695" lon="5.51486">
        <ele>259.4</ele>
        <time>2021-04-27T12:16:35Z</time>
      </trkpt>
      <trkpt lat="43.48693" lon="5.51484">
        <ele>258.9</ele>
        <time>2021-04-27T12:16:40Z</time>
      </trkpt>
      <trkpt lat="43.48692" lon="5.51483">
        <ele>267.8</ele>
        <time>2021-04-27T12:16:46Z</time>
      </trkpt>
      <trkpt lat="43.48691" lon="5.5148">
        <ele>234.9</ele>
        <time>2021-04-27T12:16:52Z</time>
      </trkpt>
      <trkpt lat="43.4869" lon="5.51476">
        <ele>256.1</ele>
        <time>2021-04-27T12:16:57Z</time>
      </trkpt>
      <trkpt lat="43.48689" lon="5.51472">
        <ele>265.1</ele>
        <time>2021-04-27T12:17:02Z</time>
      </trkpt>
      <trkpt lat="43.48688" lon="5.51468">
        <ele>273.2</ele>
        <time>2021-04-27T12:17:07Z</time>
      </trkpt>
      <trkpt lat="43.48686" lon="5.51462">
        <ele>253.1</ele>
        <time>2021-04-27T12:17:13Z</time>
      </trkpt>
      <trkpt lat="43.48684" lon="5.51456">
        <ele>246.1</ele>
        <time>2021-04-27T12:17:19Z</time>
      </trkpt>
      <trkpt lat="43.48682" lon="5.5145">
        <ele>235.2</ele>
        <time>2021-04-27T12:17:24Z</time>
      </trkpt>
      <trkpt lat="43.48681" lon="5.51445">
        <ele>250.2</ele>
        <time>2021-04-27T12:17:30Z</time>
      </trkpt>
      <trkpt lat="43.4868" lon="5.51439">
        <ele>251.5</ele>
        <time>2021-04-27T12:17:35Z</time>
      </trkpt>
      <trkpt lat="43.48678" lon="5.51433">
        <ele>262.6</ele>
        <time>2021-04-27T12:17:41Z</time>
      </trkpt>
      <trkpt lat="43.48674" lon="5.51428">
        <ele>280</ele>
        <time>2021-04-27T12:17:47Z</time>
      </trkpt>
      <trkpt lat="43.4867" lon="5.51428">
        <ele>252.7</ele>
        <time>2021-04-27T12:17:53Z</time>
      </trkpt>
      <trkpt lat="43.48667" lon="5.51429">
        <ele>265.5</ele>
        <time>2021-04-27T12:17:58Z</time>
      </trkpt>
      <trkpt lat="43.48664" lon="5.5143">
        <ele>243.5</ele>
        <time>2021-04-27T12:18:03Z</time>
      </trkpt>
      <trkpt lat="43.48661" lon="5.51433">
        <ele>263.9</ele>
        <time>2021-04-27T12:18:09Z</time>
      </trkpt>
      <trkpt lat="43.48657" lon="5.51435">
        <ele>255.5</ele>
        <time>2021-04-27T12:18:14Z</time>
      </trkpt>
      <trkpt lat="43.48653" lon="5.51439">
        <ele>237.1</ele>
        <time>2021-04-27T12:18:20Z</time>
      </trkpt>
      <trkpt lat="43.48649" lon="5.51441">
        <ele>243.4</ele>
        <time>2021-04-27T12:18:25Z</time>
      </trkpt>
      <trkpt lat="43.48644" lon="5.5144">
        <ele>250.7</ele>
        <time>2021-04-27T12:18:31Z</time>
      </trkpt>
      <trkpt lat="43.48641" lon="5.5144">
        <ele>257.6</ele>
        <time>2021-04-27T12:18:36Z</time>
      </trkpt>
      <trkpt lat="43.48638" lon="5.51441">
        <ele>261.7</ele>
        <time>2021-04-27T12:18:42Z</time>
      </trkpt>
      <trkpt lat="43.48633" lon="5.51441">
        <ele>263.1</ele>
        <time>2021-04-27T12:18:47Z</time>
      </trkpt>
      <trkpt lat="43.4863" lon="5.51441">
        <ele>270</ele>
        <time>2021-04-27T12:18:52Z</time>
      </trkpt>
      <trkpt lat="43.48625" lon="5.51443">
        <ele>278.8</ele>
        <time>2021-04-27T12:18:59Z</time>
      </trkpt>
      <trkpt lat="43.48623" lon="5.51447">
        <ele>249.2</ele>
        <time>2021-04-27T12:19:04Z</time>
      </trkpt>
      <trkpt lat="43.48621" lon="5.51452">
        <ele>274.8</ele>
        <time>2021-04-27T12:19:09Z</time>
      </trkpt>
      <trkpt lat="43.48618" lon="5.51455">
        <ele>269.8</ele>
        <time>2021-04-27T12:19:14Z</time>
      </trkpt>
      <trkpt lat="43.48614" lon="5.51459">
        <ele>259.1</ele>
        <time>2021-04-27T12:19:20Z</time>
      </trkpt>
      <trkpt lat="43.48611" lon="5.5146">
        <ele>273.8</ele>
        <time>2021-04-27T12:19:25Z</time>
      </trkpt>
      <trkpt lat="43.48608" lon="5.51461">
        <ele>278.8</ele>
        <time>2021-04-27T12:19:30Z</time>
      </trkpt>
      <trkpt lat="43.48603" lon="5.51461">
        <ele>239.7</ele>
        <time>2021-04-27T12:19:36Z</time>
      </trkpt>
      <trkpt lat="43.48599" lon="5.51465">
        <ele>261.4</ele>
        <time>2021-04-27T12:19:42Z</time>
      </trkpt>
      <trkpt lat="43.48595" lon="5.51466">
        <ele>267</ele>
        <time>2021-04-27T12:19:47Z</time>
      </trkpt>
      <trkpt lat="43.4859" lon="5.51465">
        <ele>266.1</ele>
        <time>2021-04-27T12:19:52Z</time>
      </trkpt>
      <trkpt lat="43.48587" lon="5.51465">
        <ele>273.3</ele>
        <time>2021-04-27T12:19:57Z</time>
      </trkpt>
      <trkpt lat="43.48582" lon="5.51461">
        <ele>258.9</ele>
        <time>2021-04-27T12:20:03Z</time>
      </trkpt>
      <trkpt lat="43.4858" lon="5.51458">
        <ele>251</ele>
        <time>2021-04-27T12:20:08Z</time>
      </trkpt>
      <trkpt lat="43.48578" lon="5.51456">
        <ele>268.1</ele>
        <time>2021-04-27T12:20:13Z</time>
      </trkpt>
      <trkpt lat="43.48575" lon="5.51453">
        <ele>254.3</ele>
        <time>2021-04-27T12:20:18Z</time>
      </trkpt>
      <trkpt lat="43.48573" lon="5.51447">
        <ele>268.3</ele>
        <time>2021-04-27T12:20:24Z</time>
      </trkpt>
      <trkpt lat="43.48571" lon="5.51442">
        <ele>266.7</ele>
        <time>2021-04-27T12:20:30Z</time>
      </trkpt>
      <trkpt lat="43.48568" lon="5.5144">
        <ele>260.2</ele>
        <time>2021-04-27T12:20:35Z</time>
      </trkpt>
      <trkpt lat="43.48565" lon="5.51437">
        <ele>281.7</ele>
        <time>2021-04-27T12:20:41Z</time>
      </trkpt>
      <trkpt lat="43.48563" lon="5.51434">
        <ele>272.3</ele>
        <time>2021-04-27T12:20:46Z</time>
      </trkpt>
      <trkpt lat="43.4856" lon="5.51429">
        <ele>260.6</ele>
        <time>2021-04-27T12:20:52Z</time>
      </trkpt>
      <trkpt lat="43.48557" lon="5.51424">
        <ele>266.9</ele>
        <time>2021-04-27T12:20:58Z</time>
      </trkpt>
      <trkpt lat="43.48552" lon="5.5142">
        <ele>271.1</ele>
        <time>2021-04-27T12:21:04Z</time>
      </trkpt>
      <trkpt lat="43.4855" lon="5.51418">
        <ele>266.7</ele>
        <time>2021-04-27T12:21:09Z</time>
      </trkpt>
      <trkpt lat="43.48547" lon="5.51417">
        <ele>276.4</ele>
        <time>2021-04-27T12:21:14Z</time>
      </trkpt>
      <trkpt lat="43.48542" lon="5.51416">
        <ele>280.4</ele>
        <time>2021-04-27T12:21:20Z</time>
      </trkpt>
      <trkpt lat="43.48539" lon="5.51418">
        <ele>270.8</ele>
        <time>2021-04-27T12:21:25Z</time>
      </trkpt>
      <trkpt lat="43.48537" lon="5.51421">
        <ele>275.4</ele>
        <time>2021-04-27T12:21:31Z</time>
      </trkpt>
      <trkpt lat="43.48537" lon="5.51427">
        <ele>270.9</ele>
        <time>2021-04-27T12:21:36Z</time>
      </trkpt>
      <trkpt lat="43.48537" lon="5.51435">
        <ele>280.7</ele>
        <time>2021-04-27T12:21:42Z</time>
      </trkpt>
      <trkpt lat="43.48537" lon="5.51437">
        <ele>266.7</ele>
        <time>2021-04-27T12:21:48Z</time>
      </trkpt>
      <trkpt lat="43.48534" lon="5.51439">
        <ele>276.9</ele>
        <time>2021-04-27T12:21:53Z</time>
      </trkpt>
      <trkpt lat="43.48533" lon="5.51439">
        <ele>267.5</ele>
        <time>2021-04-27T12:21:58Z</time>
      </trkpt>
      <trkpt lat="43.48532" lon="5.51442">
        <ele>288.2</ele>
        <time>2021-04-27T12:22:03Z</time>
      </trkpt>
      <trkpt lat="43.48528" lon="5.51446">
        <ele>279.2</ele>
        <time>2021-04-27T12:22:09Z</time>
      </trkpt>
      <trkpt lat="43.48524" lon="5.51449">
        <ele>272.5</ele>
        <time>2021-04-27T12:22:15Z</time>
      </trkpt>
      <trkpt lat="43.48519" lon="5.5145">
        <ele>278</ele>
        <time>2021-04-27T12:22:20Z</time>
      </trkpt>
      <trkpt lat="43.48515" lon="5.51451">
        <ele>258.2</ele>
        <time>2021-04-27T12:22:26Z</time>
      </trkpt>
      <trkpt lat="43.48512" lon="5.51451">
        <ele>269.7</ele>
        <time>2021-04-27T12:22:31Z</time>
      </trkpt>
      <trkpt lat="43.48508" lon="5.51449">
        <ele>272.6</ele>
        <time>2021-04-27T12:22:37Z</time>
      </trkpt>
      <trkpt lat="43.48505" lon="5.51445">
        <ele>283.4</ele>
        <time>2021-04-27T12:22:43Z</time>
      </trkpt>
      <trkpt lat="43.48504" lon="5.51441">
        <ele>267.1</ele>
        <time>2021-04-27T12:22:48Z</time>
      </trkpt>
      <trkpt lat="43.48503" lon="5.51438">
        <ele>269.5</ele>
        <time>2021-04-27T12:22:53Z</time>
      </trkpt>
      <trkpt lat="43.48504" lon="5.51435">
        <ele>259.3</ele>
        <time>2021-04-27T12:22:59Z</time>
      </trkpt>
      <trkpt lat="43.48504" lon="5.51429">
        <ele>275.9</ele>
        <time>2021-04-27T12:23:05Z</time>
      </trkpt>
      <trkpt lat="43.48503" lon="5.51422">
        <ele>271.1</ele>
        <time>2021-04-27T12:23:10Z</time>
      </trkpt>
      <trkpt lat="43.48501" lon="5.51416">
        <ele>274</ele>
        <time>2021-04-27T12:23:15Z</time>
      </trkpt>
      <trkpt lat="43.48501" lon="5.51411">
        <ele>282.5</ele>
        <time>2021-04-27T12:23:21Z</time>
      </trkpt>
      <trkpt lat="43.48499" lon="5.51404">
        <ele>267.6</ele>
        <time>2021-04-27T12:23:26Z</time>
      </trkpt>
      <trkpt lat="43.48498" lon="5.51397">
        <ele>282.5</ele>
        <time>2021-04-27T12:23:32Z</time>
      </trkpt>
      <trkpt lat="43.48498" lon="5.51395">
        <ele>283.6</ele>
        <time>2021-04-27T12:23:38Z</time>
      </trkpt>
      <trkpt lat="43.48496" lon="5.51389">
        <ele>270.4</ele>
        <time>2021-04-27T12:23:43Z</time>
      </trkpt>
      <trkpt lat="43.48495" lon="5.51383">
        <ele>274.9</ele>
        <time>2021-04-27T12:23:49Z</time>
      </trkpt>
      <trkpt lat="43.48494" lon="5.51378">
        <ele>273.7</ele>
        <time>2021-04-27T12:23:54Z</time>
      </trkpt>
      <trkpt lat="43.48491" lon="5.51368">
        <ele>270.7</ele>
        <time>2021-04-27T12:24:01Z</time>
      </trkpt>
      <trkpt lat="43.4849" lon="5.51363">
        <ele>291.6</ele>
        <time>2021-04-27T12:24:06Z</time>
      </trkpt>
      <trkpt lat="43.48488" lon="5.51355">
        <ele>289.1</ele>
        <time>2021-04-27T12:24:12Z</time>
      </trkpt>
      <trkpt lat="43.48486" lon="5.51348">
        <ele>278.7</ele>
        <time>2021-04-27T12:24:18Z</time>
      </trkpt>
      <trkpt lat="43.48483" lon="5.51341">
        <ele>271.3</ele>
        <time>2021-04-27T12:24:23Z</time>
      </trkpt>
      <trkpt lat="43.48483" lon="5.51334">
        <ele>286.2</ele>
        <time>2021-04-27T12:24:29Z</time>
      </trkpt>
      <trkpt lat="43.48483" lon="5.51324">
        <ele>287.5</ele>
        <time>2021-04-27T12:24:35Z</time>
      </trkpt>
      <trkpt lat="43.48484" lon="5.51318">
        <ele>282.6</ele>
        <time>2021-04-27T12:24:41Z</time>
      </trkpt>
      <trkpt lat="43.48485" lon="5.51312">
        <ele>277.2</ele>
        <time>2021-04-27T12:24:46Z</time>
      </trkpt>
      <trkpt lat="43.48485" lon="5.51307">
        <ele>279.7</ele>
        <time>2021-04-27T12:24:52Z</time>
      </trkpt>
      <trkpt lat="43.48487" lon="5.51304">
        <ele>257.2</ele>
        <time>2021-04-27T12:24:58Z</time>
      </trkpt>
      <trkpt lat="43.4849" lon="5.51298">
        <ele>261.9</ele>
        <time>2021-04-27T12:25:03Z</time>
      </trkpt>
      <trkpt lat="43.4849" lon="5.51292">
        <ele>263</ele>
        <time>2021-04-27T12:25:08Z</time>
      </trkpt>
      <trkpt lat="43.4849" lon="5.51287">
        <ele>272</ele>
        <time>2021-04-27T12:25:13Z</time>
      </trkpt>
      <trkpt lat="43.48489" lon="5.51281">
        <ele>273.5</ele>
        <time>2021-04-27T12:25:19Z</time>
      </trkpt>
      <trkpt lat="43.48489" lon="5.51275">
        <ele>262.7</ele>
        <time>2021-04-27T12:25:24Z</time>
      </trkpt>
      <trkpt lat="43.4849" lon="5.51268">
        <ele>253.3</ele>
        <time>2021-04-27T12:25:30Z</time>
      </trkpt>
      <trkpt lat="43.48489" lon="5.51259">
        <ele>251.6</ele>
        <time>2021-04-27T12:25:35Z</time>
      </trkpt>
      <trkpt lat="43.4849" lon="5.51252">
        <ele>264.9</ele>
        <time>2021-04-27T12:25:41Z</time>
      </trkpt>
      <trkpt lat="43.48489" lon="5.51244">
        <ele>246.9</ele>
        <time>2021-04-27T12:25:47Z</time>
      </trkpt>
      <trkpt lat="43.48488" lon="5.5124">
        <ele>262</ele>
        <time>2021-04-27T12:25:52Z</time>
      </trkpt>
      <trkpt lat="43.48486" lon="5.51232">
        <ele>267.2</ele>
        <time>2021-04-27T12:25:58Z</time>
      </trkpt>
      <trkpt lat="43.48484" lon="5.51227">
        <ele>259.1</ele>
        <time>2021-04-27T12:26:03Z</time>
      </trkpt>
      <trkpt lat="43.48481" lon="5.51222">
        <ele>280.8</ele>
        <time>2021-04-27T12:26:08Z</time>
      </trkpt>
      <trkpt lat="43.48477" lon="5.51219">
        <ele>267.6</ele>
        <time>2021-04-27T12:26:14Z</time>
      </trkpt>
      <trkpt lat="43.48475" lon="5.51218">
        <ele>266.3</ele>
        <time>2021-04-27T12:26:20Z</time>
      </trkpt>
      <trkpt lat="43.48473" lon="5.51217">
        <ele>263</ele>
        <time>2021-04-27T12:26:25Z</time>
      </trkpt>
      <trkpt lat="43.4847" lon="5.51215">
        <ele>278</ele>
        <time>2021-04-27T12:26:30Z</time>
      </trkpt>
      <trkpt lat="43.48465" lon="5.51211">
        <ele>265.2</ele>
        <time>2021-04-27T12:26:35Z</time>
      </trkpt>
      <trkpt lat="43.4846" lon="5.51207">
        <ele>268.4</ele>
        <time>2021-04-27T12:26:41Z</time>
      </trkpt>
      <trkpt lat="43.48457" lon="5.51202">
        <ele>268.8</ele>
        <time>2021-04-27T12:26:47Z</time>
      </trkpt>
      <trkpt lat="43.48453" lon="5.51195">
        <ele>252.4</ele>
        <time>2021-04-27T12:26:53Z</time>
      </trkpt>
      <trkpt lat="43.4845" lon="5.5119">
        <ele>267.2</ele>
        <time>2021-04-27T12:26:58Z</time>
      </trkpt>
      <trkpt lat="43.48448" lon="5.51184">
        <ele>274.6</ele>
        <time>2021-04-27T12:27:03Z</time>
      </trkpt>
      <trkpt lat="43.48445" lon="5.51176">
        <ele>268.6</ele>
        <time>2021-04-27T12:27:09Z</time>
      </trkpt>
      <trkpt lat="43.48444" lon="5.51172">
        <ele>257.2</ele>
        <time>2021-04-27T12:27:14Z</time>
      </trkpt>
      <trkpt lat="43.48442" lon="5.51168">
        <ele>280.6</ele>
        <time>2021-04-27T12:27:20Z</time>
      </trkpt>
      <trkpt lat="43.48442" lon="5.51166">
        <ele>272.1</ele>
        <time>2021-04-27T12:27:25Z</time>
      </trkpt>
      <trkpt lat="43.48443" lon="5.51161">
        <ele>269.4</ele>
        <time>2021-04-27T12:27:30Z</time>
      </trkpt>
      <trkpt lat="43.48442" lon="5.51158">
        <ele>267.3</ele>
        <time>2021-04-27T12:27:36Z</time>
      </trkpt>
      <trkpt lat="43.48442" lon="5.51154">
        <ele>265.6</ele>
        <time>2021-04-27T12:27:41Z</time>
      </trkpt>
      <trkpt lat="43.48443" lon="5.51151">
        <ele>248</ele>
        <time>2021-04-27T12:27:46Z</time>
      </trkpt>
      <trkpt lat="43.48446" lon="5.51146">
        <ele>282.8</ele>
        <time>2021-04-27T12:27:52Z</time>
      </trkpt>
      <trkpt lat="43.48448" lon="5.51143">
        <ele>270.9</ele>
        <time>2021-04-27T12:27:57Z</time>
      </trkpt>
      <trkpt lat="43.48451" lon="5.51137">
        <ele>272.9</ele>
        <time>2021-04-27T12:28:03Z</time>
      </trkpt>
      <trkpt lat="43.48454" lon="5.51132">
        <ele>268.5</ele>
        <time>2021-04-27T12:28:08Z</time>
      </trkpt>
      <trkpt lat="43.48455" lon="5.51129">
        <ele>264.3</ele>
        <time>2021-04-27T12:28:13Z</time>
      </trkpt>
      <trkpt lat="43.48456" lon="5.51126">
        <ele>284.9</ele>
        <time>2021-04-27T12:28:19Z</time>
      </trkpt>
      <trkpt lat="43.48457" lon="5.51122">
        <ele>285.8</ele>
        <time>2021-04-27T12:28:24Z</time>
      </trkpt>
      <trkpt lat="43.48458" lon="5.5112">
        <ele>268.8</ele>
        <time>2021-04-27T12:28:29Z</time>
      </trkpt>
      <trkpt lat="43.48459" lon="5.51115">
        <ele>271.2</ele>
        <time>2021-04-27T12:28:35Z</time>
      </trkpt>
      <trkpt lat="43.48459" lon="5.51113">
        <ele>271.4</ele>
        <time>2021-04-27T12:28:40Z</time>
      </trkpt>
      <trkpt lat="43.48459" lon="5.51114">
        <ele>294.3</ele>
        <time>2021-04-27T12:28:45Z</time>
      </trkpt>
      <trkpt lat="43.48459" lon="5.51114">
        <ele>262.5</ele>
        <time>2021-04-27T12:28:50Z</time>
      </trkpt>
      <trkpt lat="43.48458" lon="5.51111">
        <ele>287.2</ele>
        <time>2021-04-27T12:28:56Z</time>
      </trkpt>
      <trkpt lat="43.48459" lon="5.5111">
        <ele>290.4</ele>
        <time>2021-04-27T12:29:01Z</time>
      </trkpt>
      <trkpt lat="43.48459" lon="5.5111">
        <ele>287.3</ele>
        <time>2021-04-27T12:29:06Z</time>
      </trkpt>
      <trkpt lat="43.48459" lon="5.5111">
        <ele>260.7</ele>
        <time>2021-04-27T12:29:11Z</time>
      </trkpt>
      <trkpt lat="43.48459" lon="5.5111">
        <ele>269.4</ele>
        <time>2021-04-27T12:29:17Z</time>
      </trkpt>
      <trkpt lat="43.48459" lon="5.5111">
        <ele>282.5</ele>
        <time>2021-04-27T12:29:22Z</time>
      </trkpt>
      <trkpt lat="43.48459" lon="5.5111">
        <ele>272.9</ele>
        <time>2021-04-27T12:29:28Z</time>
      </trkpt>
      <trkpt lat="43.48459" lon="5.5111">
        <ele>271.2</ele>
        <time>2021-04-27T12:29:33Z</time>
      </trkpt>
      <trkpt lat="43.48459" lon="5.5111">
        <ele>277.2</ele>
        <time>2021-04-27T12:29:38Z</time>
      </trkpt>
      <trkpt lat="43.48459" lon="5.5111">
        <ele>281.9</ele>
        <time>2021-04-27T12:29:44Z</time>
      </trkpt>
      <trkpt lat="43.48459" lon="5.5111">
        <ele>272.6</ele>
        <time>2021-04-27T12:29:49Z</time>
      </trkpt>
      <trkpt lat="43.48459" lon="5.5111">
        <ele>274.9</ele>
        <time>2021-04-27T12:29:54Z</time>
      </trkpt>
      <trkpt lat="43.48459" lon="5.5111">
        <ele>286.8</ele>
        <time>2021-04-27T12:30:00Z</time>
      </trkpt>
      <trkpt lat="43.48459" lon="5.5111">
        <ele>276.5</ele>
        <time>2021-04-27T12:30:05Z</time>
      </trkpt>
      <trkpt lat="43.48459" lon="5.5111">
        <ele>297.8</ele>
        <time>2021-04-27T12:30:10Z</time>
      </trkpt>
      <trkpt lat="43.48459" lon="5.5111">
        <ele>284</ele>
        <time>2021-04-27T12:30:16Z</time>
      </trkpt>
      <trkpt lat="43.48459" lon="5.5111">
        <ele>289.7</ele>
        <time>2021-04-27T12:30:21Z</time>
      </trkpt>
      <trkpt lat="43.48459" lon="5.5111">
        <ele>248.2</ele>
        <time>2021-04-27T12:30:27Z</time>
      </trkpt>
      <trkpt lat="43.48459" lon="5.5111">
        <ele>281.9</ele>
        <time>2021-04-27T12:30:33Z</time>
      </trkpt>
      <trkpt lat="43.48459" lon="5.5111">
        <ele>280.9</ele>
        <time>2021-04-27T12:30:39Z</time>
      </trkpt>
      <trkpt lat="43.48459" lon="5.5111">
        <ele>281.6</ele>
        <time>2021-04-27T12:30:45Z</time>
      </trkpt>
      <trkpt lat="43.48459" lon="5.5111">
        <ele>282</ele>
        <time>2021-04-27T12:30:50Z</time>
      </trkpt>
      <trkpt lat="43.48459" lon="5.5111">
        <ele>282.8</ele>
        <time>2021-04-27T12:30:56Z</time>
      </trkpt>
      <trkpt lat="43.48459" lon="5.5111">
        <ele>278.6</ele>
        <time>2021-04-27T12:31:01Z</time>
      </trkpt>
      <trkpt lat="43.48459" lon="5.5111">
        <ele>256.8</ele>
        <time>2021-04-27T12:31:07Z</time>
      </trkpt>
      <trkpt lat="43.48459" lon="5.5111">
        <ele>273.6</ele>
        <time>2021-04-27T12:31:13Z</time>
      </trkpt>
      <trkpt lat="43.48459" lon="5.5111">
        <ele>263.7</ele>
        <time>2021-04-27T12:31:18Z</time>
      </trkpt>
      <trkpt lat="43.48459" lon="5.5111">
        <ele>272.2</ele>
        <time>2021-04-27T12:31:24Z</time>
      </trkpt>
      <trkpt lat="43.48459" lon="5.5111">
        <ele>280.3</ele>
        <time>2021-04-27T12:31:30Z</time>
      </trkpt>
      <trkpt lat="43.48459" lon="5.5111">
        <ele>279.8</ele>
        <time>2021-04-27T12:31:36Z</time>
      </trkpt>
      <trkpt lat="43.48459" lon="5.5111">
        <ele>269.4</ele>
        <time>2021-04-27T12:31:42Z</time>
      </trkpt>
      <trkpt lat="43.48459" lon="5.5111">
        <ele>283.1</ele>
        <time>2021-04-27T12:31:48Z</time>
      </trkpt>
      <trkpt lat="43.48459" lon="5.5111">
        <ele>270.1</ele>
        <time>2021-04-27T12:31:53Z</time>
      </trkpt>
      <trkpt lat="43.48459" lon="5.5111">
        <ele>273.6</ele>
        <time>2021-04-27T12:31:59Z</time>
      </trkpt>
      <trkpt lat="43.48459" lon="5.5111">
        <ele>296.4</ele>
        <time>2021-04-27T12:32:05Z</time>
      </trkpt>
      <trkpt lat="43.48459" lon="5.5111">
        <ele>273.2</ele>
        <time>2021-04-27T12:32:11Z</time>
      </trkpt>
      <trkpt lat="43.48457" lon="5.51109">
        <ele>270</ele>
        <time>2021-04-27T12:32:16Z</time>
      </trkpt>
      <trkpt lat="43.48456" lon="5.51107">
        <ele>284.3</ele>
        <time>2021-04-27T12:32:22Z</time>
      </trkpt>
      <trkpt lat="43.48456" lon="5.51107">
        <ele>292.6</ele>
        <time>2021-04-27T12:32:27Z</time>
      </trkpt>
      <trkpt lat="43.48456" lon="5.51103">
        <ele>256.7</ele>
        <time>2021-04-27T12:32:33Z</time>
      </trkpt>
      <trkpt lat="43.48457" lon="5.511">
        <ele>271.7</ele>
        <time>2021-04-27T12:32:39Z</time>
      </trkpt>
      <trkpt lat="43.48458" lon="5.51095">
        <ele>287.8</ele>
        <time>2021-04-27T12:32:45Z</time>
      </trkpt>
      <trkpt lat="43.48458" lon="5.51089">
        <ele>276.2</ele>
        <time>2021-04-27T12:32:50Z</time>
      </trkpt>
      <trkpt lat="43.48458" lon="5.51083">
        <ele>273.3</ele>
        <time>2021-04-27T12:32:55Z</time>
      </trkpt>
      <trkpt lat="43.48457" lon="5.51075">
        <ele>271.4</ele>
        <time>2021-04-27T12:33:01Z</time>
      </trkpt>
      <trkpt lat="43.48458" lon="5.5107">
        <ele>267.9</ele>
        <time>2021-04-27T12:33:07Z</time>
      </trkpt>
      <trkpt lat="43.48458" lon="5.51064">
        <ele>270.9</ele>
        <time>2021-04-27T12:33:13Z</time>
      </trkpt>
      <trkpt lat="43.48459" lon="5.5106">
        <ele>289.3</ele>
        <time>2021-04-27T12:33:18Z</time>
      </trkpt>
      <trkpt lat="43.48459" lon="5.51056">
        <ele>282.4</ele>
        <time>2021-04-27T12:33:24Z</time>
      </trkpt>
      <trkpt lat="43.48459" lon="5.5105">
        <ele>271.7</ele>
        <time>2021-04-27T12:33:30Z</time>
      </trkpt>
      <trkpt lat="43.48458" lon="5.51044">
        <ele>260.2</ele>
        <time>2021-04-27T12:33:36Z</time>
      </trkpt>
      <trkpt lat="43.48457" lon="5.51039">
        <ele>282.8</ele>
        <time>2021-04-27T12:33:42Z</time>
      </trkpt>
      <trkpt lat="43.48455" lon="5.51033">
        <ele>282.7</ele>
        <time>2021-04-27T12:33:47Z</time>
      </trkpt>
      <trkpt lat="43.48454" lon="5.51029">
        <ele>276.4</ele>
        <time>2021-04-27T12:33:52Z</time>
      </trkpt>
      <trkpt lat="43.48453" lon="5.51025">
        <ele>272.8</ele>
        <time>2021-04-27T12:33:57Z</time>
      </trkpt>
      <trkpt lat="43.48453" lon="5.51018">
        <ele>287.1</ele>
        <time>2021-04-27T12:34:03Z</time>
      </trkpt>
      <trkpt lat="43.48454" lon="5.51011">
        <ele>282.2</ele>
        <time>2021-04-27T12:34:09Z</time>
      </trkpt>
      <trkpt lat="43.48453" lon="5.51005">
        <ele>281.1</ele>
        <time>2021-04-27T12:34:15Z</time>
      </trkpt>
      <trkpt lat="43.48452" lon="5.50999">
        <ele>272.5</ele>
        <time>2021-04-27T12:34:21Z</time>
      </trkpt>
      <trkpt lat="43.48452" lon="5.50993">
        <ele>277.2</ele>
        <time>2021-04-27T12:34:26Z</time>
      </trkpt>
      <trkpt lat="43.48451" lon="5.50987">
        <ele>300.2</ele>
        <time>2021-04-27T12:34:32Z</time>
      </trkpt>
      <trkpt lat="43.48451" lon="5.5098">
        <ele>297.5</ele>
        <time>2021-04-27T12:34:38Z</time>
      </trkpt>
      <trkpt lat="43.4845" lon="5.50975">
        <ele>288.1</ele>
        <time>2021-04-27T12:34:44Z</time>
      </trkpt>
      <trkpt lat="43.48449" lon="5.50972">
        <ele>280.6</ele>
        <time>2021-04-27T12:34:49Z</time>
      </trkpt>
      <trkpt lat="43.48448" lon="5.50967">
        <ele>286</ele>
        <time>2021-04-27T12:34:54Z</time>
      </trkpt>
      <trkpt lat="43.48447" lon="5.50962">
        <ele>262.9</ele>
        <time>2021-04-27T12:35:00Z</time>
      </trkpt>
      <trkpt lat="43.48448" lon="5.50955">
        <ele>281.5</ele>
        <time>2021-04-27T12:35:05Z</time>
      </trkpt>
      <trkpt lat="43.4845" lon="5.50948">
        <ele>284.3</ele>
        <time>2021-04-27T12:35:11Z</time>
      </trkpt>
      <trkpt lat="43.4845" lon="5.50941">
        <ele>277.1</ele>
        <time>2021-04-27T12:35:17Z</time>
      </trkpt>
      <trkpt lat="43.4845" lon="5.50934">
        <ele>278.4</ele>
        <time>2021-04-27T12:35:23Z</time>
      </trkpt>
      <trkpt lat="43.48446" lon="5.50926">
        <ele>293.3</ele>
        <time>2021-04-27T12:35:29Z</time>
      </trkpt>
      <trkpt lat="43.48446" lon="5.50919">
        <ele>271</ele>
        <time>2021-04-27T12:35:35Z</time>
      </trkpt>
      <trkpt lat="43.48445" lon="5.50915">
        <ele>277.4</ele>
        <time>2021-04-27T12:35:41Z</time>
      </trkpt>
      <trkpt lat="43.48443" lon="5.50909">
        <ele>274.4</ele>
        <time>2021-04-27T12:35:47Z</time>
      </trkpt>
      <trkpt lat="43.4844" lon="5.50904">
        <ele>287.8</ele>
        <time>2021-04-27T12:35:52Z</time>
      </trkpt>
      <trkpt lat="43.48437" lon="5.50898">
        <ele>267.1</ele>
        <time>2021-04-27T12:35:57Z</time>
      </trkpt>
      <trkpt lat="43.48435" lon="5.5089">
        <ele>287.8</ele>
        <time>2021-04-27T12:36:03Z</time>
      </trkpt>
      <trkpt lat="43.48434" lon="5.50885">
        <ele>271.3</ele>
        <time>2021-04-27T12:36:08Z</time>
      </trkpt>
      <trkpt lat="43.48431" lon="5.50882">
        <ele>271.7</ele>
        <time>2021-04-27T12:36:13Z</time>
      </trkpt>
      <trkpt lat="43.48428" lon="5.50877">
        <ele>285.3</ele>
        <time>2021-04-27T12:36:19Z</time>
      </trkpt>
      <trkpt lat="43.48426" lon="5.50873">
        <ele>290.5</ele>
        <time>2021-04-27T12:36:25Z</time>
      </trkpt>
      <trkpt lat="43.48424" lon="5.50867">
        <ele>267.6</ele>
        <time>2021-04-27T12:36:31Z</time>
      </trkpt>
      <trkpt lat="43.48423" lon="5.50861">
        <ele>292.7</ele>
        <time>2021-04-27T12:36:37Z</time>
      </trkpt>
      <trkpt lat="43.48422" lon="5.50856">
        <ele>273.2</ele>
        <time>2021-04-27T12:36:42Z</time>
      </trkpt>
      <trkpt lat="43.48421" lon="5.5085">
        <ele>270</ele>
        <time>2021-04-27T12:36:47Z</time>
      </trkpt>
      <trkpt lat="43.48419" lon="5.50846">
        <ele>273.6</ele>
        <time>2021-04-27T12:36:52Z</time>
      </trkpt>
      <trkpt lat="43.48418" lon="5.50842">
        <ele>281.1</ele>
        <time>2021-04-27T12:36:58Z</time>
      </trkpt>
      <trkpt lat="43.48417" lon="5.50837">
        <ele>290.5</ele>
        <time>2021-04-27T12:37:03Z</time>
      </trkpt>
      <trkpt lat="43.48416" lon="5.50832">
        <ele>270.2</ele>
        <time>2021-04-27T12:37:09Z</time>
      </trkpt>
      <trkpt lat="43.48415" lon="5.50827">
        <ele>308</ele>
        <time>2021-04-27T12:37:15Z</time>
      </trkpt>
      <trkpt lat="43.48416" lon="5.5082">
        <ele>268.7</ele>
        <time>2021-04-27T12:37:21Z</time>
      </trkpt>
      <trkpt lat="43.48416" lon="5.50814">
        <ele>275.3</ele>
        <time>2021-04-27T12:37:27Z</time>
      </trkpt>
      <trkpt lat="43.48417" lon="5.50807">
        <ele>292</ele>
        <time>2021-04-27T12:37:32Z</time>
      </trkpt>
      <trkpt lat="43.48418" lon="5.50799">
        <ele>262.8</ele>
        <time>2021-04-27T12:37:37Z</time>
      </trkpt>
      <trkpt lat="43.4842" lon="5.50791">
        <ele>264.8</ele>
        <time>2021-04-27T12:37:43Z</time>
      </trkpt>
      <trkpt lat="43.48421" lon="5.50783">
        <ele>255.7</ele>
        <time>2021-04-27T12:37:49Z</time>
      </trkpt>
      <trkpt lat="43.48423" lon="5.50776">
        <ele>279.8</ele>
        <time>2021-04-27T12:37:54Z</time>
      </trkpt>
      <trkpt lat="43.48423" lon="5.50769">
        <ele>268.2</ele>
        <time>2021-04-27T12:38:00Z</time>
      </trkpt>
      <trkpt lat="43.48424" lon="5.50762">
        <ele>277.8</ele>
        <time>2021-04-27T12:38:06Z</time>
      </trkpt>
      <trkpt lat="43.48424" lon="5.50761">
        <ele>264.3</ele>
        <time>2021-04-27T12:38:12Z</time>
      </trkpt>
      <trkpt lat="43.48424" lon="5.50761">
        <ele>273.3</ele>
        <time>2021-04-27T12:38:17Z</time>
      </trkpt>
      <trkpt lat="43.48424" lon="5.50761">
        <ele>265.9</ele>
        <time>2021-04-27T12:38:23Z</time>
      </trkpt>
      <trkpt lat="43.48424" lon="5.50761">
        <ele>292.8</ele>
        <time>2021-04-27T12:38:29Z</time>
      </trkpt>
      <trkpt lat="43.48424" lon="5.50761">
        <ele>260</ele>
        <time>2021-04-27T12:38:34Z</time>
      </trkpt>
      <trkpt lat="43.48424" lon="5.50761">
        <ele>272.6</ele>
        <time>2021-04-27T12:38:39Z</time>
      </trkpt>
      <trkpt lat="43.48424" lon="5.50761">
        <ele>275.8</ele>
        <time>2021-04-27T12:38:45Z</time>
      </trkpt>
      <trkpt lat="43.48424" lon="5.50761">
        <ele>275.4</ele>
        <time>2021-04-27T12:38:50Z</time>
      </trkpt>
      <trkpt lat="43.48424" lon="5.50761">
        <ele>284</ele>
        <time>2021-04-27T12:38:55Z</time>
      </trkpt>
      <trkpt lat="43.48424" lon="5.50761">
        <ele>282.9</ele>
        <time>2021-04-27T12:39:01Z</time>
      </trkpt>
      <trkpt lat="43.48424" lon="5.50761">
        <ele>284</ele>
        <time>2021-04-27T12:39:06Z</time>
      </trkpt>
      <trkpt lat="43.48424" lon="5.50761">
        <ele>276.5</ele>
        <time>2021-04-27T12:39:11Z</time>
      </trkpt>
      <trkpt lat="43.48424" lon="5.50761">
        <ele>251.2</ele>
        <time>2021-04-27T12:39:17Z</time>
      </trkpt>
      <trkpt lat="43.48424" lon="5.5076">
        <ele>261.5</ele>
        <time>2021-04-27T12:39:22Z</time>
      </trkpt>
      <trkpt lat="43.48426" lon="5.50752">
        <ele>296.9</ele>
        <time>2021-04-27T12:39:27Z</time>
      </trkpt>
      <trkpt lat="43.48426" lon="5.50747">
        <ele>283.7</ele>
        <time>2021-04-27T12:39:33Z</time>
      </trkpt>
      <trkpt lat="43.48427" lon="5.50742">
        <ele>263.7</ele>
        <time>2021-04-27T12:39:39Z</time>
      </trkpt>
      <trkpt lat="43.48428" lon="5.50732">
        <ele>263</ele>
        <time>2021-04-27T12:39:47Z</time>
      </trkpt>
      <trkpt lat="43.48427" lon="5.50723">
        <ele>271.7</ele>
        <time>2021-04-27T12:39:53Z</time>
      </trkpt>
      <trkpt lat="43.48428" lon="5.50717">
        <ele>275.5</ele>
        <time>2021-04-27T12:39:58Z</time>
      </trkpt>
      <trkpt lat="43.48428" lon="5.50711">
        <ele>258.1</ele>
        <time>2021-04-27T12:40:04Z</time>
      </trkpt>
      <trkpt lat="43.48428" lon="5.50705">
        <ele>262.8</ele>
        <time>2021-04-27T12:40:09Z</time>
      </trkpt>
      <trkpt lat="43.48428" lon="5.507">
        <ele>276.2</ele>
        <time>2021-04-27T12:40:15Z</time>
      </trkpt>
      <trkpt lat="43.48427" lon="5.50693">
        <ele>267.2</ele>
        <time>2021-04-27T12:40:21Z</time>
      </trkpt>
      <trkpt lat="43.48426" lon="5.50687">
        <ele>268.1</ele>
        <time>2021-04-27T12:40:27Z</time>
      </trkpt>
      <trkpt lat="43.48424" lon="5.50681">
        <ele>276.3</ele>
        <time>2021-04-27T12:40:32Z</time>
      </trkpt>
      <trkpt lat="43.48423" lon="5.50676">
        <ele>282.2</ele>
        <time>2021-04-27T12:40:37Z</time>
      </trkpt>
      <trkpt lat="43.48423" lon="5.50671">
        <ele>282.5</ele>
        <time>2021-04-27T12:40:43Z</time>
      </trkpt>
      <trkpt lat="43.48421" lon="5.50665">
        <ele>274.7</ele>
        <time>2021-04-27T12:40:49Z</time>
      </trkpt>
      <trkpt lat="43.4842" lon="5.50664">
        <ele>261.6</ele>
        <time>2021-04-27T12:40:54Z</time>
      </trkpt>
      <trkpt lat="43.48418" lon="5.50657">
        <ele>298.8</ele>
        <time>2021-04-27T12:41:00Z</time>
      </trkpt>
      <trkpt lat="43.48417" lon="5.50651">
        <ele>262.2</ele>
        <time>2021-04-27T12:41:06Z</time>
      </trkpt>
      <trkpt lat="43.48416" lon="5.50646">
        <ele>289.6</ele>
        <time>2021-04-27T12:41:11Z</time>
      </trkpt>
      <trkpt lat="43.48415" lon="5.50643">
        <ele>289.4</ele>
        <time>2021-04-27T12:41:17Z</time>
      </trkpt>
      <trkpt lat="43.48412" lon="5.50641">
        <ele>290.2</ele>
        <time>2021-04-27T12:41:22Z</time>
      </trkpt>
      <trkpt lat="43.4841" lon="5.50637">
        <ele>270.7</ele>
        <time>2021-04-27T12:41:27Z</time>
      </trkpt>
      <trkpt lat="43.48409" lon="5.50632">
        <ele>278.9</ele>
        <time>2021-04-27T12:41:32Z</time>
      </trkpt>
      <trkpt lat="43.48405" lon="5.50625">
        <ele>281.3</ele>
        <time>2021-04-27T12:41:37Z</time>
      </trkpt>
      <trkpt lat="43.48402" lon="5.50621">
        <ele>291.3</ele>
        <time>2021-04-27T12:41:42Z</time>
      </trkpt>
      <trkpt lat="43.48399" lon="5.50617">
        <ele>287.5</ele>
        <time>2021-04-27T12:41:47Z</time>
      </trkpt>
      <trkpt lat="43.48396" lon="5.50614">
        <ele>289</ele>
        <time>2021-04-27T12:41:53Z</time>
      </trkpt>
      <trkpt lat="43.48394" lon="5.50609">
        <ele>276.3</ele>
        <time>2021-04-27T12:41:59Z</time>
      </trkpt>
      <trkpt lat="43.48391" lon="5.50605">
        <ele>277.2</ele>
        <time>2021-04-27T12:42:04Z</time>
      </trkpt>
      <trkpt lat="43.48388" lon="5.506">
        <ele>276.4</ele>
        <time>2021-04-27T12:42:10Z</time>
      </trkpt>
      <trkpt lat="43.48387" lon="5.50597">
        <ele>273.8</ele>
        <time>2021-04-27T12:42:15Z</time>
      </trkpt>
      <trkpt lat="43.48382" lon="5.50592">
        <ele>279.2</ele>
        <time>2021-04-27T12:42:21Z</time>
      </trkpt>
      <trkpt lat="43.48379" lon="5.50589">
        <ele>258.8</ele>
        <time>2021-04-27T12:42:26Z</time>
      </trkpt>
      <trkpt lat="43.48378" lon="5.50585">
        <ele>271.5</ele>
        <time>2021-04-27T12:42:31Z</time>
      </trkpt>
      <trkpt lat="43.48376" lon="5.5058">
        <ele>304.5</ele>
        <time>2021-04-27T12:42:36Z</time>
      </trkpt>
      <trkpt lat="43.48373" lon="5.50578">
        <ele>278.2</ele>
        <time>2021-04-27T12:42:41Z</time>
      </trkpt>
      <trkpt lat="43.4837" lon="5.50576">
        <ele>280.4</ele>
        <time>2021-04-27T12:42:47Z</time>
      </trkpt>
      <trkpt lat="43.48366" lon="5.50575">
        <ele>248.2</ele>
        <time>2021-04-27T12:42:52Z</time>
      </trkpt>
      <trkpt lat="43.48365" lon="5.50575">
        <ele>282.7</ele>
        <time>2021-04-27T12:42:58Z</time>
      </trkpt>
      <trkpt lat="43.48365" lon="5.50581">
        <ele>284.9</ele>
        <time>2021-04-27T12:43:04Z</time>
      </trkpt>
      <trkpt lat="43.48363" lon="5.50583">
        <ele>287.2</ele>
        <time>2021-04-27T12:43:10Z</time>
      </trkpt>
      <trkpt lat="43.48364" lon="5.50581">
        <ele>272.4</ele>
        <time>2021-04-27T12:43:16Z</time>
      </trkpt>
      <trkpt lat="43.48364" lon="5.50581">
        <ele>278.2</ele>
        <time>2021-04-27T12:43:21Z</time>
      </trkpt>
      <trkpt lat="43.48364" lon="5.50581">
        <ele>274.7</ele>
        <time>2021-04-27T12:43:26Z</time>
      </trkpt>
      <trkpt lat="43.48364" lon="5.50581">
        <ele>280.9</ele>
        <time>2021-04-27T12:43:31Z</time>
      </trkpt>
      <trkpt lat="43.48364" lon="5.50581">
        <ele>286.8</ele>
        <time>2021-04-27T12:43:37Z</time>
      </trkpt>
      <trkpt lat="43.48364" lon="5.50581">
        <ele>278.9</ele>
        <time>2021-04-27T12:43:42Z</time>
      </trkpt>
      <trkpt lat="43.48363" lon="5.50581">
        <ele>280.5</ele>
        <time>2021-04-27T12:43:48Z</time>
      </trkpt>
      <trkpt lat="43.48363" lon="5.50581">
        <ele>280.7</ele>
        <time>2021-04-27T12:43:53Z</time>
      </trkpt>
      <trkpt lat="43.48363" lon="5.50581">
        <ele>284.1</ele>
        <time>2021-04-27T12:43:58Z</time>
      </trkpt>
      <trkpt lat="43.48363" lon="5.50581">
        <ele>274</ele>
        <time>2021-04-27T12:44:03Z</time>
      </trkpt>
      <trkpt lat="43.48363" lon="5.50581">
        <ele>301.7</ele>
        <time>2021-04-27T12:44:08Z</time>
      </trkpt>
      <trkpt lat="43.48363" lon="5.50581">
        <ele>257</ele>
        <time>2021-04-27T12:44:13Z</time>
      </trkpt>
      <trkpt lat="43.48362" lon="5.50579">
        <ele>281.7</ele>
        <time>2021-04-27T12:44:19Z</time>
      </trkpt>
      <trkpt lat="43.48362" lon="5.50579">
        <ele>280.8</ele>
        <time>2021-04-27T12:44:24Z</time>
      </trkpt>
      <trkpt lat="43.48362" lon="5.50579">
        <ele>280.1</ele>
        <time>2021-04-27T12:44:29Z</time>
      </trkpt>
      <trkpt lat="43.48362" lon="5.50579">
        <ele>269.2</ele>
        <time>2021-04-27T12:44:35Z</time>
      </trkpt>
      <trkpt lat="43.48362" lon="5.50579">
        <ele>291.9</ele>
        <time>2021-04-27T12:44:41Z</time>
      </trkpt>
      <trkpt lat="43.48362" lon="5.50579">
        <ele>271.7</ele>
        <time>2021-04-27T12:44:47Z</time>
      </trkpt>
      <trkpt lat="43.48362" lon="5.50579">
        <ele>284.3</ele>
        <time>2021-04-27T12:44:52Z</time>
      </trkpt>
      <trkpt lat="43.48362" lon="5.50579">
        <ele>287</ele>
        <time>2021-04-27T12:44:58Z</time>
      </trkpt>
      <trkpt lat="43.48362" lon="5.50579">
        <ele>288.3</ele>
        <time>2021-04-27T12:45:04Z</time>
      </trkpt>
      <trkpt lat="43.48362" lon="5.50579">
        <ele>280.3</ele>
        <time>2021-04-27T12:45:09Z</time>
      </trkpt>
      <trkpt lat="43.48362" lon="5.50579">
        <ele>253.1</ele>
        <time>2021-04-27T12:45:15Z</time>
      </trkpt>
      <trkpt lat="43.48362" lon="5.50579">
        <ele>300.5</ele>
        <time>2021-04-27T12:45:21Z</time>
      </trkpt>
      <trkpt lat="43.48362" lon="5.50579">
        <ele>286.1</ele>
        <time>2021-04-27T12:45:26Z</time>
      </trkpt>
      <trkpt lat="43.48362" lon="5.50579">
        <ele>286.4</ele>
        <time>2021-04-27T12:45:31Z</time>
      </trkpt>
      <trkpt lat="43.48362" lon="5.50579">
        <ele>270.5</ele>
        <time>2021-04-27T12:45:37Z</time>
      </trkpt>
      <trkpt lat="43.48362" lon="5.50579">
        <ele>274.9</ele>
        <time>2021-04-27T12:45:42Z</time>
      </trkpt>
      <trkpt lat="43.48362" lon="5.50579">
        <ele>280.7</ele>
        <time>2021-04-27T12:45:48Z</time>
      </trkpt>
      <trkpt lat="43.48362" lon="5.50579">
        <ele>285.6</ele>
        <time>2021-04-27T12:45:53Z</time>
      </trkpt>
      <trkpt lat="43.48362" lon="5.50579">
        <ele>275</ele>
        <time>2021-04-27T12:45:58Z</time>
      </trkpt>
      <trkpt lat="43.48362" lon="5.50579">
        <ele>282.9</ele>
        <time>2021-04-27T12:46:03Z</time>
      </trkpt>
      <trkpt lat="43.48362" lon="5.50579">
        <ele>279.1</ele>
        <time>2021-04-27T12:46:08Z</time>
      </trkpt>
      <trkpt lat="43.48362" lon="5.50579">
        <ele>281.9</ele>
        <time>2021-04-27T12:46:14Z</time>
      </trkpt>
      <trkpt lat="43.48362" lon="5.50579">
        <ele>291</ele>
        <time>2021-04-27T12:46:20Z</time>
      </trkpt>
      <trkpt lat="43.48362" lon="5.50579">
        <ele>282.2</ele>
        <time>2021-04-27T12:46:26Z</time>
      </trkpt>
      <trkpt lat="43.48362" lon="5.50579">
        <ele>281</ele>
        <time>2021-04-27T12:46:31Z</time>
      </trkpt>
      <trkpt lat="43.48362" lon="5.50578">
        <ele>273.7</ele>
        <time>2021-04-27T12:46:36Z</time>
      </trkpt>
      <trkpt lat="43.48362" lon="5.50578">
        <ele>286.9</ele>
        <time>2021-04-27T12:46:41Z</time>
      </trkpt>
      <trkpt lat="43.48362" lon="5.50578">
        <ele>288.1</ele>
        <time>2021-04-27T12:46:47Z</time>
      </trkpt>
      <trkpt lat="43.48362" lon="5.50578">
        <ele>280.7</ele>
        <time>2021-04-27T12:46:52Z</time>
      </trkpt>
      <trkpt lat="43.48362" lon="5.50578">
        <ele>285.5</ele>
        <time>2021-04-27T12:46:57Z</time>
      </trkpt>
      <trkpt lat="43.48362" lon="5.50578">
        <ele>280.6</ele>
        <time>2021-04-27T12:47:02Z</time>
      </trkpt>
      <trkpt lat="43.48362" lon="5.50578">
        <ele>265.1</ele>
        <time>2021-04-27T12:47:07Z</time>
      </trkpt>
      <trkpt lat="43.48362" lon="5.50578">
        <ele>290.6</ele>
        <time>2021-04-27T12:47:12Z</time>
      </trkpt>
      <trkpt lat="43.48361" lon="5.50578">
        <ele>287</ele>
        <time>2021-04-27T12:47:18Z</time>
      </trkpt>
      <trkpt lat="43.48357" lon="5.5058">
        <ele>286.3</ele>
        <time>2021-04-27T12:47:23Z</time>
      </trkpt>
      <trkpt lat="43.48356" lon="5.50587">
        <ele>277.5</ele>
        <time>2021-04-27T12:47:29Z</time>
      </trkpt>
      <trkpt lat="43.48355" lon="5.50594">
        <ele>263.7</ele>
        <time>2021-04-27T12:47:35Z</time>
      </trkpt>
      <trkpt lat="43.48351" lon="5.50599">
        <ele>275.4</ele>
        <time>2021-04-27T12:47:41Z</time>
      </trkpt>
      <trkpt lat="43.48347" lon="5.50603">
        <ele>291.1</ele>
        <time>2021-04-27T12:47:46Z</time>
      </trkpt>
      <trkpt lat="43.48344" lon="5.50607">
        <ele>283.5</ele>
        <time>2021-04-27T12:47:51Z</time>
      </trkpt>
      <trkpt lat="43.48342" lon="5.5061">
        <ele>284.7</ele>
        <time>2021-04-27T12:47:56Z</time>
      </trkpt>
      <trkpt lat="43.4834" lon="5.50614">
        <ele>280.2</ele>
        <time>2021-04-27T12:48:01Z</time>
      </trkpt>
      <trkpt lat="43.48339" lon="5.50619">
        <ele>283.9</ele>
        <time>2021-04-27T12:48:06Z</time>
      </trkpt>
      <trkpt lat="43.48336" lon="5.50626">
        <ele>303.2</ele>
        <time>2021-04-27T12:48:12Z</time>
      </trkpt>
      <trkpt lat="43.48334" lon="5.50633">
        <ele>281.3</ele>
        <time>2021-04-27T12:48:18Z</time>
      </trkpt>
      <trkpt lat="43.48331" lon="5.5064">
        <ele>293.2</ele>
        <time>2021-04-27T12:48:23Z</time>
      </trkpt>
      <trkpt lat="43.48329" lon="5.50644">
        <ele>278.6</ele>
        <time>2021-04-27T12:48:29Z</time>
      </trkpt>
      <trkpt lat="43.48328" lon="5.50644">
        <ele>283.4</ele>
        <time>2021-04-27T12:48:35Z</time>
      </trkpt>
      <trkpt lat="43.48328" lon="5.50643">
        <ele>281.3</ele>
        <time>2021-04-27T12:48:41Z</time>
      </trkpt>
      <trkpt lat="43.4833" lon="5.50643">
        <ele>277.2</ele>
        <time>2021-04-27T12:48:47Z</time>
      </trkpt>
      <trkpt lat="43.48331" lon="5.50644">
        <ele>280.5</ele>
        <time>2021-04-27T12:48:52Z</time>
      </trkpt>
      <trkpt lat="43.48331" lon="5.50645">
        <ele>282.4</ele>
        <time>2021-04-27T12:48:57Z</time>
      </trkpt>
      <trkpt lat="43.48332" lon="5.50644">
        <ele>282.4</ele>
        <time>2021-04-27T12:49:02Z</time>
      </trkpt>
      <trkpt lat="43.48331" lon="5.50644">
        <ele>283.4</ele>
        <time>2021-04-27T12:49:08Z</time>
      </trkpt>
      <trkpt lat="43.48331" lon="5.50644">
        <ele>297.8</ele>
        <time>2021-04-27T12:49:13Z</time>
      </trkpt>
      <trkpt lat="43.48332" lon="5.50645">
        <ele>279.6</ele>
        <time>2021-04-27T12:49:18Z</time>
      </trkpt>
      <trkpt lat="43.48332" lon="5.50645">
        <ele>295</ele>
        <time>2021-04-27T12:49:23Z</time>
      </trkpt>
      <trkpt lat="43.48332" lon="5.50645">
        <ele>295.9</ele>
        <time>2021-04-27T12:49:28Z</time>
      </trkpt>
      <trkpt lat="43.48331" lon="5.50648">
        <ele>293.3</ele>
        <time>2021-04-27T12:49:33Z</time>
      </trkpt>
      <trkpt lat="43.4833" lon="5.50648">
        <ele>310.4</ele>
        <time>2021-04-27T12:49:39Z</time>
      </trkpt>
      <trkpt lat="43.4833" lon="5.50648">
        <ele>299.2</ele>
        <time>2021-04-27T12:49:45Z</time>
      </trkpt>
      <trkpt lat="43.4833" lon="5.50646">
        <ele>276.4</ele>
        <time>2021-04-27T12:49:50Z</time>
      </trkpt>
      <trkpt lat="43.48328" lon="5.5065">
        <ele>279.1</ele>
        <time>2021-04-27T12:49:56Z</time>
      </trkpt>
      <trkpt lat="43.48327" lon="5.50655">
        <ele>279.3</ele>
        <time>2021-04-27T12:50:01Z</time>
      </trkpt>
      <trkpt lat="43.48325" lon="5.5066">
        <ele>289</ele>
        <time>2021-04-27T12:50:06Z</time>
      </trkpt>
      <trkpt lat="43.48322" lon="5.50667">
        <ele>290.3</ele>
        <time>2021-04-27T12:50:12Z</time>
      </trkpt>
      <trkpt lat="43.4832" lon="5.50675">
        <ele>292.7</ele>
        <time>2021-04-27T12:50:18Z</time>
      </trkpt>
      <trkpt lat="43.48319" lon="5.5068">
        <ele>292.4</ele>
        <time>2021-04-27T12:50:23Z</time>
      </trkpt>
      <trkpt lat="43.48317" lon="5.50687">
        <ele>289.8</ele>
        <time>2021-04-27T12:50:29Z</time>
      </trkpt>
      <trkpt lat="43.48316" lon="5.50691">
        <ele>289.1</ele>
        <time>2021-04-27T12:50:34Z</time>
      </trkpt>
      <trkpt lat="43.48314" lon="5.50696">
        <ele>285.1</ele>
        <time>2021-04-27T12:50:39Z</time>
      </trkpt>
      <trkpt lat="43.4831" lon="5.50703">
        <ele>288.8</ele>
        <time>2021-04-27T12:50:45Z</time>
      </trkpt>
      <trkpt lat="43.48307" lon="5.50708">
        <ele>288.3</ele>
        <time>2021-04-27T12:50:51Z</time>
      </trkpt>
      <trkpt lat="43.48305" lon="5.50712">
        <ele>305.3</ele>
        <time>2021-04-27T12:50:57Z</time>
      </trkpt>
      <trkpt lat="43.48301" lon="5.50719">
        <ele>292.7</ele>
        <time>2021-04-27T12:51:03Z</time>
      </trkpt>
      <trkpt lat="43.48299" lon="5.50724">
        <ele>281.6</ele>
        <time>2021-04-27T12:51:08Z</time>
      </trkpt>
      <trkpt lat="43.48296" lon="5.50729">
        <ele>302.4</ele>
        <time>2021-04-27T12:51:14Z</time>
      </trkpt>
      <trkpt lat="43.48293" lon="5.50735">
        <ele>302.5</ele>
        <time>2021-04-27T12:51:20Z</time>
      </trkpt>
      <trkpt lat="43.4829" lon="5.50741">
        <ele>316.6</ele>
        <time>2021-04-27T12:51:26Z</time>
      </trkpt>
      <trkpt lat="43.48288" lon="5.50745">
        <ele>286.3</ele>
        <time>2021-04-27T12:51:31Z</time>
      </trkpt>
      <trkpt lat="43.48286" lon="5.50749">
        <ele>308.4</ele>
        <time>2021-04-27T12:51:36Z</time>
      </trkpt>
      <trkpt lat="43.48283" lon="5.50753">
        <ele>298.6</ele>
        <time>2021-04-27T12:51:41Z</time>
      </trkpt>
      <trkpt lat="43.48279" lon="5.50757">
        <ele>285.3</ele>
        <time>2021-04-27T12:51:47Z</time>
      </trkpt>
      <trkpt lat="43.48277" lon="5.50761">
        <ele>308.1</ele>
        <time>2021-04-27T12:51:53Z</time>
      </trkpt>
      <trkpt lat="43.48273" lon="5.50765">
        <ele>300.2</ele>
        <time>2021-04-27T12:51:58Z</time>
      </trkpt>
      <trkpt lat="43.48269" lon="5.50767">
        <ele>296.1</ele>
        <time>2021-04-27T12:52:04Z</time>
      </trkpt>
      <trkpt lat="43.48265" lon="5.50771">
        <ele>324.8</ele>
        <time>2021-04-27T12:52:10Z</time>
      </trkpt>
      <trkpt lat="43.48261" lon="5.50773">
        <ele>302.6</ele>
        <time>2021-04-27T12:52:15Z</time>
      </trkpt>
      <trkpt lat="43.48258" lon="5.50774">
        <ele>300.6</ele>
        <time>2021-04-27T12:52:20Z</time>
      </trkpt>
      <trkpt lat="43.48253" lon="5.50777">
        <ele>296.7</ele>
        <time>2021-04-27T12:52:26Z</time>
      </trkpt>
      <trkpt lat="43.48249" lon="5.50778">
        <ele>315.4</ele>
        <time>2021-04-27T12:52:31Z</time>
      </trkpt>
      <trkpt lat="43.48244" lon="5.50782">
        <ele>297.2</ele>
        <time>2021-04-27T12:52:37Z</time>
      </trkpt>
      <trkpt lat="43.48241" lon="5.50785">
        <ele>311.9</ele>
        <time>2021-04-27T12:52:42Z</time>
      </trkpt>
      <trkpt lat="43.48238" lon="5.50788">
        <ele>295.5</ele>
        <time>2021-04-27T12:52:48Z</time>
      </trkpt>
      <trkpt lat="43.48238" lon="5.50787">
        <ele>294.4</ele>
        <time>2021-04-27T12:52:53Z</time>
      </trkpt>
      <trkpt lat="43.48238" lon="5.50787">
        <ele>291.6</ele>
        <time>2021-04-27T12:52:59Z</time>
      </trkpt>
      <trkpt lat="43.48238" lon="5.50787">
        <ele>315.7</ele>
        <time>2021-04-27T12:53:04Z</time>
      </trkpt>
      <trkpt lat="43.48235" lon="5.50788">
        <ele>293</ele>
        <time>2021-04-27T12:53:10Z</time>
      </trkpt>
      <trkpt lat="43.48233" lon="5.5079">
        <ele>298.2</ele>
        <time>2021-04-27T12:53:16Z</time>
      </trkpt>
      <trkpt lat="43.48229" lon="5.50795">
        <ele>306.4</ele>
        <time>2021-04-27T12:53:22Z</time>
      </trkpt>
      <trkpt lat="43.48227" lon="5.50798">
        <ele>299.2</ele>
        <time>2021-04-27T12:53:27Z</time>
      </trkpt>
      <trkpt lat="43.48221" lon="5.508">
        <ele>299.1</ele>
        <time>2021-04-27T12:53:32Z</time>
      </trkpt>
      <trkpt lat="43.48216" lon="5.50803">
        <ele>304.8</ele>
        <time>2021-04-27T12:53:38Z</time>
      </trkpt>
      <trkpt lat="43.48212" lon="5.50807">
        <ele>322.1</ele>
        <time>2021-04-27T12:53:44Z</time>
      </trkpt>
      <trkpt lat="43.48209" lon="5.5081">
        <ele>312</ele>
        <time>2021-04-27T12:53:50Z</time>
      </trkpt>
      <trkpt lat="43.48204" lon="5.50812">
        <ele>310.6</ele>
        <time>2021-04-27T12:53:55Z</time>
      </trkpt>
      <trkpt lat="43.48201" lon="5.50814">
        <ele>312</ele>
        <time>2021-04-27T12:54:01Z</time>
      </trkpt>
      <trkpt lat="43.48199" lon="5.50816">
        <ele>305.5</ele>
        <time>2021-04-27T12:54:06Z</time>
      </trkpt>
      <trkpt lat="43.48198" lon="5.50817">
        <ele>313.1</ele>
        <time>2021-04-27T12:54:12Z</time>
      </trkpt>
      <trkpt lat="43.48195" lon="5.5082">
        <ele>317.1</ele>
        <time>2021-04-27T12:54:18Z</time>
      </trkpt>
      <trkpt lat="43.4819" lon="5.50822">
        <ele>318.4</ele>
        <time>2021-04-27T12:54:24Z</time>
      </trkpt>
      <trkpt lat="43.48187" lon="5.50825">
        <ele>303.5</ele>
        <time>2021-04-27T12:54:29Z</time>
      </trkpt>
      <trkpt lat="43.48183" lon="5.50828">
        <ele>315.9</ele>
        <time>2021-04-27T12:54:34Z</time>
      </trkpt>
      <trkpt lat="43.48179" lon="5.50829">
        <ele>310.8</ele>
        <time>2021-04-27T12:54:40Z</time>
      </trkpt>
      <trkpt lat="43.48175" lon="5.50832">
        <ele>324</ele>
        <time>2021-04-27T12:54:45Z</time>
      </trkpt>
      <trkpt lat="43.4817" lon="5.50835">
        <ele>330.1</ele>
        <time>2021-04-27T12:54:50Z</time>
      </trkpt>
      <trkpt lat="43.48165" lon="5.50837">
        <ele>312.2</ele>
        <time>2021-04-27T12:54:56Z</time>
      </trkpt>
      <trkpt lat="43.48161" lon="5.5084">
        <ele>312.4</ele>
        <time>2021-04-27T12:55:02Z</time>
      </trkpt>
      <trkpt lat="43.48156" lon="5.50841">
        <ele>332.2</ele>
        <time>2021-04-27T12:55:08Z</time>
      </trkpt>
      <trkpt lat="43.48153" lon="5.50843">
        <ele>295.1</ele>
        <time>2021-04-27T12:55:13Z</time>
      </trkpt>
      <trkpt lat="43.48149" lon="5.50846">
        <ele>325</ele>
        <time>2021-04-27T12:55:19Z</time>
      </trkpt>
      <trkpt lat="43.48148" lon="5.50847">
        <ele>306.1</ele>
        <time>2021-04-27T12:55:24Z</time>
      </trkpt>
      <trkpt lat="43.48148" lon="5.50846">
        <ele>328.2</ele>
        <time>2021-04-27T12:55:30Z</time>
      </trkpt>
      <trkpt lat="43.48148" lon="5.50846">
        <ele>346.2</ele>
        <time>2021-04-27T12:55:35Z</time>
      </trkpt>
      <trkpt lat="43.48149" lon="5.50848">
        <ele>323.7</ele>
        <time>2021-04-27T12:55:41Z</time>
      </trkpt>
      <trkpt lat="43.48149" lon="5.50851">
        <ele>318.9</ele>
        <time>2021-04-27T12:55:47Z</time>
      </trkpt>
      <trkpt lat="43.48149" lon="5.50851">
        <ele>315.4</ele>
        <time>2021-04-27T12:55:53Z</time>
      </trkpt>
      <trkpt lat="43.4815" lon="5.50851">
        <ele>330</ele>
        <time>2021-04-27T12:55:58Z</time>
      </trkpt>
      <trkpt lat="43.4815" lon="5.50851">
        <ele>316.6</ele>
        <time>2021-04-27T12:56:03Z</time>
      </trkpt>
      <trkpt lat="43.4815" lon="5.50851">
        <ele>311.1</ele>
        <time>2021-04-27T12:56:09Z</time>
      </trkpt>
      <trkpt lat="43.4815" lon="5.50851">
        <ele>314.4</ele>
        <time>2021-04-27T12:56:14Z</time>
      </trkpt>
      <trkpt lat="43.4815" lon="5.50851">
        <ele>318.2</ele>
        <time>2021-04-27T12:56:20Z</time>
      </trkpt>
      <trkpt lat="43.4815" lon="5.50851">
        <ele>311.8</ele>
        <time>2021-04-27T12:56:25Z</time>
      </trkpt>
      <trkpt lat="43.4815" lon="5.50851">
        <ele>313.2</ele>
        <time>2021-04-27T12:56:31Z</time>
      </trkpt>
      <trkpt lat="43.4815" lon="5.50851">
        <ele>317.4</ele>
        <time>2021-04-27T12:56:36Z</time>
      </trkpt>
      <trkpt lat="43.4815" lon="5.50851">
        <ele>311.6</ele>
        <time>2021-04-27T12:56:41Z</time>
      </trkpt>
      <trkpt lat="43.4815" lon="5.50851">
        <ele>312.9</ele>
        <time>2021-04-27T12:56:47Z</time>
      </trkpt>
      <trkpt lat="43.4815" lon="5.50851">
        <ele>327.3</ele>
        <time>2021-04-27T12:56:52Z</time>
      </trkpt>
      <trkpt lat="43.4815" lon="5.50851">
        <ele>315.2</ele>
        <time>2021-04-27T12:56:58Z</time>
      </trkpt>
      <trkpt lat="43.4815" lon="5.50851">
        <ele>311.6</ele>
        <time>2021-04-27T12:57:04Z</time>
      </trkpt>
      <trkpt lat="43.4815" lon="5.50851">
        <ele>312.6</ele>
        <time>2021-04-27T12:57:10Z</time>
      </trkpt>
      <trkpt lat="43.4815" lon="5.50851">
        <ele>309.4</ele>
        <time>2021-04-27T12:57:16Z</time>
      </trkpt>
      <trkpt lat="43.4815" lon="5.50851">
        <ele>306.2</ele>
        <time>2021-04-27T12:57:21Z</time>
      </trkpt>
      <trkpt lat="43.4815" lon="5.50851">
        <ele>317.7</ele>
        <time>2021-04-27T12:57:26Z</time>
      </trkpt>
      <trkpt lat="43.4815" lon="5.50851">
        <ele>321.7</ele>
        <time>2021-04-27T12:57:31Z</time>
      </trkpt>
      <trkpt lat="43.4815" lon="5.50851">
        <ele>333.9</ele>
        <time>2021-04-27T12:57:36Z</time>
      </trkpt>
      <trkpt lat="43.4815" lon="5.50851">
        <ele>310.3</ele>
        <time>2021-04-27T12:57:41Z</time>
      </trkpt>
      <trkpt lat="43.4815" lon="5.50851">
        <ele>325.2</ele>
        <time>2021-04-27T12:57:46Z</time>
      </trkpt>
      <trkpt lat="43.48151" lon="5.50848">
        <ele>325.9</ele>
        <time>2021-04-27T12:57:52Z</time>
      </trkpt>
      <trkpt lat="43.48151" lon="5.50848">
        <ele>318.1</ele>
        <time>2021-04-27T12:57:58Z</time>
      </trkpt>
      <trkpt lat="43.48151" lon="5.50848">
        <ele>331.1</ele>
        <time>2021-04-27T12:58:04Z</time>
      </trkpt>
      <trkpt lat="43.48151" lon="5.50848">
        <ele>325.4</ele>
        <time>2021-04-27T12:58:09Z</time>
      </trkpt>
      <trkpt lat="43.48151" lon="5.50848">
        <ele>316.8</ele>
        <time>2021-04-27T12:58:14Z</time>
      </trkpt>
      <trkpt lat="43.48151" lon="5.50848">
        <ele>329.8</ele>
        <time>2021-04-27T12:58:20Z</time>
      </trkpt>
      <trkpt lat="43.48151" lon="5.50848">
        <ele>323.2</ele>
        <time>2021-04-27T12:58:26Z</time>
      </trkpt>
      <trkpt lat="43.48151" lon="5.50848">
        <ele>325.8</ele>
        <time>2021-04-27T12:58:31Z</time>
      </trkpt>
      <trkpt lat="43.48151" lon="5.50848">
        <ele>308</ele>
        <time>2021-04-27T12:58:36Z</time>
      </trkpt>
      <trkpt lat="43.48151" lon="5.50848">
        <ele>314.4</ele>
        <time>2021-04-27T12:58:42Z</time>
      </trkpt>
      <trkpt lat="43.4815" lon="5.50848">
        <ele>310.7</ele>
        <time>2021-04-27T12:58:47Z</time>
      </trkpt>
      <trkpt lat="43.48147" lon="5.5085">
        <ele>313.6</ele>
        <time>2021-04-27T12:58:52Z</time>
      </trkpt>
      <trkpt lat="43.48143" lon="5.50851">
        <ele>314.3</ele>
        <time>2021-04-27T12:58:57Z</time>
      </trkpt>
      <trkpt lat="43.48138" lon="5.50852">
        <ele>339.1</ele>
        <time>2021-04-27T12:59:03Z</time>
      </trkpt>
      <trkpt lat="43.48133" lon="5.50853">
        <ele>326</ele>
        <time>2021-04-27T12:59:09Z</time>
      </trkpt>
      <trkpt lat="43.48128" lon="5.50855">
        <ele>318</ele>
        <time>2021-04-27T12:59:15Z</time>
      </trkpt>
      <trkpt lat="43.48126" lon="5.50855">
        <ele>324.3</ele>
        <time>2021-04-27T12:59:21Z</time>
      </trkpt>
      <trkpt lat="43.48121" lon="5.50855">
        <ele>304.4</ele>
        <time>2021-04-27T12:59:26Z</time>
      </trkpt>
      <trkpt lat="43.48117" lon="5.50855">
        <ele>329.3</ele>
        <time>2021-04-27T12:59:32Z</time>
      </trkpt>
      <trkpt lat="43.48113" lon="5.50857">
        <ele>313.2</ele>
        <time>2021-04-27T12:59:37Z</time>
      </trkpt>
      <trkpt lat="43.4811" lon="5.50858">
        <ele>333.1</ele>
        <time>2021-04-27T12:59:43Z</time>
      </trkpt>
      <trkpt lat="43.48107" lon="5.50861">
        <ele>322.1</ele>
        <time>2021-04-27T12:59:48Z</time>
      </trkpt>
      <trkpt lat="43.48104" lon="5.50864">
        <ele>326.3</ele>
        <time>2021-04-27T12:59:54Z</time>
      </trkpt>
      <trkpt lat="43.481" lon="5.50865">
        <ele>313.5</ele>
        <time>2021-04-27T13:00:00Z</time>
      </trkpt>
      <trkpt lat="43.48097" lon="5.50866">
        <ele>329.6</ele>
        <time>2021-04-27T13:00:05Z</time>
      </trkpt>
      <trkpt lat="43.48092" lon="5.50865">
        <ele>345.1</ele>
        <time>2021-04-27T13:00:11Z</time>
      </trkpt>
      <trkpt lat="43.48089" lon="5.50866">
        <ele>336.4</ele>
        <time>2021-04-27T13:00:16Z</time>
      </trkpt>
      <trkpt lat="43.48084" lon="5.50866">
        <ele>324.6</ele>
        <time>2021-04-27T13:00:22Z</time>
      </trkpt>
      <trkpt lat="43.48079" lon="5.50867">
        <ele>329.2</ele>
        <time>2021-04-27T13:00:28Z</time>
      </trkpt>
      <trkpt lat="43.48073" lon="5.5087">
        <ele>327.4</ele>
        <time>2021-04-27T13:00:34Z</time>
      </trkpt>
      <trkpt lat="43.48067" lon="5.5087">
        <ele>317.1</ele>
        <time>2021-04-27T13:00:40Z</time>
      </trkpt>
      <trkpt lat="43.48062" lon="5.50871">
        <ele>339.5</ele>
        <time>2021-04-27T13:00:46Z</time>
      </trkpt>
      <trkpt lat="43.48057" lon="5.50873">
        <ele>337.5</ele>
        <time>2021-04-27T13:00:51Z</time>
      </trkpt>
      <trkpt lat="43.48052" lon="5.50875">
        <ele>324.8</ele>
        <time>2021-04-27T13:00:57Z</time>
      </trkpt>
      <trkpt lat="43.48048" lon="5.50875">
        <ele>335.5</ele>
        <time>2021-04-27T13:01:02Z</time>
      </trkpt>
      <trkpt lat="43.48042" lon="5.50876">
        <ele>325.7</ele>
        <time>2021-04-27T13:01:08Z</time>
      </trkpt>
      <trkpt lat="43.48038" lon="5.50879">
        <ele>329.5</ele>
        <time>2021-04-27T13:01:13Z</time>
      </trkpt>
      <trkpt lat="43.48034" lon="5.50881">
        <ele>334.7</ele>
        <time>2021-04-27T13:01:18Z</time>
      </trkpt>
      <trkpt lat="43.48029" lon="5.50881">
        <ele>349.8</ele>
        <time>2021-04-27T13:01:23Z</time>
      </trkpt>
      <trkpt lat="43.48023" lon="5.5088">
        <ele>320.5</ele>
        <time>2021-04-27T13:01:29Z</time>
      </trkpt>
      <trkpt lat="43.48018" lon="5.50879">
        <ele>315.9</ele>
        <time>2021-04-27T13:01:35Z</time>
      </trkpt>
      <trkpt lat="43.48014" lon="5.50878">
        <ele>330.5</ele>
        <time>2021-04-27T13:01:40Z</time>
      </trkpt>
      <trkpt lat="43.4801" lon="5.50876">
        <ele>325.3</ele>
        <time>2021-04-27T13:01:46Z</time>
      </trkpt>
      <trkpt lat="43.48005" lon="5.50875">
        <ele>344.2</ele>
        <time>2021-04-27T13:01:51Z</time>
      </trkpt>
      <trkpt lat="43.48001" lon="5.50872">
        <ele>336.9</ele>
        <time>2021-04-27T13:01:57Z</time>
      </trkpt>
      <trkpt lat="43.47997" lon="5.50869">
        <ele>345</ele>
        <time>2021-04-27T13:02:02Z</time>
      </trkpt>
      <trkpt lat="43.47993" lon="5.50866">
        <ele>341.5</ele>
        <time>2021-04-27T13:02:08Z</time>
      </trkpt>
      <trkpt lat="43.47988" lon="5.50865">
        <ele>337.7</ele>
        <time>2021-04-27T13:02:14Z</time>
      </trkpt>
      <trkpt lat="43.47986" lon="5.50864">
        <ele>349.2</ele>
        <time>2021-04-27T13:02:19Z</time>
      </trkpt>
      <trkpt lat="43.47985" lon="5.50862">
        <ele>321.2</ele>
        <time>2021-04-27T13:02:24Z</time>
      </trkpt>
      <trkpt lat="43.47985" lon="5.50861">
        <ele>336.2</ele>
        <time>2021-04-27T13:02:29Z</time>
      </trkpt>
      <trkpt lat="43.47984" lon="5.50861">
        <ele>343.7</ele>
        <time>2021-04-27T13:02:35Z</time>
      </trkpt>
      <trkpt lat="43.47985" lon="5.50861">
        <ele>331.1</ele>
        <time>2021-04-27T13:02:41Z</time>
      </trkpt>
      <trkpt lat="43.47985" lon="5.50861">
        <ele>353.3</ele>
        <time>2021-04-27T13:02:46Z</time>
      </trkpt>
      <trkpt lat="43.47985" lon="5.50861">
        <ele>327.9</ele>
        <time>2021-04-27T13:02:52Z</time>
      </trkpt>
      <trkpt lat="43.47985" lon="5.50861">
        <ele>320.1</ele>
        <time>2021-04-27T13:02:58Z</time>
      </trkpt>
      <trkpt lat="43.47985" lon="5.50861">
        <ele>330.9</ele>
        <time>2021-04-27T13:03:04Z</time>
      </trkpt>
      <trkpt lat="43.47985" lon="5.50861">
        <ele>316.2</ele>
        <time>2021-04-27T13:03:10Z</time>
      </trkpt>
      <trkpt lat="43.47985" lon="5.50861">
        <ele>309.8</ele>
        <time>2021-04-27T13:03:15Z</time>
      </trkpt>
      <trkpt lat="43.47985" lon="5.50861">
        <ele>329.6</ele>
        <time>2021-04-27T13:03:21Z</time>
      </trkpt>
      <trkpt lat="43.47985" lon="5.50861">
        <ele>350.5</ele>
        <time>2021-04-27T13:03:27Z</time>
      </trkpt>
      <trkpt lat="43.47985" lon="5.50861">
        <ele>334.4</ele>
        <time>2021-04-27T13:03:33Z</time>
      </trkpt>
      <trkpt lat="43.47985" lon="5.50861">
        <ele>328.3</ele>
        <time>2021-04-27T13:03:38Z</time>
      </trkpt>
      <trkpt lat="43.47985" lon="5.50861">
        <ele>331.5</ele>
        <time>2021-04-27T13:03:44Z</time>
      </trkpt>
      <trkpt lat="43.47985" lon="5.50861">
        <ele>334.9</ele>
        <time>2021-04-27T13:03:49Z</time>
      </trkpt>
      <trkpt lat="43.47985" lon="5.50861">
        <ele>333</ele>
        <time>2021-04-27T13:03:55Z</time>
      </trkpt>
      <trkpt lat="43.47985" lon="5.50861">
        <ele>335</ele>
        <time>2021-04-27T13:04:01Z</time>
      </trkpt>
      <trkpt lat="43.47985" lon="5.50861">
        <ele>330.5</ele>
        <time>2021-04-27T13:04:07Z</time>
      </trkpt>
      <trkpt lat="43.47985" lon="5.50861">
        <ele>327</ele>
        <time>2021-04-27T13:04:12Z</time>
      </trkpt>
      <trkpt lat="43.47985" lon="5.50861">
        <ele>335.7</ele>
        <time>2021-04-27T13:04:17Z</time>
      </trkpt>
      <trkpt lat="43.47985" lon="5.50861">
        <ele>344.9</ele>
        <time>2021-04-27T13:04:23Z</time>
      </trkpt>
      <trkpt lat="43.47985" lon="5.50861">
        <ele>339</ele>
        <time>2021-04-27T13:04:29Z</time>
      </trkpt>
      <trkpt lat="43.47985" lon="5.50861">
        <ele>357.4</ele>
        <time>2021-04-27T13:04:35Z</time>
      </trkpt>
      <trkpt lat="43.47985" lon="5.50861">
        <ele>324.8</ele>
        <time>2021-04-27T13:04:41Z</time>
      </trkpt>
      <trkpt lat="43.47985" lon="5.50861">
        <ele>326</ele>
        <time>2021-04-27T13:04:47Z</time>
      </trkpt>
      <trkpt lat="43.47985" lon="5.50861">
        <ele>341.6</ele>
        <time>2021-04-27T13:04:52Z</time>
      </trkpt>
      <trkpt lat="43.47985" lon="5.50861">
        <ele>326.3</ele>
        <time>2021-04-27T13:04:58Z</time>
      </trkpt>
      <trkpt lat="43.47985" lon="5.50861">
        <ele>361.9</ele>
        <time>2021-04-27T13:05:03Z</time>
      </trkpt>
      <trkpt lat="43.47985" lon="5.50861">
        <ele>327.5</ele>
        <time>2021-04-27T13:05:09Z</time>
      </trkpt>
      <trkpt lat="43.47985" lon="5.50861">
        <ele>336.8</ele>
        <time>2021-04-27T13:05:15Z</time>
      </trkpt>
      <trkpt lat="43.47985" lon="5.50861">
        <ele>337.3</ele>
        <time>2021-04-27T13:05:20Z</time>
      </trkpt>
      <trkpt lat="43.47985" lon="5.50861">
        <ele>321.3</ele>
        <time>2021-04-27T13:05:25Z</time>
      </trkpt>
      <trkpt lat="43.47985" lon="5.50861">
        <ele>329.8</ele>
        <time>2021-04-27T13:05:31Z</time>
      </trkpt>
      <trkpt lat="43.47985" lon="5.50861">
        <ele>337.4</ele>
        <time>2021-04-27T13:05:37Z</time>
      </trkpt>
      <trkpt lat="43.47985" lon="5.50861">
        <ele>335.3</ele>
        <time>2021-04-27T13:05:43Z</time>
      </trkpt>
      <trkpt lat="43.47985" lon="5.50861">
        <ele>330.5</ele>
        <time>2021-04-27T13:05:49Z</time>
      </trkpt>
      <trkpt lat="43.47985" lon="5.50861">
        <ele>336.9</ele>
        <time>2021-04-27T13:05:54Z</time>
      </trkpt>
      <trkpt lat="43.47985" lon="5.50861">
        <ele>331.4</ele>
        <time>2021-04-27T13:06:00Z</time>
      </trkpt>
      <trkpt lat="43.47985" lon="5.50861">
        <ele>343.6</ele>
        <time>2021-04-27T13:06:06Z</time>
      </trkpt>
      <trkpt lat="43.47985" lon="5.50862">
        <ele>338.8</ele>
        <time>2021-04-27T13:06:12Z</time>
      </trkpt>
      <trkpt lat="43.47985" lon="5.50862">
        <ele>332.4</ele>
        <time>2021-04-27T13:06:17Z</time>
      </trkpt>
      <trkpt lat="43.47985" lon="5.50862">
        <ele>320.8</ele>
        <time>2021-04-27T13:06:22Z</time>
      </trkpt>
      <trkpt lat="43.47985" lon="5.50862">
        <ele>340</ele>
        <time>2021-04-27T13:06:27Z</time>
      </trkpt>
      <trkpt lat="43.47985" lon="5.50862">
        <ele>322.2</ele>
        <time>2021-04-27T13:06:33Z</time>
      </trkpt>
      <trkpt lat="43.47985" lon="5.50862">
        <ele>363</ele>
        <time>2021-04-27T13:06:39Z</time>
      </trkpt>
      <trkpt lat="43.47985" lon="5.50862">
        <ele>327.1</ele>
        <time>2021-04-27T13:06:45Z</time>
      </trkpt>
      <trkpt lat="43.47985" lon="5.50862">
        <ele>326.6</ele>
        <time>2021-04-27T13:06:51Z</time>
      </trkpt>
      <trkpt lat="43.47984" lon="5.50863">
        <ele>343.6</ele>
        <time>2021-04-27T13:06:57Z</time>
      </trkpt>
      <trkpt lat="43.47984" lon="5.50866">
        <ele>355</ele>
        <time>2021-04-27T13:07:02Z</time>
      </trkpt>
      <trkpt lat="43.47984" lon="5.50866">
        <ele>338.1</ele>
        <time>2021-04-27T13:07:08Z</time>
      </trkpt>
      <trkpt lat="43.47984" lon="5.50866">
        <ele>351.7</ele>
        <time>2021-04-27T13:07:14Z</time>
      </trkpt>
      <trkpt lat="43.47984" lon="5.50866">
        <ele>335.1</ele>
        <time>2021-04-27T13:07:20Z</time>
      </trkpt>
      <trkpt lat="43.47984" lon="5.50866">
        <ele>331.4</ele>
        <time>2021-04-27T13:07:26Z</time>
      </trkpt>
      <trkpt lat="43.47984" lon="5.50866">
        <ele>337.4</ele>
        <time>2021-04-27T13:07:31Z</time>
      </trkpt>
      <trkpt lat="43.47984" lon="5.50866">
        <ele>324.3</ele>
        <time>2021-04-27T13:07:37Z</time>
      </trkpt>
      <trkpt lat="43.47984" lon="5.50866">
        <ele>323.6</ele>
        <time>2021-04-27T13:07:43Z</time>
      </trkpt>
      <trkpt lat="43.47984" lon="5.50866">
        <ele>362.1</ele>
        <time>2021-04-27T13:07:49Z</time>
      </trkpt>
      <trkpt lat="43.47984" lon="5.50866">
        <ele>346.7</ele>
        <time>2021-04-27T13:07:54Z</time>
      </trkpt>
      <trkpt lat="43.47984" lon="5.50866">
        <ele>324.9</ele>
        <time>2021-04-27T13:07:59Z</time>
      </trkpt>
      <trkpt lat="43.47984" lon="5.50866">
        <ele>343.6</ele>
        <time>2021-04-27T13:08:05Z</time>
      </trkpt>
      <trkpt lat="43.47984" lon="5.50866">
        <ele>349.1</ele>
        <time>2021-04-27T13:08:10Z</time>
      </trkpt>
      <trkpt lat="43.47984" lon="5.50866">
        <ele>342.1</ele>
        <time>2021-04-27T13:08:16Z</time>
      </trkpt>
      <trkpt lat="43.47984" lon="5.50866">
        <ele>319</ele>
        <time>2021-04-27T13:08:21Z</time>
      </trkpt>
      <trkpt lat="43.47982" lon="5.50869">
        <ele>321.3</ele>
        <time>2021-04-27T13:08:27Z</time>
      </trkpt>
      <trkpt lat="43.47981" lon="5.50872">
        <ele>335.6</ele>
        <time>2021-04-27T13:08:33Z</time>
      </trkpt>
      <trkpt lat="43.47981" lon="5.50872">
        <ele>320.6</ele>
        <time>2021-04-27T13:08:38Z</time>
      </trkpt>
      <trkpt lat="43.47981" lon="5.50872">
        <ele>339.5</ele>
        <time>2021-04-27T13:08:43Z</time>
      </trkpt>
      <trkpt lat="43.47981" lon="5.50872">
        <ele>346.2</ele>
        <time>2021-04-27T13:08:48Z</time>
      </trkpt>
      <trkpt lat="43.4798" lon="5.50873">
        <ele>352.4</ele>
        <time>2021-04-27T13:08:53Z</time>
      </trkpt>
      <trkpt lat="43.4798" lon="5.50876">
        <ele>331.6</ele>
        <time>2021-04-27T13:08:59Z</time>
      </trkpt>
      <trkpt lat="43.4798" lon="5.50878">
        <ele>317.8</ele>
        <time>2021-04-27T13:09:05Z</time>
      </trkpt>
      <trkpt lat="43.47982" lon="5.50883">
        <ele>336</ele>
        <time>2021-04-27T13:09:10Z</time>
      </trkpt>
      <trkpt lat="43.47983" lon="5.50891">
        <ele>335.9</ele>
        <time>2021-04-27T13:09:15Z</time>
      </trkpt>
      <trkpt lat="43.47984" lon="5.50895">
        <ele>333.8</ele>
        <time>2021-04-27T13:09:20Z</time>
      </trkpt>
      <trkpt lat="43.47985" lon="5.50899">
        <ele>317.5</ele>
        <time>2021-04-27T13:09:25Z</time>
      </trkpt>
      <trkpt lat="43.47984" lon="5.50905">
        <ele>320.7</ele>
        <time>2021-04-27T13:09:31Z</time>
      </trkpt>
      <trkpt lat="43.47984" lon="5.5091">
        <ele>319.4</ele>
        <time>2021-04-27T13:09:37Z</time>
      </trkpt>
      <trkpt lat="43.47985" lon="5.50913">
        <ele>325.9</ele>
        <time>2021-04-27T13:09:42Z</time>
      </trkpt>
      <trkpt lat="43.47987" lon="5.50916">
        <ele>341.1</ele>
        <time>2021-04-27T13:09:48Z</time>
      </trkpt>
      <trkpt lat="43.47989" lon="5.50921">
        <ele>338.5</ele>
        <time>2021-04-27T13:09:54Z</time>
      </trkpt>
      <trkpt lat="43.47991" lon="5.50925">
        <ele>344.7</ele>
        <time>2021-04-27T13:10:00Z</time>
      </trkpt>
      <trkpt lat="43.47994" lon="5.5093">
        <ele>361</ele>
        <time>2021-04-27T13:10:06Z</time>
      </trkpt>
      <trkpt lat="43.47997" lon="5.50933">
        <ele>340.3</ele>
        <time>2021-04-27T13:10:11Z</time>
      </trkpt>
      <trkpt lat="43.48002" lon="5.50935">
        <ele>337.4</ele>
        <time>2021-04-27T13:10:17Z</time>
      </trkpt>
      <trkpt lat="43.48006" lon="5.50939">
        <ele>322.1</ele>
        <time>2021-04-27T13:10:23Z</time>
      </trkpt>
      <trkpt lat="43.4801" lon="5.50945">
        <ele>344.6</ele>
        <time>2021-04-27T13:10:29Z</time>
      </trkpt>
      <trkpt lat="43.48012" lon="5.50949">
        <ele>350.8</ele>
        <time>2021-04-27T13:10:34Z</time>
      </trkpt>
      <trkpt lat="43.48016" lon="5.50952">
        <ele>337.8</ele>
        <time>2021-04-27T13:10:40Z</time>
      </trkpt>
      <trkpt lat="43.48019" lon="5.50955">
        <ele>356.1</ele>
        <time>2021-04-27T13:10:46Z</time>
      </trkpt>
      <trkpt lat="43.48021" lon="5.50958">
        <ele>343.1</ele>
        <time>2021-04-27T13:10:52Z</time>
      </trkpt>
      <trkpt lat="43.48023" lon="5.5096">
        <ele>328.5</ele>
        <time>2021-04-27T13:10:57Z</time>
      </trkpt>
      <trkpt lat="43.48027" lon="5.50963">
        <ele>342.7</ele>
        <time>2021-04-27T13:11:02Z</time>
      </trkpt>
      <trkpt lat="43.48029" lon="5.50967">
        <ele>333.5</ele>
        <time>2021-04-27T13:11:07Z</time>
      </trkpt>
      <trkpt lat="43.48032" lon="5.50972">
        <ele>346.9</ele>
        <time>2021-04-27T13:11:13Z</time>
      </trkpt>
      <trkpt lat="43.48036" lon="5.50975">
        <ele>353.1</ele>
        <time>2021-04-27T13:11:18Z</time>
      </trkpt>
      <trkpt lat="43.48039" lon="5.5098">
        <ele>345</ele>
        <time>2021-04-27T13:11:24Z</time>
      </trkpt>
      <trkpt lat="43.48042" lon="5.50985">
        <ele>348.2</ele>
        <time>2021-04-27T13:11:30Z</time>
      </trkpt>
      <trkpt lat="43.48044" lon="5.50987">
        <ele>356.4</ele>
        <time>2021-04-27T13:11:36Z</time>
      </trkpt>
      <trkpt lat="43.48047" lon="5.50993">
        <ele>341.9</ele>
        <time>2021-04-27T13:11:42Z</time>
      </trkpt>
      <trkpt lat="43.48052" lon="5.50996">
        <ele>350.1</ele>
        <time>2021-04-27T13:11:48Z</time>
      </trkpt>
      <trkpt lat="43.48054" lon="5.51001">
        <ele>345.7</ele>
        <time>2021-04-27T13:11:54Z</time>
      </trkpt>
      <trkpt lat="43.48058" lon="5.51004">
        <ele>346.8</ele>
        <time>2021-04-27T13:12:00Z</time>
      </trkpt>
      <trkpt lat="43.48062" lon="5.51009">
        <ele>351.5</ele>
        <time>2021-04-27T13:12:06Z</time>
      </trkpt>
      <trkpt lat="43.48065" lon="5.51013">
        <ele>365</ele>
        <time>2021-04-27T13:12:12Z</time>
      </trkpt>
      <trkpt lat="43.48069" lon="5.51016">
        <ele>348.7</ele>
        <time>2021-04-27T13:12:18Z</time>
      </trkpt>
      <trkpt lat="43.48071" lon="5.51018">
        <ele>369.1</ele>
        <time>2021-04-27T13:12:23Z</time>
      </trkpt>
      <trkpt lat="43.48075" lon="5.51023">
        <ele>355.6</ele>
        <time>2021-04-27T13:12:29Z</time>
      </trkpt>
      <trkpt lat="43.48078" lon="5.51027">
        <ele>358.5</ele>
        <time>2021-04-27T13:12:34Z</time>
      </trkpt>
      <trkpt lat="43.48081" lon="5.5103">
        <ele>346.1</ele>
        <time>2021-04-27T13:12:40Z</time>
      </trkpt>
      <trkpt lat="43.48083" lon="5.51033">
        <ele>356.8</ele>
        <time>2021-04-27T13:12:45Z</time>
      </trkpt>
      <trkpt lat="43.48086" lon="5.51037">
        <ele>337.3</ele>
        <time>2021-04-27T13:12:51Z</time>
      </trkpt>
      <trkpt lat="43.48085" lon="5.51037">
        <ele>351.1</ele>
        <time>2021-04-27T13:12:56Z</time>
      </trkpt>
      <trkpt lat="43.48091" lon="5.51037">
        <ele>370</ele>
        <time>2021-04-27T13:13:03Z</time>
      </trkpt>
      <trkpt lat="43.48094" lon="5.51035">
        <ele>379.6</ele>
        <time>2021-04-27T13:13:08Z</time>
      </trkpt>
      <trkpt lat="43.48098" lon="5.51031">
        <ele>352.3</ele>
        <time>2021-04-27T13:13:14Z</time>
      </trkpt>
      <trkpt lat="43.48101" lon="5.51028">
        <ele>350.5</ele>
        <time>2021-04-27T13:13:19Z</time>
      </trkpt>
      <trkpt lat="43.48103" lon="5.51026">
        <ele>356.3</ele>
        <time>2021-04-27T13:13:25Z</time>
      </trkpt>
      <trkpt lat="43.48104" lon="5.51026">
        <ele>347.4</ele>
        <time>2021-04-27T13:13:31Z</time>
      </trkpt>
      <trkpt lat="43.48104" lon="5.51026">
        <ele>362</ele>
        <time>2021-04-27T13:13:36Z</time>
      </trkpt>
      <trkpt lat="43.48104" lon="5.51026">
        <ele>374.7</ele>
        <time>2021-04-27T13:13:42Z</time>
      </trkpt>
      <trkpt lat="43.48102" lon="5.51027">
        <ele>354</ele>
        <time>2021-04-27T13:13:48Z</time>
      </trkpt>
      <trkpt lat="43.48098" lon="5.5103">
        <ele>356.3</ele>
        <time>2021-04-27T13:13:54Z</time>
      </trkpt>
      <trkpt lat="43.48099" lon="5.5103">
        <ele>355.7</ele>
        <time>2021-04-27T13:14:00Z</time>
      </trkpt>
      <trkpt lat="43.48099" lon="5.5103">
        <ele>372.2</ele>
        <time>2021-04-27T13:14:06Z</time>
      </trkpt>
      <trkpt lat="43.481" lon="5.51029">
        <ele>349.6</ele>
        <time>2021-04-27T13:14:11Z</time>
      </trkpt>
      <trkpt lat="43.48104" lon="5.51026">
        <ele>366.3</ele>
        <time>2021-04-27T13:14:17Z</time>
      </trkpt>
      <trkpt lat="43.48108" lon="5.51024">
        <ele>350</ele>
        <time>2021-04-27T13:14:23Z</time>
      </trkpt>
      <trkpt lat="43.48112" lon="5.51022">
        <ele>361.7</ele>
        <time>2021-04-27T13:14:28Z</time>
      </trkpt>
      <trkpt lat="43.48117" lon="5.51021">
        <ele>360.4</ele>
        <time>2021-04-27T13:14:34Z</time>
      </trkpt>
      <trkpt lat="43.48122" lon="5.5102">
        <ele>344.9</ele>
        <time>2021-04-27T13:14:40Z</time>
      </trkpt>
      <trkpt lat="43.48127" lon="5.5102">
        <ele>355.5</ele>
        <time>2021-04-27T13:14:45Z</time>
      </trkpt>
      <trkpt lat="43.48133" lon="5.51019">
        <ele>332</ele>
        <time>2021-04-27T13:14:51Z</time>
      </trkpt>
      <trkpt lat="43.48137" lon="5.51019">
        <ele>349.7</ele>
        <time>2021-04-27T13:14:56Z</time>
      </trkpt>
      <trkpt lat="43.48142" lon="5.51018">
        <ele>347.6</ele>
        <time>2021-04-27T13:15:01Z</time>
      </trkpt>
      <trkpt lat="43.48147" lon="5.51018">
        <ele>359.1</ele>
        <time>2021-04-27T13:15:07Z</time>
      </trkpt>
      <trkpt lat="43.48153" lon="5.51016">
        <ele>368.3</ele>
        <time>2021-04-27T13:15:12Z</time>
      </trkpt>
      <trkpt lat="43.48158" lon="5.51015">
        <ele>354.8</ele>
        <time>2021-04-27T13:15:17Z</time>
      </trkpt>
      <trkpt lat="43.48163" lon="5.51013">
        <ele>355.4</ele>
        <time>2021-04-27T13:15:23Z</time>
      </trkpt>
      <trkpt lat="43.48167" lon="5.51011">
        <ele>352.5</ele>
        <time>2021-04-27T13:15:28Z</time>
      </trkpt>
      <trkpt lat="43.48172" lon="5.51007">
        <ele>373.1</ele>
        <time>2021-04-27T13:15:33Z</time>
      </trkpt>
      <trkpt lat="43.48177" lon="5.51004">
        <ele>366.5</ele>
        <time>2021-04-27T13:15:39Z</time>
      </trkpt>
      <trkpt lat="43.48181" lon="5.51003">
        <ele>351.2</ele>
        <time>2021-04-27T13:15:44Z</time>
      </trkpt>
      <trkpt lat="43.48185" lon="5.51001">
        <ele>349.6</ele>
        <time>2021-04-27T13:15:50Z</time>
      </trkpt>
      <trkpt lat="43.48188" lon="5.51">
        <ele>356.2</ele>
        <time>2021-04-27T13:15:55Z</time>
      </trkpt>
      <trkpt lat="43.48189" lon="5.51">
        <ele>355.8</ele>
        <time>2021-04-27T13:16:00Z</time>
      </trkpt>
      <trkpt lat="43.48189" lon="5.51">
        <ele>370</ele>
        <time>2021-04-27T13:16:06Z</time>
      </trkpt>
      <trkpt lat="43.48188" lon="5.51">
        <ele>356.6</ele>
        <time>2021-04-27T13:16:11Z</time>
      </trkpt>
      <trkpt lat="43.48188" lon="5.51">
        <ele>354.7</ele>
        <time>2021-04-27T13:16:16Z</time>
      </trkpt>
      <trkpt lat="43.48188" lon="5.51">
        <ele>360.1</ele>
        <time>2021-04-27T13:16:22Z</time>
      </trkpt>
      <trkpt lat="43.48191" lon="5.50999">
        <ele>373.4</ele>
        <time>2021-04-27T13:16:28Z</time>
      </trkpt>
      <trkpt lat="43.48193" lon="5.50998">
        <ele>352.8</ele>
        <time>2021-04-27T13:16:34Z</time>
      </trkpt>
      <trkpt lat="43.48194" lon="5.50998">
        <ele>365.6</ele>
        <time>2021-04-27T13:16:39Z</time>
      </trkpt>
      <trkpt lat="43.48194" lon="5.50997">
        <ele>355</ele>
        <time>2021-04-27T13:16:44Z</time>
      </trkpt>
      <trkpt lat="43.48194" lon="5.50997">
        <ele>355.5</ele>
        <time>2021-04-27T13:16:50Z</time>
      </trkpt>
      <trkpt lat="43.48194" lon="5.50997">
        <ele>361.1</ele>
        <time>2021-04-27T13:16:55Z</time>
      </trkpt>
      <trkpt lat="43.48196" lon="5.50997">
        <ele>350.6</ele>
        <time>2021-04-27T13:17:01Z</time>
      </trkpt>
      <trkpt lat="43.48196" lon="5.50997">
        <ele>348.1</ele>
        <time>2021-04-27T13:17:06Z</time>
      </trkpt>
      <trkpt lat="43.48196" lon="5.50997">
        <ele>355.4</ele>
        <time>2021-04-27T13:17:11Z</time>
      </trkpt>
      <trkpt lat="43.48196" lon="5.50996">
        <ele>345.7</ele>
        <time>2021-04-27T13:17:16Z</time>
      </trkpt>
      <trkpt lat="43.48196" lon="5.50996">
        <ele>360.1</ele>
        <time>2021-04-27T13:17:22Z</time>
      </trkpt>
      <trkpt lat="43.48197" lon="5.50996">
        <ele>371.6</ele>
        <time>2021-04-27T13:17:28Z</time>
      </trkpt>
      <trkpt lat="43.48197" lon="5.50997">
        <ele>354.1</ele>
        <time>2021-04-27T13:17:33Z</time>
      </trkpt>
      <trkpt lat="43.48197" lon="5.50999">
        <ele>359.4</ele>
        <time>2021-04-27T13:17:38Z</time>
      </trkpt>
      <trkpt lat="43.48198" lon="5.50999">
        <ele>367.9</ele>
        <time>2021-04-27T13:17:43Z</time>
      </trkpt>
      <trkpt lat="43.48198" lon="5.50999">
        <ele>355.2</ele>
        <time>2021-04-27T13:17:48Z</time>
      </trkpt>
      <trkpt lat="43.48198" lon="5.50999">
        <ele>369.3</ele>
        <time>2021-04-27T13:17:54Z</time>
      </trkpt>
      <trkpt lat="43.48198" lon="5.50999">
        <ele>371.5</ele>
        <time>2021-04-27T13:18:00Z</time>
      </trkpt>
      <trkpt lat="43.48198" lon="5.50999">
        <ele>371.9</ele>
        <time>2021-04-27T13:18:05Z</time>
      </trkpt>
      <trkpt lat="43.48198" lon="5.50999">
        <ele>357.3</ele>
        <time>2021-04-27T13:18:10Z</time>
      </trkpt>
      <trkpt lat="43.48198" lon="5.50999">
        <ele>376.2</ele>
        <time>2021-04-27T13:18:16Z</time>
      </trkpt>
      <trkpt lat="43.48198" lon="5.50999">
        <ele>366</ele>
        <time>2021-04-27T13:18:22Z</time>
      </trkpt>
      <trkpt lat="43.48198" lon="5.50999">
        <ele>367.4</ele>
        <time>2021-04-27T13:18:27Z</time>
      </trkpt>
      <trkpt lat="43.48198" lon="5.50999">
        <ele>346.2</ele>
        <time>2021-04-27T13:18:32Z</time>
      </trkpt>
      <trkpt lat="43.48198" lon="5.50999">
        <ele>351.9</ele>
        <time>2021-04-27T13:18:37Z</time>
      </trkpt>
      <trkpt lat="43.48198" lon="5.50999">
        <ele>362</ele>
        <time>2021-04-27T13:18:43Z</time>
      </trkpt>
      <trkpt lat="43.48198" lon="5.50999">
        <ele>361.4</ele>
        <time>2021-04-27T13:18:48Z</time>
      </trkpt>
      <trkpt lat="43.48198" lon="5.50999">
        <ele>350.6</ele>
        <time>2021-04-27T13:18:53Z</time>
      </trkpt>
      <trkpt lat="43.48198" lon="5.50999">
        <ele>368.3</ele>
        <time>2021-04-27T13:18:59Z</time>
      </trkpt>
      <trkpt lat="43.48198" lon="5.50999">
        <ele>354.7</ele>
        <time>2021-04-27T13:19:05Z</time>
      </trkpt>
      <trkpt lat="43.48198" lon="5.50999">
        <ele>373.6</ele>
        <time>2021-04-27T13:19:11Z</time>
      </trkpt>
      <trkpt lat="43.48198" lon="5.50999">
        <ele>346.3</ele>
        <time>2021-04-27T13:19:17Z</time>
      </trkpt>
      <trkpt lat="43.48198" lon="5.50999">
        <ele>355.4</ele>
        <time>2021-04-27T13:19:22Z</time>
      </trkpt>
      <trkpt lat="43.48198" lon="5.50999">
        <ele>341.6</ele>
        <time>2021-04-27T13:19:27Z</time>
      </trkpt>
      <trkpt lat="43.48197" lon="5.50998">
        <ele>352.2</ele>
        <time>2021-04-27T13:19:33Z</time>
      </trkpt>
      <trkpt lat="43.48197" lon="5.50998">
        <ele>350.5</ele>
        <time>2021-04-27T13:19:38Z</time>
      </trkpt>
      <trkpt lat="43.48197" lon="5.50998">
        <ele>342.8</ele>
        <time>2021-04-27T13:19:44Z</time>
      </trkpt>
      <trkpt lat="43.48197" lon="5.50998">
        <ele>362.6</ele>
        <time>2021-04-27T13:19:50Z</time>
      </trkpt>
      <trkpt lat="43.48197" lon="5.50998">
        <ele>352.3</ele>
        <time>2021-04-27T13:19:55Z</time>
      </trkpt>
      <trkpt lat="43.48197" lon="5.50998">
        <ele>346.4</ele>
        <time>2021-04-27T13:20:00Z</time>
      </trkpt>
      <trkpt lat="43.48197" lon="5.50998">
        <ele>370.3</ele>
        <time>2021-04-27T13:20:06Z</time>
      </trkpt>
      <trkpt lat="43.48195" lon="5.50998">
        <ele>362.5</ele>
        <time>2021-04-27T13:20:12Z</time>
      </trkpt>
      <trkpt lat="43.48195" lon="5.50998">
        <ele>355</ele>
        <time>2021-04-27T13:20:17Z</time>
      </trkpt>
      <trkpt lat="43.48195" lon="5.50998">
        <ele>357.5</ele>
        <time>2021-04-27T13:20:23Z</time>
      </trkpt>
      <trkpt lat="43.48195" lon="5.50998">
        <ele>347.5</ele>
        <time>2021-04-27T13:20:29Z</time>
      </trkpt>
      <trkpt lat="43.48195" lon="5.50998">
        <ele>363.4</ele>
        <time>2021-04-27T13:20:34Z</time>
      </trkpt>
      <trkpt lat="43.48195" lon="5.50998">
        <ele>365.2</ele>
        <time>2021-04-27T13:20:40Z</time>
      </trkpt>
      <trkpt lat="43.48195" lon="5.50998">
        <ele>360.9</ele>
        <time>2021-04-27T13:20:46Z</time>
      </trkpt>
      <trkpt lat="43.48195" lon="5.50998">
        <ele>357.9</ele>
        <time>2021-04-27T13:20:52Z</time>
      </trkpt>
      <trkpt lat="43.48195" lon="5.50998">
        <ele>361.8</ele>
        <time>2021-04-27T13:20:57Z</time>
      </trkpt>
      <trkpt lat="43.48195" lon="5.50998">
        <ele>354.8</ele>
        <time>2021-04-27T13:21:03Z</time>
      </trkpt>
      <trkpt lat="43.48195" lon="5.50998">
        <ele>368.8</ele>
        <time>2021-04-27T13:21:08Z</time>
      </trkpt>
      <trkpt lat="43.48195" lon="5.50998">
        <ele>358</ele>
        <time>2021-04-27T13:21:13Z</time>
      </trkpt>
      <trkpt lat="43.48196" lon="5.50998">
        <ele>377</ele>
        <time>2021-04-27T13:21:19Z</time>
      </trkpt>
      <trkpt lat="43.48196" lon="5.50998">
        <ele>376.3</ele>
        <time>2021-04-27T13:21:24Z</time>
      </trkpt>
      <trkpt lat="43.48196" lon="5.50998">
        <ele>355.2</ele>
        <time>2021-04-27T13:21:30Z</time>
      </trkpt>
      <trkpt lat="43.48196" lon="5.50998">
        <ele>374.4</ele>
        <time>2021-04-27T13:21:35Z</time>
      </trkpt>
      <trkpt lat="43.48196" lon="5.50998">
        <ele>371.3</ele>
        <time>2021-04-27T13:21:41Z</time>
      </trkpt>
      <trkpt lat="43.48196" lon="5.50998">
        <ele>362.5</ele>
        <time>2021-04-27T13:21:46Z</time>
      </trkpt>
      <trkpt lat="43.48196" lon="5.50998">
        <ele>352.7</ele>
        <time>2021-04-27T13:21:52Z</time>
      </trkpt>
      <trkpt lat="43.48196" lon="5.50998">
        <ele>347.6</ele>
        <time>2021-04-27T13:21:57Z</time>
      </trkpt>
      <trkpt lat="43.48196" lon="5.50998">
        <ele>367.9</ele>
        <time>2021-04-27T13:22:03Z</time>
      </trkpt>
      <trkpt lat="43.48196" lon="5.50998">
        <ele>359.4</ele>
        <time>2021-04-27T13:22:09Z</time>
      </trkpt>
      <trkpt lat="43.48196" lon="5.50998">
        <ele>343.6</ele>
        <time>2021-04-27T13:22:14Z</time>
      </trkpt>
      <trkpt lat="43.48196" lon="5.50998">
        <ele>364.5</ele>
        <time>2021-04-27T13:22:20Z</time>
      </trkpt>
      <trkpt lat="43.48196" lon="5.50998">
        <ele>351.6</ele>
        <time>2021-04-27T13:22:25Z</time>
      </trkpt>
      <trkpt lat="43.48196" lon="5.50998">
        <ele>350.2</ele>
        <time>2021-04-27T13:22:30Z</time>
      </trkpt>
      <trkpt lat="43.48196" lon="5.50998">
        <ele>358.1</ele>
        <time>2021-04-27T13:22:35Z</time>
      </trkpt>
      <trkpt lat="43.48196" lon="5.50998">
        <ele>364.9</ele>
        <time>2021-04-27T13:22:40Z</time>
      </trkpt>
      <trkpt lat="43.48194" lon="5.51">
        <ele>349</ele>
        <time>2021-04-27T13:22:46Z</time>
      </trkpt>
      <trkpt lat="43.48191" lon="5.51006">
        <ele>360.8</ele>
        <time>2021-04-27T13:22:52Z</time>
      </trkpt>
      <trkpt lat="43.48187" lon="5.51012">
        <ele>351.4</ele>
        <time>2021-04-27T13:22:58Z</time>
      </trkpt>
      <trkpt lat="43.48183" lon="5.51016">
        <ele>338.6</ele>
        <time>2021-04-27T13:23:04Z</time>
      </trkpt>
      <trkpt lat="43.4818" lon="5.5102">
        <ele>351</ele>
        <time>2021-04-27T13:23:09Z</time>
      </trkpt>
      <trkpt lat="43.48177" lon="5.51024">
        <ele>361.4</ele>
        <time>2021-04-27T13:23:15Z</time>
      </trkpt>
      <trkpt lat="43.48173" lon="5.51026">
        <ele>358.4</ele>
        <time>2021-04-27T13:23:20Z</time>
      </trkpt>
      <trkpt lat="43.4817" lon="5.51031">
        <ele>367.8</ele>
        <time>2021-04-27T13:23:25Z</time>
      </trkpt>
      <trkpt lat="43.48166" lon="5.51037">
        <ele>350.9</ele>
        <time>2021-04-27T13:23:31Z</time>
      </trkpt>
      <trkpt lat="43.48163" lon="5.51041">
        <ele>336.9</ele>
        <time>2021-04-27T13:23:36Z</time>
      </trkpt>
      <trkpt lat="43.4816" lon="5.51045">
        <ele>351.2</ele>
        <time>2021-04-27T13:23:41Z</time>
      </trkpt>
      <trkpt lat="43.48156" lon="5.51051">
        <ele>347.2</ele>
        <time>2021-04-27T13:23:47Z</time>
      </trkpt>
      <trkpt lat="43.48153" lon="5.51055">
        <ele>366</ele>
        <time>2021-04-27T13:23:52Z</time>
      </trkpt>
      <trkpt lat="43.4815" lon="5.51059">
        <ele>352.7</ele>
        <time>2021-04-27T13:23:57Z</time>
      </trkpt>
      <trkpt lat="43.48147" lon="5.51063">
        <ele>357.5</ele>
        <time>2021-04-27T13:24:02Z</time>
      </trkpt>
      <trkpt lat="43.48145" lon="5.51067">
        <ele>359.4</ele>
        <time>2021-04-27T13:24:07Z</time>
      </trkpt>
      <trkpt lat="43.48141" lon="5.51072">
        <ele>369.1</ele>
        <time>2021-04-27T13:24:13Z</time>
      </trkpt>
      <trkpt lat="43.4814" lon="5.51078">
        <ele>355.6</ele>
        <time>2021-04-27T13:24:19Z</time>
      </trkpt>
      <trkpt lat="43.48135" lon="5.51081">
        <ele>359.1</ele>
        <time>2021-04-27T13:24:24Z</time>
      </trkpt>
      <trkpt lat="43.4813" lon="5.51086">
        <ele>355.2</ele>
        <time>2021-04-27T13:24:30Z</time>
      </trkpt>
      <trkpt lat="43.48127" lon="5.51091">
        <ele>361.2</ele>
        <time>2021-04-27T13:24:36Z</time>
      </trkpt>
      <trkpt lat="43.48123" lon="5.51095">
        <ele>367.7</ele>
        <time>2021-04-27T13:24:42Z</time>
      </trkpt>
      <trkpt lat="43.48119" lon="5.51101">
        <ele>357.7</ele>
        <time>2021-04-27T13:24:48Z</time>
      </trkpt>
      <trkpt lat="43.48117" lon="5.51107">
        <ele>358</ele>
        <time>2021-04-27T13:24:54Z</time>
      </trkpt>
      <trkpt lat="43.48117" lon="5.51113">
        <ele>359.9</ele>
        <time>2021-04-27T13:25:00Z</time>
      </trkpt>
      <trkpt lat="43.48116" lon="5.51116">
        <ele>335.6</ele>
        <time>2021-04-27T13:25:06Z</time>
      </trkpt>
      <trkpt lat="43.48115" lon="5.51121">
        <ele>357.2</ele>
        <time>2021-04-27T13:25:11Z</time>
      </trkpt>
      <trkpt lat="43.48113" lon="5.51126">
        <ele>363.5</ele>
        <time>2021-04-27T13:25:17Z</time>
      </trkpt>
      <trkpt lat="43.48112" lon="5.51133">
        <ele>353.8</ele>
        <time>2021-04-27T13:25:23Z</time>
      </trkpt>
      <trkpt lat="43.48111" lon="5.51139">
        <ele>346.7</ele>
        <time>2021-04-27T13:25:28Z</time>
      </trkpt>
      <trkpt lat="43.48111" lon="5.51146">
        <ele>351.9</ele>
        <time>2021-04-27T13:25:34Z</time>
      </trkpt>
      <trkpt lat="43.4811" lon="5.5115">
        <ele>341.3</ele>
        <time>2021-04-27T13:25:40Z</time>
      </trkpt>
      <trkpt lat="43.48108" lon="5.51157">
        <ele>358.4</ele>
        <time>2021-04-27T13:25:46Z</time>
      </trkpt>
      <trkpt lat="43.48107" lon="5.51163">
        <ele>365.4</ele>
        <time>2021-04-27T13:25:52Z</time>
      </trkpt>
      <trkpt lat="43.48107" lon="5.51168">
        <ele>344.7</ele>
        <time>2021-04-27T13:25:58Z</time>
      </trkpt>
      <trkpt lat="43.48105" lon="5.51175">
        <ele>357.2</ele>
        <time>2021-04-27T13:26:03Z</time>
      </trkpt>
      <trkpt lat="43.48103" lon="5.5118">
        <ele>368.4</ele>
        <time>2021-04-27T13:26:08Z</time>
      </trkpt>
      <trkpt lat="43.48102" lon="5.51185">
        <ele>353.1</ele>
        <time>2021-04-27T13:26:14Z</time>
      </trkpt>
      <trkpt lat="43.48101" lon="5.51189">
        <ele>335</ele>
        <time>2021-04-27T13:26:19Z</time>
      </trkpt>
      <trkpt lat="43.481" lon="5.51195">
        <ele>338.9</ele>
        <time>2021-04-27T13:26:25Z</time>
      </trkpt>
      <trkpt lat="43.481" lon="5.51204">
        <ele>350.4</ele>
        <time>2021-04-27T13:26:31Z</time>
      </trkpt>
      <trkpt lat="43.48098" lon="5.5121">
        <ele>332.8</ele>
        <time>2021-04-27T13:26:36Z</time>
      </trkpt>
      <trkpt lat="43.48098" lon="5.51216">
        <ele>336</ele>
        <time>2021-04-27T13:26:42Z</time>
      </trkpt>
      <trkpt lat="43.48096" lon="5.51221">
        <ele>356.2</ele>
        <time>2021-04-27T13:26:48Z</time>
      </trkpt>
      <trkpt lat="43.48093" lon="5.51226">
        <ele>343.6</ele>
        <time>2021-04-27T13:26:53Z</time>
      </trkpt>
      <trkpt lat="43.48091" lon="5.51232">
        <ele>346.2</ele>
        <time>2021-04-27T13:26:58Z</time>
      </trkpt>
      <trkpt lat="43.4809" lon="5.51239">
        <ele>358.4</ele>
        <time>2021-04-27T13:27:04Z</time>
      </trkpt>
      <trkpt lat="43.48088" lon="5.51242">
        <ele>342.6</ele>
        <time>2021-04-27T13:27:09Z</time>
      </trkpt>
      <trkpt lat="43.48086" lon="5.51245">
        <ele>339.5</ele>
        <time>2021-04-27T13:27:15Z</time>
      </trkpt>
      <trkpt lat="43.48085" lon="5.51249">
        <ele>331.8</ele>
        <time>2021-04-27T13:27:20Z</time>
      </trkpt>
      <trkpt lat="43.48081" lon="5.51254">
        <ele>336.1</ele>
        <time>2021-04-27T13:27:26Z</time>
      </trkpt>
      <trkpt lat="43.48079" lon="5.51261">
        <ele>331.2</ele>
        <time>2021-04-27T13:27:32Z</time>
      </trkpt>
      <trkpt lat="43.48076" lon="5.51268">
        <ele>335.1</ele>
        <time>2021-04-27T13:27:38Z</time>
      </trkpt>
      <trkpt lat="43.48076" lon="5.51276">
        <ele>337.9</ele>
        <time>2021-04-27T13:27:44Z</time>
      </trkpt>
      <trkpt lat="43.48076" lon="5.51285">
        <ele>319.3</ele>
        <time>2021-04-27T13:27:50Z</time>
      </trkpt>
      <trkpt lat="43.48076" lon="5.51291">
        <ele>325</ele>
        <time>2021-04-27T13:27:55Z</time>
      </trkpt>
      <trkpt lat="43.48076" lon="5.51294">
        <ele>346.3</ele>
        <time>2021-04-27T13:28:00Z</time>
      </trkpt>
      <trkpt lat="43.48076" lon="5.51294">
        <ele>330.8</ele>
        <time>2021-04-27T13:28:05Z</time>
      </trkpt>
      <trkpt lat="43.48076" lon="5.51295">
        <ele>332.3</ele>
        <time>2021-04-27T13:28:11Z</time>
      </trkpt>
      <trkpt lat="43.48074" lon="5.51298">
        <ele>340.6</ele>
        <time>2021-04-27T13:28:17Z</time>
      </trkpt>
      <trkpt lat="43.48071" lon="5.51302">
        <ele>333.2</ele>
        <time>2021-04-27T13:28:22Z</time>
      </trkpt>
      <trkpt lat="43.4807" lon="5.51302">
        <ele>327.3</ele>
        <time>2021-04-27T13:28:27Z</time>
      </trkpt>
      <trkpt lat="43.48068" lon="5.51304">
        <ele>333</ele>
        <time>2021-04-27T13:28:32Z</time>
      </trkpt>
      <trkpt lat="43.48066" lon="5.51306">
        <ele>326.8</ele>
        <time>2021-04-27T13:28:37Z</time>
      </trkpt>
      <trkpt lat="43.48064" lon="5.5131">
        <ele>326.2</ele>
        <time>2021-04-27T13:28:43Z</time>
      </trkpt>
      <trkpt lat="43.48064" lon="5.51313">
        <ele>323.6</ele>
        <time>2021-04-27T13:28:49Z</time>
      </trkpt>
      <trkpt lat="43.48064" lon="5.51316">
        <ele>333.6</ele>
        <time>2021-04-27T13:28:55Z</time>
      </trkpt>
      <trkpt lat="43.48065" lon="5.5132">
        <ele>337.6</ele>
        <time>2021-04-27T13:29:01Z</time>
      </trkpt>
      <trkpt lat="43.48065" lon="5.51319">
        <ele>316.6</ele>
        <time>2021-04-27T13:29:06Z</time>
      </trkpt>
      <trkpt lat="43.48064" lon="5.51322">
        <ele>329.3</ele>
        <time>2021-04-27T13:29:12Z</time>
      </trkpt>
      <trkpt lat="43.48063" lon="5.51331">
        <ele>338.4</ele>
        <time>2021-04-27T13:29:18Z</time>
      </trkpt>
      <trkpt lat="43.48062" lon="5.5134">
        <ele>334.5</ele>
        <time>2021-04-27T13:29:23Z</time>
      </trkpt>
      <trkpt lat="43.48062" lon="5.51346">
        <ele>322.2</ele>
        <time>2021-04-27T13:29:29Z</time>
      </trkpt>
      <trkpt lat="43.48062" lon="5.51354">
        <ele>329.5</ele>
        <time>2021-04-27T13:29:35Z</time>
      </trkpt>
      <trkpt lat="43.48061" lon="5.51361">
        <ele>345.8</ele>
        <time>2021-04-27T13:29:40Z</time>
      </trkpt>
      <trkpt lat="43.48061" lon="5.51367">
        <ele>346.1</ele>
        <time>2021-04-27T13:29:45Z</time>
      </trkpt>
      <trkpt lat="43.4806" lon="5.51374">
        <ele>335.1</ele>
        <time>2021-04-27T13:29:51Z</time>
      </trkpt>
      <trkpt lat="43.4806" lon="5.5138">
        <ele>334.6</ele>
        <time>2021-04-27T13:29:56Z</time>
      </trkpt>
      <trkpt lat="43.48059" lon="5.51386">
        <ele>333.4</ele>
        <time>2021-04-27T13:30:02Z</time>
      </trkpt>
      <trkpt lat="43.48058" lon="5.51392">
        <ele>320.7</ele>
        <time>2021-04-27T13:30:07Z</time>
      </trkpt>
      <trkpt lat="43.48058" lon="5.51398">
        <ele>335.7</ele>
        <time>2021-04-27T13:30:13Z</time>
      </trkpt>
      <trkpt lat="43.48058" lon="5.51403">
        <ele>323.2</ele>
        <time>2021-04-27T13:30:18Z</time>
      </trkpt>
      <trkpt lat="43.48058" lon="5.51411">
        <ele>328.5</ele>
        <time>2021-04-27T13:30:23Z</time>
      </trkpt>
      <trkpt lat="43.48058" lon="5.51417">
        <ele>310.7</ele>
        <time>2021-04-27T13:30:29Z</time>
      </trkpt>
      <trkpt lat="43.48058" lon="5.51422">
        <ele>312.8</ele>
        <time>2021-04-27T13:30:34Z</time>
      </trkpt>
      <trkpt lat="43.48058" lon="5.5143">
        <ele>318.7</ele>
        <time>2021-04-27T13:30:40Z</time>
      </trkpt>
      <trkpt lat="43.48059" lon="5.51437">
        <ele>337.7</ele>
        <time>2021-04-27T13:30:46Z</time>
      </trkpt>
      <trkpt lat="43.4806" lon="5.51444">
        <ele>337.3</ele>
        <time>2021-04-27T13:30:51Z</time>
      </trkpt>
      <trkpt lat="43.48061" lon="5.51451">
        <ele>308.2</ele>
        <time>2021-04-27T13:30:57Z</time>
      </trkpt>
      <trkpt lat="43.48063" lon="5.51457">
        <ele>341.9</ele>
        <time>2021-04-27T13:31:03Z</time>
      </trkpt>
      <trkpt lat="43.48065" lon="5.51464">
        <ele>328.4</ele>
        <time>2021-04-27T13:31:09Z</time>
      </trkpt>
      <trkpt lat="43.48067" lon="5.5147">
        <ele>349.5</ele>
        <time>2021-04-27T13:31:14Z</time>
      </trkpt>
      <trkpt lat="43.48069" lon="5.51477">
        <ele>311.7</ele>
        <time>2021-04-27T13:31:20Z</time>
      </trkpt>
      <trkpt lat="43.48071" lon="5.51484">
        <ele>320</ele>
        <time>2021-04-27T13:31:25Z</time>
      </trkpt>
      <trkpt lat="43.48073" lon="5.5149">
        <ele>328.5</ele>
        <time>2021-04-27T13:31:31Z</time>
      </trkpt>
      <trkpt lat="43.48076" lon="5.51498">
        <ele>339.4</ele>
        <time>2021-04-27T13:31:37Z</time>
      </trkpt>
      <trkpt lat="43.48078" lon="5.51503">
        <ele>317.5</ele>
        <time>2021-04-27T13:31:42Z</time>
      </trkpt>
      <trkpt lat="43.4808" lon="5.5151">
        <ele>322.9</ele>
        <time>2021-04-27T13:31:47Z</time>
      </trkpt>
      <trkpt lat="43.48082" lon="5.51517">
        <ele>332.5</ele>
        <time>2021-04-27T13:31:53Z</time>
      </trkpt>
      <trkpt lat="43.48085" lon="5.51524">
        <ele>336.9</ele>
        <time>2021-04-27T13:31:59Z</time>
      </trkpt>
      <trkpt lat="43.48085" lon="5.51531">
        <ele>318.6</ele>
        <time>2021-04-27T13:32:04Z</time>
      </trkpt>
      <trkpt lat="43.48087" lon="5.51539">
        <ele>330.5</ele>
        <time>2021-04-27T13:32:10Z</time>
      </trkpt>
      <trkpt lat="43.48089" lon="5.51546">
        <ele>336.7</ele>
        <time>2021-04-27T13:32:16Z</time>
      </trkpt>
      <trkpt lat="43.48091" lon="5.5155">
        <ele>329.9</ele>
        <time>2021-04-27T13:32:22Z</time>
      </trkpt>
      <trkpt lat="43.48093" lon="5.51553">
        <ele>326</ele>
        <time>2021-04-27T13:32:27Z</time>
      </trkpt>
      <trkpt lat="43.48096" lon="5.51555">
        <ele>326.2</ele>
        <time>2021-04-27T13:32:33Z</time>
      </trkpt>
      <trkpt lat="43.48099" lon="5.5156">
        <ele>323.4</ele>
        <time>2021-04-27T13:32:38Z</time>
      </trkpt>
      <trkpt lat="43.48102" lon="5.51565">
        <ele>325.6</ele>
        <time>2021-04-27T13:32:43Z</time>
      </trkpt>
      <trkpt lat="43.48105" lon="5.51571">
        <ele>326.8</ele>
        <time>2021-04-27T13:32:49Z</time>
      </trkpt>
      <trkpt lat="43.48108" lon="5.51577">
        <ele>321.2</ele>
        <time>2021-04-27T13:32:54Z</time>
      </trkpt>
      <trkpt lat="43.48111" lon="5.51582">
        <ele>315.7</ele>
        <time>2021-04-27T13:33:00Z</time>
      </trkpt>
      <trkpt lat="43.48115" lon="5.51589">
        <ele>331.1</ele>
        <time>2021-04-27T13:33:06Z</time>
      </trkpt>
      <trkpt lat="43.48118" lon="5.51595">
        <ele>320.2</ele>
        <time>2021-04-27T13:33:12Z</time>
      </trkpt>
      <trkpt lat="43.48121" lon="5.51598">
        <ele>329.6</ele>
        <time>2021-04-27T13:33:17Z</time>
      </trkpt>
      <trkpt lat="43.48125" lon="5.51603">
        <ele>322.9</ele>
        <time>2021-04-27T13:33:23Z</time>
      </trkpt>
      <trkpt lat="43.48127" lon="5.51607">
        <ele>325.6</ele>
        <time>2021-04-27T13:33:29Z</time>
      </trkpt>
      <trkpt lat="43.4813" lon="5.51611">
        <ele>323.7</ele>
        <time>2021-04-27T13:33:35Z</time>
      </trkpt>
      <trkpt lat="43.4813" lon="5.51614">
        <ele>301.4</ele>
        <time>2021-04-27T13:33:41Z</time>
      </trkpt>
      <trkpt lat="43.48131" lon="5.51616">
        <ele>322.5</ele>
        <time>2021-04-27T13:33:46Z</time>
      </trkpt>
      <trkpt lat="43.48132" lon="5.51618">
        <ele>321.2</ele>
        <time>2021-04-27T13:33:52Z</time>
      </trkpt>
      <trkpt lat="43.48132" lon="5.51618">
        <ele>316.6</ele>
        <time>2021-04-27T13:33:58Z</time>
      </trkpt>
      <trkpt lat="43.48132" lon="5.51618">
        <ele>326.3</ele>
        <time>2021-04-27T13:34:03Z</time>
      </trkpt>
      <trkpt lat="43.48132" lon="5.51619">
        <ele>316.9</ele>
        <time>2021-04-27T13:34:08Z</time>
      </trkpt>
      <trkpt lat="43.48131" lon="5.51622">
        <ele>324.5</ele>
        <time>2021-04-27T13:34:13Z</time>
      </trkpt>
      <trkpt lat="43.48133" lon="5.51629">
        <ele>323.4</ele>
        <time>2021-04-27T13:34:19Z</time>
      </trkpt>
      <trkpt lat="43.48137" lon="5.51637">
        <ele>321.8</ele>
        <time>2021-04-27T13:34:25Z</time>
      </trkpt>
      <trkpt lat="43.48142" lon="5.51643">
        <ele>316.3</ele>
        <time>2021-04-27T13:34:31Z</time>
      </trkpt>
      <trkpt lat="43.48148" lon="5.51645">
        <ele>330.3</ele>
        <time>2021-04-27T13:34:37Z</time>
      </trkpt>
      <trkpt lat="43.48152" lon="5.51649">
        <ele>313.8</ele>
        <time>2021-04-27T13:34:42Z</time>
      </trkpt>
      <trkpt lat="43.48156" lon="5.5165">
        <ele>310.7</ele>
        <time>2021-04-27T13:34:47Z</time>
      </trkpt>
      <trkpt lat="43.48161" lon="5.51651">
        <ele>340.5</ele>
        <time>2021-04-27T13:34:52Z</time>
      </trkpt>
      <trkpt lat="43.48166" lon="5.51653">
        <ele>325.9</ele>
        <time>2021-04-27T13:34:58Z</time>
      </trkpt>
      <trkpt lat="43.48171" lon="5.51656">
        <ele>313.1</ele>
        <time>2021-04-27T13:35:03Z</time>
      </trkpt>
      <trkpt lat="43.48177" lon="5.51658">
        <ele>301.1</ele>
        <time>2021-04-27T13:35:09Z</time>
      </trkpt>
      <trkpt lat="43.48183" lon="5.51662">
        <ele>318.7</ele>
        <time>2021-04-27T13:35:15Z</time>
      </trkpt>
      <trkpt lat="43.48187" lon="5.51666">
        <ele>322.1</ele>
        <time>2021-04-27T13:35:20Z</time>
      </trkpt>
      <trkpt lat="43.48193" lon="5.51668">
        <ele>306.4</ele>
        <time>2021-04-27T13:35:26Z</time>
      </trkpt>
      <trkpt lat="43.48196" lon="5.51672">
        <ele>308.7</ele>
        <time>2021-04-27T13:35:31Z</time>
      </trkpt>
      <trkpt lat="43.482" lon="5.51677">
        <ele>322.5</ele>
        <time>2021-04-27T13:35:37Z</time>
      </trkpt>
      <trkpt lat="43.48203" lon="5.51684">
        <ele>318</ele>
        <time>2021-04-27T13:35:42Z</time>
      </trkpt>
      <trkpt lat="43.48205" lon="5.5169">
        <ele>312.4</ele>
        <time>2021-04-27T13:35:48Z</time>
      </trkpt>
      <trkpt lat="43.48209" lon="5.51694">
        <ele>340</ele>
        <time>2021-04-27T13:35:54Z</time>
      </trkpt>
      <trkpt lat="43.48213" lon="5.51698">
        <ele>313.6</ele>
        <time>2021-04-27T13:36:00Z</time>
      </trkpt>
      <trkpt lat="43.48217" lon="5.51704">
        <ele>334.6</ele>
        <time>2021-04-27T13:36:05Z</time>
      </trkpt>
      <trkpt lat="43.4822" lon="5.51709">
        <ele>312.1</ele>
        <time>2021-04-27T13:36:11Z</time>
      </trkpt>
      <trkpt lat="43.48224" lon="5.51711">
        <ele>316.8</ele>
        <time>2021-04-27T13:36:16Z</time>
      </trkpt>
      <trkpt lat="43.48228" lon="5.51716">
        <ele>326.1</ele>
        <time>2021-04-27T13:36:21Z</time>
      </trkpt>
      <trkpt lat="43.48233" lon="5.51721">
        <ele>312</ele>
        <time>2021-04-27T13:36:27Z</time>
      </trkpt>
      <trkpt lat="43.48235" lon="5.51725">
        <ele>312</ele>
        <time>2021-04-27T13:36:32Z</time>
      </trkpt>
      <trkpt lat="43.4824" lon="5.51729">
        <ele>330.6</ele>
        <time>2021-04-27T13:36:38Z</time>
      </trkpt>
      <trkpt lat="43.48244" lon="5.51731">
        <ele>327.7</ele>
        <time>2021-04-27T13:36:43Z</time>
      </trkpt>
      <trkpt lat="43.48248" lon="5.51737">
        <ele>327.2</ele>
        <time>2021-04-27T13:36:49Z</time>
      </trkpt>
      <trkpt lat="43.48252" lon="5.51742">
        <ele>306.7</ele>
        <time>2021-04-27T13:36:55Z</time>
      </trkpt>
      <trkpt lat="43.48255" lon="5.51749">
        <ele>327.6</ele>
        <time>2021-04-27T13:37:01Z</time>
      </trkpt>
      <trkpt lat="43.48259" lon="5.51752">
        <ele>303.1</ele>
        <time>2021-04-27T13:37:06Z</time>
      </trkpt>
      <trkpt lat="43.48263" lon="5.51755">
        <ele>316.1</ele>
        <time>2021-04-27T13:37:12Z</time>
      </trkpt>
      <trkpt lat="43.48266" lon="5.51757">
        <ele>334.4</ele>
        <time>2021-04-27T13:37:18Z</time>
      </trkpt>
      <trkpt lat="43.4827" lon="5.51759">
        <ele>306.9</ele>
        <time>2021-04-27T13:37:23Z</time>
      </trkpt>
      <trkpt lat="43.48274" lon="5.51761">
        <ele>312.6</ele>
        <time>2021-04-27T13:37:29Z</time>
      </trkpt>
      <trkpt lat="43.48279" lon="5.51759">
        <ele>314</ele>
        <time>2021-04-27T13:37:35Z</time>
      </trkpt>
      <trkpt lat="43.48283" lon="5.51759">
        <ele>324.5</ele>
        <time>2021-04-27T13:37:41Z</time>
      </trkpt>
      <trkpt lat="43.48284" lon="5.51759">
        <ele>332.2</ele>
        <time>2021-04-27T13:37:46Z</time>
      </trkpt>
      <trkpt lat="43.48288" lon="5.51759">
        <ele>329.3</ele>
        <time>2021-04-27T13:37:51Z</time>
      </trkpt>
      <trkpt lat="43.48292" lon="5.5176">
        <ele>297.9</ele>
        <time>2021-04-27T13:37:57Z</time>
      </trkpt>
      <trkpt lat="43.48297" lon="5.5176">
        <ele>317.9</ele>
        <time>2021-04-27T13:38:03Z</time>
      </trkpt>
      <trkpt lat="43.48304" lon="5.5176">
        <ele>315.8</ele>
        <time>2021-04-27T13:38:09Z</time>
      </trkpt>
      <trkpt lat="43.4831" lon="5.5176">
        <ele>309.1</ele>
        <time>2021-04-27T13:38:15Z</time>
      </trkpt>
      <trkpt lat="43.48315" lon="5.51759">
        <ele>312.8</ele>
        <time>2021-04-27T13:38:20Z</time>
      </trkpt>
      <trkpt lat="43.4832" lon="5.51756">
        <ele>337.5</ele>
        <time>2021-04-27T13:38:26Z</time>
      </trkpt>
      <trkpt lat="43.48325" lon="5.51756">
        <ele>308.5</ele>
        <time>2021-04-27T13:38:31Z</time>
      </trkpt>
      <trkpt lat="43.48329" lon="5.51755">
        <ele>308.7</ele>
        <time>2021-04-27T13:38:36Z</time>
      </trkpt>
      <trkpt lat="43.48333" lon="5.51754">
        <ele>301</ele>
        <time>2021-04-27T13:38:42Z</time>
      </trkpt>
      <trkpt lat="43.48337" lon="5.51754">
        <ele>314.3</ele>
        <time>2021-04-27T13:38:48Z</time>
      </trkpt>
      <trkpt lat="43.48342" lon="5.51755">
        <ele>309.5</ele>
        <time>2021-04-27T13:38:54Z</time>
      </trkpt>
      <trkpt lat="43.48349" lon="5.51754">
        <ele>304.9</ele>
        <time>2021-04-27T13:39:00Z</time>
      </trkpt>
      <trkpt lat="43.48355" lon="5.51755">
        <ele>311.7</ele>
        <time>2021-04-27T13:39:05Z</time>
      </trkpt>
      <trkpt lat="43.48359" lon="5.51756">
        <ele>306.6</ele>
        <time>2021-04-27T13:39:11Z</time>
      </trkpt>
      <trkpt lat="43.48364" lon="5.51756">
        <ele>313.8</ele>
        <time>2021-04-27T13:39:16Z</time>
      </trkpt>
      <trkpt lat="43.4837" lon="5.51757">
        <ele>300.3</ele>
        <time>2021-04-27T13:39:22Z</time>
      </trkpt>
      <trkpt lat="43.48375" lon="5.51758">
        <ele>317</ele>
        <time>2021-04-27T13:39:27Z</time>
      </trkpt>
      <trkpt lat="43.48379" lon="5.5176">
        <ele>312.4</ele>
        <time>2021-04-27T13:39:32Z</time>
      </trkpt>
      <trkpt lat="43.48383" lon="5.51762">
        <ele>306.9</ele>
        <time>2021-04-27T13:39:38Z</time>
      </trkpt>
      <trkpt lat="43.48383" lon="5.51762">
        <ele>302.4</ele>
        <time>2021-04-27T13:39:43Z</time>
      </trkpt>
      <trkpt lat="43.48383" lon="5.51762">
        <ele>309</ele>
        <time>2021-04-27T13:39:49Z</time>
      </trkpt>
      <trkpt lat="43.48383" lon="5.51762">
        <ele>308.1</ele>
        <time>2021-04-27T13:39:54Z</time>
      </trkpt>
      <trkpt lat="43.48382" lon="5.51762">
        <ele>313</ele>
        <time>2021-04-27T13:40:00Z</time>
      </trkpt>
      <trkpt lat="43.48382" lon="5.51762">
        <ele>309.8</ele>
        <time>2021-04-27T13:40:05Z</time>
      </trkpt>
      <trkpt lat="43.48382" lon="5.51762">
        <ele>319.7</ele>
        <time>2021-04-27T13:40:10Z</time>
      </trkpt>
      <trkpt lat="43.48382" lon="5.51762">
        <ele>300.6</ele>
        <time>2021-04-27T13:40:16Z</time>
      </trkpt>
      <trkpt lat="43.48382" lon="5.51762">
        <ele>298.6</ele>
        <time>2021-04-27T13:40:21Z</time>
      </trkpt>
      <trkpt lat="43.48382" lon="5.51762">
        <ele>310.1</ele>
        <time>2021-04-27T13:40:26Z</time>
      </trkpt>
      <trkpt lat="43.48381" lon="5.51761">
        <ele>291.6</ele>
        <time>2021-04-27T13:40:33Z</time>
      </trkpt>
      <trkpt lat="43.4839" lon="5.51765">
        <ele>294.1</ele>
        <time>2021-04-27T13:40:39Z</time>
      </trkpt>
      <trkpt lat="43.48396" lon="5.51765">
        <ele>315.5</ele>
        <time>2021-04-27T13:40:44Z</time>
      </trkpt>
      <trkpt lat="43.484" lon="5.51765">
        <ele>296.8</ele>
        <time>2021-04-27T13:40:50Z</time>
      </trkpt>
      <trkpt lat="43.48404" lon="5.51766">
        <ele>318.4</ele>
        <time>2021-04-27T13:40:55Z</time>
      </trkpt>
      <trkpt lat="43.4841" lon="5.51766">
        <ele>312.4</ele>
        <time>2021-04-27T13:41:01Z</time>
      </trkpt>
      <trkpt lat="43.48413" lon="5.51767">
        <ele>317.7</ele>
        <time>2021-04-27T13:41:07Z</time>
      </trkpt>
      <trkpt lat="43.48418" lon="5.51767">
        <ele>320.8</ele>
        <time>2021-04-27T13:41:12Z</time>
      </trkpt>
      <trkpt lat="43.4842" lon="5.51768">
        <ele>308.6</ele>
        <time>2021-04-27T13:41:17Z</time>
      </trkpt>
      <trkpt lat="43.48424" lon="5.51768">
        <ele>283.3</ele>
        <time>2021-04-27T13:41:23Z</time>
      </trkpt>
      <trkpt lat="43.48429" lon="5.51768">
        <ele>310.3</ele>
        <time>2021-04-27T13:41:28Z</time>
      </trkpt>
      <trkpt lat="43.48436" lon="5.51769">
        <ele>303.9</ele>
        <time>2021-04-27T13:41:34Z</time>
      </trkpt>
      <trkpt lat="43.48442" lon="5.51771">
        <ele>297.5</ele>
        <time>2021-04-27T13:41:40Z</time>
      </trkpt>
      <trkpt lat="43.48447" lon="5.51773">
        <ele>311.1</ele>
        <time>2021-04-27T13:41:45Z</time>
      </trkpt>
      <trkpt lat="43.48451" lon="5.51774">
        <ele>297.1</ele>
        <time>2021-04-27T13:41:51Z</time>
      </trkpt>
      <trkpt lat="43.48457" lon="5.51773">
        <ele>287.6</ele>
        <time>2021-04-27T13:41:56Z</time>
      </trkpt>
      <trkpt lat="43.48457" lon="5.51773">
        <ele>303.8</ele>
        <time>2021-04-27T13:42:01Z</time>
      </trkpt>
      <trkpt lat="43.48456" lon="5.51773">
        <ele>313.5</ele>
        <time>2021-04-27T13:42:07Z</time>
      </trkpt>
      <trkpt lat="43.48456" lon="5.51773">
        <ele>293.2</ele>
        <time>2021-04-27T13:42:13Z</time>
      </trkpt>
      <trkpt lat="43.48462" lon="5.51773">
        <ele>301</ele>
        <time>2021-04-27T13:42:18Z</time>
      </trkpt>
      <trkpt lat="43.48467" lon="5.51771">
        <ele>285.4</ele>
        <time>2021-04-27T13:42:24Z</time>
      </trkpt>
      <trkpt lat="43.48471" lon="5.5177">
        <ele>312.6</ele>
        <time>2021-04-27T13:42:30Z</time>
      </trkpt>
      <trkpt lat="43.48476" lon="5.51769">
        <ele>310.1</ele>
        <time>2021-04-27T13:42:36Z</time>
      </trkpt>
      <trkpt lat="43.48479" lon="5.51769">
        <ele>296.1</ele>
        <time>2021-04-27T13:42:42Z</time>
      </trkpt>
      <trkpt lat="43.48484" lon="5.51768">
        <ele>298</ele>
        <time>2021-04-27T13:42:48Z</time>
      </trkpt>
      <trkpt lat="43.4849" lon="5.51767">
        <ele>297.8</ele>
        <time>2021-04-27T13:42:53Z</time>
      </trkpt>
      <trkpt lat="43.48495" lon="5.51768">
        <ele>290.1</ele>
        <time>2021-04-27T13:42:59Z</time>
      </trkpt>
      <trkpt lat="43.485" lon="5.51768">
        <ele>312.9</ele>
        <time>2021-04-27T13:43:04Z</time>
      </trkpt>
      <trkpt lat="43.48505" lon="5.5177">
        <ele>303</ele>
        <time>2021-04-27T13:43:10Z</time>
      </trkpt>
      <trkpt lat="43.48509" lon="5.51771">
        <ele>288.4</ele>
        <time>2021-04-27T13:43:15Z</time>
      </trkpt>
      <trkpt lat="43.48514" lon="5.51773">
        <ele>291.4</ele>
        <time>2021-04-27T13:43:20Z</time>
      </trkpt>
      <trkpt lat="43.48518" lon="5.51775">
        <ele>298.4</ele>
        <time>2021-04-27T13:43:26Z</time>
      </trkpt>
      <trkpt lat="43.48521" lon="5.51776">
        <ele>297.7</ele>
        <time>2021-04-27T13:43:31Z</time>
      </trkpt>
      <trkpt lat="43.48526" lon="5.51778">
        <ele>288.1</ele>
        <time>2021-04-27T13:43:37Z</time>
      </trkpt>
      <trkpt lat="43.4853" lon="5.51779">
        <ele>291</ele>
        <time>2021-04-27T13:43:42Z</time>
      </trkpt>
      <trkpt lat="43.48537" lon="5.51782">
        <ele>297.4</ele>
        <time>2021-04-27T13:43:48Z</time>
      </trkpt>
      <trkpt lat="43.48542" lon="5.51784">
        <ele>300.4</ele>
        <time>2021-04-27T13:43:53Z</time>
      </trkpt>
      <trkpt lat="43.48546" lon="5.51784">
        <ele>272.6</ele>
        <time>2021-04-27T13:43:58Z</time>
      </trkpt>
      <trkpt lat="43.48549" lon="5.51784">
        <ele>299.4</ele>
        <time>2021-04-27T13:44:03Z</time>
      </trkpt>
      <trkpt lat="43.48554" lon="5.51784">
        <ele>285.2</ele>
        <time>2021-04-27T13:44:09Z</time>
      </trkpt>
      <trkpt lat="43.48559" lon="5.51786">
        <ele>288.3</ele>
        <time>2021-04-27T13:44:14Z</time>
      </trkpt>
      <trkpt lat="43.48565" lon="5.51788">
        <ele>272.9</ele>
        <time>2021-04-27T13:44:20Z</time>
      </trkpt>
      <trkpt lat="43.48569" lon="5.5179">
        <ele>295.5</ele>
        <time>2021-04-27T13:44:26Z</time>
      </trkpt>
      <trkpt lat="43.48574" lon="5.51792">
        <ele>286.8</ele>
        <time>2021-04-27T13:44:32Z</time>
      </trkpt>
      <trkpt lat="43.48577" lon="5.51793">
        <ele>284.4</ele>
        <time>2021-04-27T13:44:37Z</time>
      </trkpt>
      <trkpt lat="43.48581" lon="5.51794">
        <ele>285.3</ele>
        <time>2021-04-27T13:44:42Z</time>
      </trkpt>
      <trkpt lat="43.48588" lon="5.51796">
        <ele>288.5</ele>
        <time>2021-04-27T13:44:48Z</time>
      </trkpt>
      <trkpt lat="43.48591" lon="5.51798">
        <ele>284.9</ele>
        <time>2021-04-27T13:44:54Z</time>
      </trkpt>
      <trkpt lat="43.48596" lon="5.518">
        <ele>310.4</ele>
        <time>2021-04-27T13:45:00Z</time>
      </trkpt>
      <trkpt lat="43.486" lon="5.518">
        <ele>277.8</ele>
        <time>2021-04-27T13:45:05Z</time>
      </trkpt>
      <trkpt lat="43.48603" lon="5.51801">
        <ele>259.7</ele>
        <time>2021-04-27T13:45:10Z</time>
      </trkpt>
      <trkpt lat="43.48609" lon="5.51804">
        <ele>269</ele>
        <time>2021-04-27T13:45:16Z</time>
      </trkpt>
      <trkpt lat="43.48615" lon="5.51807">
        <ele>291.5</ele>
        <time>2021-04-27T13:45:22Z</time>
      </trkpt>
      <trkpt lat="43.48619" lon="5.51806">
        <ele>284.9</ele>
        <time>2021-04-27T13:45:28Z</time>
      </trkpt>
      <trkpt lat="43.48625" lon="5.51806">
        <ele>280.5</ele>
        <time>2021-04-27T13:45:34Z</time>
      </trkpt>
      <trkpt lat="43.4863" lon="5.51807">
        <ele>276.4</ele>
        <time>2021-04-27T13:45:40Z</time>
      </trkpt>
      <trkpt lat="43.48635" lon="5.51807">
        <ele>288.1</ele>
        <time>2021-04-27T13:45:45Z</time>
      </trkpt>
      <trkpt lat="43.4864" lon="5.51808">
        <ele>274.9</ele>
        <time>2021-04-27T13:45:50Z</time>
      </trkpt>
      <trkpt lat="43.48644" lon="5.5181">
        <ele>281.9</ele>
        <time>2021-04-27T13:45:56Z</time>
      </trkpt>
      <trkpt lat="43.4865" lon="5.51813">
        <ele>276.2</ele>
        <time>2021-04-27T13:46:02Z</time>
      </trkpt>
      <trkpt lat="43.48655" lon="5.51814">
        <ele>270.7</ele>
        <time>2021-04-27T13:46:07Z</time>
      </trkpt>
      <trkpt lat="43.48661" lon="5.51816">
        <ele>262.3</ele>
        <time>2021-04-27T13:46:13Z</time>
      </trkpt>
      <trkpt lat="43.48666" lon="5.51817">
        <ele>267.7</ele>
        <time>2021-04-27T13:46:18Z</time>
      </trkpt>
      <trkpt lat="43.48671" lon="5.51818">
        <ele>280.3</ele>
        <time>2021-04-27T13:46:24Z</time>
      </trkpt>
      <trkpt lat="43.48677" lon="5.5182">
        <ele>265.6</ele>
        <time>2021-04-27T13:46:30Z</time>
      </trkpt>
      <trkpt lat="43.48681" lon="5.51821">
        <ele>276.7</ele>
        <time>2021-04-27T13:46:35Z</time>
      </trkpt>
      <trkpt lat="43.48686" lon="5.51823">
        <ele>270.1</ele>
        <time>2021-04-27T13:46:41Z</time>
      </trkpt>
      <trkpt lat="43.48691" lon="5.51825">
        <ele>294.9</ele>
        <time>2021-04-27T13:46:47Z</time>
      </trkpt>
      <trkpt lat="43.48695" lon="5.51825">
        <ele>273.1</ele>
        <time>2021-04-27T13:46:52Z</time>
      </trkpt>
      <trkpt lat="43.487" lon="5.51824">
        <ele>283.4</ele>
        <time>2021-04-27T13:46:58Z</time>
      </trkpt>
      <trkpt lat="43.48705" lon="5.51825">
        <ele>271.3</ele>
        <time>2021-04-27T13:47:04Z</time>
      </trkpt>
      <trkpt lat="43.48708" lon="5.51826">
        <ele>301.1</ele>
        <time>2021-04-27T13:47:10Z</time>
      </trkpt>
      <trkpt lat="43.48709" lon="5.51826">
        <ele>269.9</ele>
        <time>2021-04-27T13:47:15Z</time>
      </trkpt>
      <trkpt lat="43.48708" lon="5.51826">
        <ele>279.7</ele>
        <time>2021-04-27T13:47:21Z</time>
      </trkpt>
      <trkpt lat="43.48709" lon="5.51827">
        <ele>264.2</ele>
        <time>2021-04-27T13:47:26Z</time>
      </trkpt>
      <trkpt lat="43.48708" lon="5.51828">
        <ele>263.3</ele>
        <time>2021-04-27T13:47:32Z</time>
      </trkpt>
      <trkpt lat="43.48708" lon="5.51828">
        <ele>279.6</ele>
        <time>2021-04-27T13:47:37Z</time>
      </trkpt>
      <trkpt lat="43.48708" lon="5.51828">
        <ele>270.5</ele>
        <time>2021-04-27T13:47:42Z</time>
      </trkpt>
      <trkpt lat="43.48708" lon="5.51828">
        <ele>260</ele>
        <time>2021-04-27T13:47:47Z</time>
      </trkpt>
      <trkpt lat="43.48708" lon="5.51827">
        <ele>265.9</ele>
        <time>2021-04-27T13:47:53Z</time>
      </trkpt>
      <trkpt lat="43.48708" lon="5.51827">
        <ele>285.4</ele>
        <time>2021-04-27T13:47:59Z</time>
      </trkpt>
      <trkpt lat="43.48708" lon="5.51827">
        <ele>266</ele>
        <time>2021-04-27T13:48:04Z</time>
      </trkpt>
      <trkpt lat="43.48708" lon="5.51827">
        <ele>262.5</ele>
        <time>2021-04-27T13:48:10Z</time>
      </trkpt>
      <trkpt lat="43.48708" lon="5.51827">
        <ele>272.5</ele>
        <time>2021-04-27T13:48:15Z</time>
      </trkpt>
      <trkpt lat="43.48708" lon="5.51827">
        <ele>261.4</ele>
        <time>2021-04-27T13:48:20Z</time>
      </trkpt>
      <trkpt lat="43.48708" lon="5.51827">
        <ele>268.6</ele>
        <time>2021-04-27T13:48:25Z</time>
      </trkpt>
      <trkpt lat="43.48708" lon="5.51827">
        <ele>292.3</ele>
        <time>2021-04-27T13:48:31Z</time>
      </trkpt>
      <trkpt lat="43.48708" lon="5.51827">
        <ele>285.9</ele>
        <time>2021-04-27T13:48:37Z</time>
      </trkpt>
      <trkpt lat="43.48709" lon="5.51827">
        <ele>282.9</ele>
        <time>2021-04-27T13:48:42Z</time>
      </trkpt>
      <trkpt lat="43.48709" lon="5.51827">
        <ele>248.9</ele>
        <time>2021-04-27T13:48:47Z</time>
      </trkpt>
      <trkpt lat="43.48709" lon="5.51827">
        <ele>275.1</ele>
        <time>2021-04-27T13:48:52Z</time>
      </trkpt>
      <trkpt lat="43.48709" lon="5.51827">
        <ele>261.7</ele>
        <time>2021-04-27T13:48:58Z</time>
      </trkpt>
      <trkpt lat="43.48708" lon="5.51829">
        <ele>269</ele>
        <time>2021-04-27T13:49:04Z</time>
      </trkpt>
      <trkpt lat="43.48708" lon="5.51829">
        <ele>248</ele>
        <time>2021-04-27T13:49:09Z</time>
      </trkpt>
      <trkpt lat="43.48708" lon="5.51829">
        <ele>269.5</ele>
        <time>2021-04-27T13:49:15Z</time>
      </trkpt>
      <trkpt lat="43.48706" lon="5.51832">
        <ele>285.1</ele>
        <time>2021-04-27T13:49:20Z</time>
      </trkpt>
      <trkpt lat="43.48704" lon="5.51832">
        <ele>274.9</ele>
        <time>2021-04-27T13:49:26Z</time>
      </trkpt>
      <trkpt lat="43.487" lon="5.51834">
        <ele>275.2</ele>
        <time>2021-04-27T13:49:32Z</time>
      </trkpt>
      <trkpt lat="43.48697" lon="5.51837">
        <ele>276.2</ele>
        <time>2021-04-27T13:49:37Z</time>
      </trkpt>
      <trkpt lat="43.48693" lon="5.51839">
        <ele>279.5</ele>
        <time>2021-04-27T13:49:42Z</time>
      </trkpt>
      <trkpt lat="43.48689" lon="5.51839">
        <ele>260.7</ele>
        <time>2021-04-27T13:49:47Z</time>
      </trkpt>
      <trkpt lat="43.48683" lon="5.5184">
        <ele>279.9</ele>
        <time>2021-04-27T13:49:53Z</time>
      </trkpt>
      <trkpt lat="43.48677" lon="5.5184">
        <ele>275.9</ele>
        <time>2021-04-27T13:49:58Z</time>
      </trkpt>
      <trkpt lat="43.48671" lon="5.51843">
        <ele>274.6</ele>
        <time>2021-04-27T13:50:04Z</time>
      </trkpt>
      <trkpt lat="43.48666" lon="5.51844">
        <ele>269.6</ele>
        <time>2021-04-27T13:50:10Z</time>
      </trkpt>
      <trkpt lat="43.48662" lon="5.51846">
        <ele>267.1</ele>
        <time>2021-04-27T13:50:15Z</time>
      </trkpt>
      <trkpt lat="43.4866" lon="5.51848">
        <ele>263.4</ele>
        <time>2021-04-27T13:50:20Z</time>
      </trkpt>
      <trkpt lat="43.48656" lon="5.51851">
        <ele>263.5</ele>
        <time>2021-04-27T13:50:26Z</time>
      </trkpt>
      <trkpt lat="43.48652" lon="5.51854">
        <ele>263.8</ele>
        <time>2021-04-27T13:50:32Z</time>
      </trkpt>
      <trkpt lat="43.48647" lon="5.51858">
        <ele>265.7</ele>
        <time>2021-04-27T13:50:38Z</time>
      </trkpt>
      <trkpt lat="43.48644" lon="5.51862">
        <ele>285</ele>
        <time>2021-04-27T13:50:43Z</time>
      </trkpt>
      <trkpt lat="43.48643" lon="5.51863">
        <ele>288</ele>
        <time>2021-04-27T13:50:49Z</time>
      </trkpt>
      <trkpt lat="43.48644" lon="5.5187">
        <ele>278.9</ele>
        <time>2021-04-27T13:50:55Z</time>
      </trkpt>
      <trkpt lat="43.48644" lon="5.51877">
        <ele>276.8</ele>
        <time>2021-04-27T13:51:00Z</time>
      </trkpt>
      <trkpt lat="43.48644" lon="5.51881">
        <ele>270.6</ele>
        <time>2021-04-27T13:51:06Z</time>
      </trkpt>
      <trkpt lat="43.48645" lon="5.51886">
        <ele>264.1</ele>
        <time>2021-04-27T13:51:12Z</time>
      </trkpt>
      <trkpt lat="43.48646" lon="5.5189">
        <ele>256.1</ele>
        <time>2021-04-27T13:51:18Z</time>
      </trkpt>
      <trkpt lat="43.48648" lon="5.51894">
        <ele>277.6</ele>
        <time>2021-04-27T13:51:24Z</time>
      </trkpt>
      <trkpt lat="43.4865" lon="5.51898">
        <ele>269.8</ele>
        <time>2021-04-27T13:51:30Z</time>
      </trkpt>
      <trkpt lat="43.48649" lon="5.51907">
        <ele>281.5</ele>
        <time>2021-04-27T13:51:36Z</time>
      </trkpt>
      <trkpt lat="43.48648" lon="5.51911">
        <ele>288.2</ele>
        <time>2021-04-27T13:51:42Z</time>
      </trkpt>
      <trkpt lat="43.48647" lon="5.51917">
        <ele>255.7</ele>
        <time>2021-04-27T13:51:48Z</time>
      </trkpt>
      <trkpt lat="43.48646" lon="5.5192">
        <ele>262.1</ele>
        <time>2021-04-27T13:51:54Z</time>
      </trkpt>
      <trkpt lat="43.48645" lon="5.51925">
        <ele>260.5</ele>
        <time>2021-04-27T13:51:59Z</time>
      </trkpt>
      <trkpt lat="43.48643" lon="5.5193">
        <ele>267.1</ele>
        <time>2021-04-27T13:52:05Z</time>
      </trkpt>
      <trkpt lat="43.48641" lon="5.51932">
        <ele>267.7</ele>
        <time>2021-04-27T13:52:11Z</time>
      </trkpt>
      <trkpt lat="43.48639" lon="5.51937">
        <ele>263.8</ele>
        <time>2021-04-27T13:52:17Z</time>
      </trkpt>
      <trkpt lat="43.48637" lon="5.51939">
        <ele>264.7</ele>
        <time>2021-04-27T13:52:22Z</time>
      </trkpt>
      <trkpt lat="43.48635" lon="5.51943">
        <ele>270</ele>
        <time>2021-04-27T13:52:28Z</time>
      </trkpt>
      <trkpt lat="43.48633" lon="5.51947">
        <ele>282.6</ele>
        <time>2021-04-27T13:52:34Z</time>
      </trkpt>
      <trkpt lat="43.4863" lon="5.5195">
        <ele>271.8</ele>
        <time>2021-04-27T13:52:39Z</time>
      </trkpt>
      <trkpt lat="43.48627" lon="5.51953">
        <ele>290.1</ele>
        <time>2021-04-27T13:52:44Z</time>
      </trkpt>
      <trkpt lat="43.48626" lon="5.51957">
        <ele>277</ele>
        <time>2021-04-27T13:52:49Z</time>
      </trkpt>
      <trkpt lat="43.48625" lon="5.51964">
        <ele>260.4</ele>
        <time>2021-04-27T13:52:55Z</time>
      </trkpt>
      <trkpt lat="43.48625" lon="5.5197">
        <ele>287</ele>
        <time>2021-04-27T13:53:01Z</time>
      </trkpt>
      <trkpt lat="43.48624" lon="5.51974">
        <ele>277.2</ele>
        <time>2021-04-27T13:53:06Z</time>
      </trkpt>
      <trkpt lat="43.48623" lon="5.5198">
        <ele>276.3</ele>
        <time>2021-04-27T13:53:12Z</time>
      </trkpt>
      <trkpt lat="43.48624" lon="5.51984">
        <ele>285</ele>
        <time>2021-04-27T13:53:17Z</time>
      </trkpt>
      <trkpt lat="43.48626" lon="5.51989">
        <ele>272.4</ele>
        <time>2021-04-27T13:53:23Z</time>
      </trkpt>
      <trkpt lat="43.48629" lon="5.51991">
        <ele>291.5</ele>
        <time>2021-04-27T13:53:28Z</time>
      </trkpt>
      <trkpt lat="43.48633" lon="5.51994">
        <ele>267.1</ele>
        <time>2021-04-27T13:53:33Z</time>
      </trkpt>
      <trkpt lat="43.48635" lon="5.51999">
        <ele>265.7</ele>
        <time>2021-04-27T13:53:39Z</time>
      </trkpt>
      <trkpt lat="43.48637" lon="5.52">
        <ele>287.5</ele>
        <time>2021-04-27T13:53:44Z</time>
      </trkpt>
      <trkpt lat="43.4864" lon="5.52">
        <ele>282.3</ele>
        <time>2021-04-27T13:53:49Z</time>
      </trkpt>
      <trkpt lat="43.48643" lon="5.51999">
        <ele>286.1</ele>
        <time>2021-04-27T13:53:55Z</time>
      </trkpt>
      <trkpt lat="43.48648" lon="5.51996">
        <ele>283.3</ele>
        <time>2021-04-27T13:54:01Z</time>
      </trkpt>
      <trkpt lat="43.48651" lon="5.51993">
        <ele>283.8</ele>
        <time>2021-04-27T13:54:07Z</time>
      </trkpt>
      <trkpt lat="43.48654" lon="5.51991">
        <ele>286.8</ele>
        <time>2021-04-27T13:54:12Z</time>
      </trkpt>
      <trkpt lat="43.4866" lon="5.51988">
        <ele>300</ele>
        <time>2021-04-27T13:54:18Z</time>
      </trkpt>
      <trkpt lat="43.48665" lon="5.51987">
        <ele>294.4</ele>
        <time>2021-04-27T13:54:24Z</time>
      </trkpt>
      <trkpt lat="43.4867" lon="5.51986">
        <ele>266.5</ele>
        <time>2021-04-27T13:54:29Z</time>
      </trkpt>
      <trkpt lat="43.48674" lon="5.51986">
        <ele>275.9</ele>
        <time>2021-04-27T13:54:34Z</time>
      </trkpt>
      <trkpt lat="43.48676" lon="5.51986">
        <ele>268</ele>
        <time>2021-04-27T13:54:40Z</time>
      </trkpt>
      <trkpt lat="43.48679" lon="5.51987">
        <ele>269.4</ele>
        <time>2021-04-27T13:54:45Z</time>
      </trkpt>
      <trkpt lat="43.48684" lon="5.51986">
        <ele>265.8</ele>
        <time>2021-04-27T13:54:51Z</time>
      </trkpt>
      <trkpt lat="43.48689" lon="5.51987">
        <ele>279.3</ele>
        <time>2021-04-27T13:54:57Z</time>
      </trkpt>
      <trkpt lat="43.48691" lon="5.51987">
        <ele>274.9</ele>
        <time>2021-04-27T13:55:02Z</time>
      </trkpt>
      <trkpt lat="43.48696" lon="5.51986">
        <ele>281.8</ele>
        <time>2021-04-27T13:55:07Z</time>
      </trkpt>
      <trkpt lat="43.48697" lon="5.51986">
        <ele>278.6</ele>
        <time>2021-04-27T13:55:13Z</time>
      </trkpt>
      <trkpt lat="43.487" lon="5.51984">
        <ele>281.1</ele>
        <time>2021-04-27T13:55:18Z</time>
      </trkpt>
      <trkpt lat="43.48705" lon="5.51981">
        <ele>286</ele>
        <time>2021-04-27T13:55:24Z</time>
      </trkpt>
      <trkpt lat="43.48712" lon="5.51978">
        <ele>300.2</ele>
        <time>2021-04-27T13:55:30Z</time>
      </trkpt>
      <trkpt lat="43.48717" lon="5.51974">
        <ele>285.9</ele>
        <time>2021-04-27T13:55:36Z</time>
      </trkpt>
      <trkpt lat="43.4872" lon="5.51971">
        <ele>274</ele>
        <time>2021-04-27T13:55:42Z</time>
      </trkpt>
      <trkpt lat="43.48724" lon="5.5197">
        <ele>262.9</ele>
        <time>2021-04-27T13:55:47Z</time>
      </trkpt>
      <trkpt lat="43.48728" lon="5.51967">
        <ele>283.8</ele>
        <time>2021-04-27T13:55:52Z</time>
      </trkpt>
      <trkpt lat="43.48732" lon="5.51966">
        <ele>274.3</ele>
        <time>2021-04-27T13:55:57Z</time>
      </trkpt>
      <trkpt lat="43.48736" lon="5.51965">
        <ele>267.7</ele>
        <time>2021-04-27T13:56:02Z</time>
      </trkpt>
      <trkpt lat="43.48742" lon="5.51963">
        <ele>277.7</ele>
        <time>2021-04-27T13:56:08Z</time>
      </trkpt>
      <trkpt lat="43.48745" lon="5.51964">
        <ele>261.7</ele>
        <time>2021-04-27T13:56:13Z</time>
      </trkpt>
      <trkpt lat="43.4875" lon="5.51964">
        <ele>260.3</ele>
        <time>2021-04-27T13:56:18Z</time>
      </trkpt>
      <trkpt lat="43.48755" lon="5.51966">
        <ele>257.3</ele>
        <time>2021-04-27T13:56:24Z</time>
      </trkpt>
      <trkpt lat="43.48758" lon="5.51967">
        <ele>278.2</ele>
        <time>2021-04-27T13:56:30Z</time>
      </trkpt>
      <trkpt lat="43.48762" lon="5.51967">
        <ele>277.7</ele>
        <time>2021-04-27T13:56:36Z</time>
      </trkpt>
      <trkpt lat="43.48767" lon="5.51967">
        <ele>268.8</ele>
        <time>2021-04-27T13:56:42Z</time>
      </trkpt>
      <trkpt lat="43.48773" lon="5.51965">
        <ele>282.8</ele>
        <time>2021-04-27T13:56:48Z</time>
      </trkpt>
      <trkpt lat="43.48776" lon="5.5196">
        <ele>248.2</ele>
        <time>2021-04-27T13:56:53Z</time>
      </trkpt>
      <trkpt lat="43.48778" lon="5.51955">
        <ele>254.8</ele>
        <time>2021-04-27T13:56:58Z</time>
      </trkpt>
      <trkpt lat="43.48779" lon="5.51953">
        <ele>253.3</ele>
        <time>2021-04-27T13:57:04Z</time>
      </trkpt>
      <trkpt lat="43.48779" lon="5.51951">
        <ele>256.6</ele>
        <time>2021-04-27T13:57:09Z</time>
      </trkpt>
      <trkpt lat="43.48779" lon="5.51945">
        <ele>263</ele>
        <time>2021-04-27T13:57:14Z</time>
      </trkpt>
      <trkpt lat="43.48779" lon="5.51938">
        <ele>264.2</ele>
        <time>2021-04-27T13:57:20Z</time>
      </trkpt>
      <trkpt lat="43.4878" lon="5.51933">
        <ele>274.4</ele>
        <time>2021-04-27T13:57:26Z</time>
      </trkpt>
      <trkpt lat="43.4878" lon="5.51929">
        <ele>260.6</ele>
        <time>2021-04-27T13:57:31Z</time>
      </trkpt>
      <trkpt lat="43.48781" lon="5.51923">
        <ele>246.2</ele>
        <time>2021-04-27T13:57:37Z</time>
      </trkpt>
      <trkpt lat="43.48781" lon="5.5192">
        <ele>272.1</ele>
        <time>2021-04-27T13:57:42Z</time>
      </trkpt>
      <trkpt lat="43.4878" lon="5.51914">
        <ele>255.7</ele>
        <time>2021-04-27T13:57:48Z</time>
      </trkpt>
      <trkpt lat="43.48781" lon="5.51908">
        <ele>257.4</ele>
        <time>2021-04-27T13:57:54Z</time>
      </trkpt>
      <trkpt lat="43.48781" lon="5.51901">
        <ele>242.5</ele>
        <time>2021-04-27T13:58:00Z</time>
      </trkpt>
      <trkpt lat="43.48781" lon="5.51895">
        <ele>250.9</ele>
        <time>2021-04-27T13:58:05Z</time>
      </trkpt>
      <trkpt lat="43.48781" lon="5.5189">
        <ele>248.9</ele>
        <time>2021-04-27T13:58:10Z</time>
      </trkpt>
      <trkpt lat="43.48782" lon="5.51884">
        <ele>246.4</ele>
        <time>2021-04-27T13:58:16Z</time>
      </trkpt>
      <trkpt lat="43.48783" lon="5.51878">
        <ele>254.9</ele>
        <time>2021-04-27T13:58:22Z</time>
      </trkpt>
      <trkpt lat="43.48783" lon="5.51875">
        <ele>252.5</ele>
        <time>2021-04-27T13:58:27Z</time>
      </trkpt>
      <trkpt lat="43.48783" lon="5.51872">
        <ele>242.3</ele>
        <time>2021-04-27T13:58:33Z</time>
      </trkpt>
      <trkpt lat="43.48783" lon="5.51872">
        <ele>249.7</ele>
        <time>2021-04-27T13:58:39Z</time>
      </trkpt>
      <trkpt lat="43.48782" lon="5.5187">
        <ele>240.9</ele>
        <time>2021-04-27T13:58:46Z</time>
      </trkpt>
      <trkpt lat="43.48785" lon="5.51869">
        <ele>243.7</ele>
        <time>2021-04-27T13:58:52Z</time>
      </trkpt>
      <trkpt lat="43.48788" lon="5.51866">
        <ele>247.2</ele>
        <time>2021-04-27T13:58:58Z</time>
      </trkpt>
      <trkpt lat="43.48792" lon="5.51864">
        <ele>245.1</ele>
        <time>2021-04-27T13:59:03Z</time>
      </trkpt>
      <trkpt lat="43.48796" lon="5.51859">
        <ele>251.4</ele>
        <time>2021-04-27T13:59:09Z</time>
      </trkpt>
      <trkpt lat="43.488" lon="5.51858">
        <ele>244.6</ele>
        <time>2021-04-27T13:59:14Z</time>
      </trkpt>
      <trkpt lat="43.48807" lon="5.51857">
        <ele>267.9</ele>
        <time>2021-04-27T13:59:20Z</time>
      </trkpt>
      <trkpt lat="43.4881" lon="5.51856">
        <ele>236.6</ele>
        <time>2021-04-27T13:59:26Z</time>
      </trkpt>
      <trkpt lat="43.48814" lon="5.51857">
        <ele>258</ele>
        <time>2021-04-27T13:59:31Z</time>
      </trkpt>
      <trkpt lat="43.48816" lon="5.51858">
        <ele>241.6</ele>
        <time>2021-04-27T13:59:36Z</time>
      </trkpt>
      <trkpt lat="43.4882" lon="5.51856">
        <ele>251.3</ele>
        <time>2021-04-27T13:59:42Z</time>
      </trkpt>
      <trkpt lat="43.48821" lon="5.51857">
        <ele>259.4</ele>
        <time>2021-04-27T13:59:48Z</time>
      </trkpt>
      <trkpt lat="43.48825" lon="5.51857">
        <ele>260.7</ele>
        <time>2021-04-27T13:59:54Z</time>
      </trkpt>
      <trkpt lat="43.48829" lon="5.51857">
        <ele>240.8</ele>
        <time>2021-04-27T13:59:59Z</time>
      </trkpt>
      <trkpt lat="43.48833" lon="5.51856">
        <ele>243.6</ele>
        <time>2021-04-27T14:00:04Z</time>
      </trkpt>
      <trkpt lat="43.48838" lon="5.51855">
        <ele>255</ele>
        <time>2021-04-27T14:00:10Z</time>
      </trkpt>
      <trkpt lat="43.48842" lon="5.51854">
        <ele>253.5</ele>
        <time>2021-04-27T14:00:16Z</time>
      </trkpt>
      <trkpt lat="43.48846" lon="5.51853">
        <ele>237.9</ele>
        <time>2021-04-27T14:00:21Z</time>
      </trkpt>
      <trkpt lat="43.48851" lon="5.51851">
        <ele>255</ele>
        <time>2021-04-27T14:00:27Z</time>
      </trkpt>
      <trkpt lat="43.48854" lon="5.51848">
        <ele>257.7</ele>
        <time>2021-04-27T14:00:32Z</time>
      </trkpt>
      <trkpt lat="43.48858" lon="5.51847">
        <ele>241.8</ele>
        <time>2021-04-27T14:00:38Z</time>
      </trkpt>
      <trkpt lat="43.4886" lon="5.51843">
        <ele>242.2</ele>
        <time>2021-04-27T14:00:43Z</time>
      </trkpt>
      <trkpt lat="43.48863" lon="5.5184">
        <ele>255.1</ele>
        <time>2021-04-27T14:00:49Z</time>
      </trkpt>
      <trkpt lat="43.48866" lon="5.51838">
        <ele>256</ele>
        <time>2021-04-27T14:00:54Z</time>
      </trkpt>
      <trkpt lat="43.4887" lon="5.51834">
        <ele>237.7</ele>
        <time>2021-04-27T14:00:59Z</time>
      </trkpt>
      <trkpt lat="43.48872" lon="5.5183">
        <ele>234.4</ele>
        <time>2021-04-27T14:01:05Z</time>
      </trkpt>
      <trkpt lat="43.48875" lon="5.51826">
        <ele>255.7</ele>
        <time>2021-04-27T14:01:10Z</time>
      </trkpt>
      <trkpt lat="43.48878" lon="5.51823">
        <ele>239.7</ele>
        <time>2021-04-27T14:01:16Z</time>
      </trkpt>
      <trkpt lat="43.48881" lon="5.51819">
        <ele>244.8</ele>
        <time>2021-04-27T14:01:21Z</time>
      </trkpt>
      <trkpt lat="43.48883" lon="5.51815">
        <ele>236.3</ele>
        <time>2021-04-27T14:01:27Z</time>
      </trkpt>
      <trkpt lat="43.48883" lon="5.51811">
        <ele>241.2</ele>
        <time>2021-04-27T14:01:33Z</time>
      </trkpt>
      <trkpt lat="43.48882" lon="5.51808">
        <ele>254.6</ele>
        <time>2021-04-27T14:01:39Z</time>
      </trkpt>
      <trkpt lat="43.48882" lon="5.51808">
        <ele>241.1</ele>
        <time>2021-04-27T14:01:44Z</time>
      </trkpt>
      <trkpt lat="43.48882" lon="5.51808">
        <ele>247.1</ele>
        <time>2021-04-27T14:01:50Z</time>
      </trkpt>
      <trkpt lat="43.48882" lon="5.51808">
        <ele>240.1</ele>
        <time>2021-04-27T14:01:56Z</time>
      </trkpt>
      <trkpt lat="43.48881" lon="5.51808">
        <ele>247.3</ele>
        <time>2021-04-27T14:02:01Z</time>
      </trkpt>
      <trkpt lat="43.48881" lon="5.51808">
        <ele>239.3</ele>
        <time>2021-04-27T14:02:07Z</time>
      </trkpt>
      <trkpt lat="43.48881" lon="5.51808">
        <ele>242.5</ele>
        <time>2021-04-27T14:02:12Z</time>
      </trkpt>
      <trkpt lat="43.48881" lon="5.51808">
        <ele>243.7</ele>
        <time>2021-04-27T14:02:18Z</time>
      </trkpt>
      <trkpt lat="43.48881" lon="5.51808">
        <ele>244</ele>
        <time>2021-04-27T14:02:24Z</time>
      </trkpt>
      <trkpt lat="43.48881" lon="5.51808">
        <ele>244</ele>
        <time>2021-04-27T14:02:29Z</time>
      </trkpt>
      <trkpt lat="43.48881" lon="5.51808">
        <ele>253.6</ele>
        <time>2021-04-27T14:02:34Z</time>
      </trkpt>
      <trkpt lat="43.48882" lon="5.51807">
        <ele>217.3</ele>
        <time>2021-04-27T14:02:39Z</time>
      </trkpt>
      <trkpt lat="43.48881" lon="5.51804">
        <ele>241.6</ele>
        <time>2021-04-27T14:02:44Z</time>
      </trkpt>
      <trkpt lat="43.48881" lon="5.51801">
        <ele>236.9</ele>
        <time>2021-04-27T14:02:50Z</time>
      </trkpt>
      <trkpt lat="43.48882" lon="5.51799">
        <ele>235.5</ele>
        <time>2021-04-27T14:02:55Z</time>
      </trkpt>
      <trkpt lat="43.48882" lon="5.51799">
        <ele>247.7</ele>
        <time>2021-04-27T14:03:00Z</time>
      </trkpt>
      <trkpt lat="43.4888" lon="5.51798">
        <ele>230.4</ele>
        <time>2021-04-27T14:03:06Z</time>
      </trkpt>
      <trkpt lat="43.4888" lon="5.51789">
        <ele>240.6</ele>
        <time>2021-04-27T14:03:11Z</time>
      </trkpt>
      <trkpt lat="43.48881" lon="5.51783">
        <ele>234.9</ele>
        <time>2021-04-27T14:03:16Z</time>
      </trkpt>
      <trkpt lat="43.4888" lon="5.51778">
        <ele>228.4</ele>
        <time>2021-04-27T14:03:21Z</time>
      </trkpt>
      <trkpt lat="43.48877" lon="5.51772">
        <ele>238.4</ele>
        <time>2021-04-27T14:03:26Z</time>
      </trkpt>
      <trkpt lat="43.48877" lon="5.5177">
        <ele>227.9</ele>
        <time>2021-04-27T14:03:32Z</time>
      </trkpt>
      <trkpt lat="43.48878" lon="5.51768">
        <ele>241.2</ele>
        <time>2021-04-27T14:03:38Z</time>
      </trkpt>
      <trkpt lat="43.48877" lon="5.51768">
        <ele>231.8</ele>
        <time>2021-04-27T14:03:44Z</time>
      </trkpt>
      <trkpt lat="43.48877" lon="5.51768">
        <ele>236</ele>
        <time>2021-04-27T14:03:50Z</time>
      </trkpt>
      <trkpt lat="43.48876" lon="5.51767">
        <ele>227</ele>
        <time>2021-04-27T14:03:55Z</time>
      </trkpt>
      <trkpt lat="43.48879" lon="5.51769">
        <ele>262.3</ele>
        <time>2021-04-27T14:04:01Z</time>
      </trkpt>
      <trkpt lat="43.48879" lon="5.51769">
        <ele>263.7</ele>
        <time>2021-04-27T14:04:07Z</time>
      </trkpt>
      <trkpt lat="43.48879" lon="5.51769">
        <ele>250.4</ele>
        <time>2021-04-27T14:04:12Z</time>
      </trkpt>
      <trkpt lat="43.48879" lon="5.51769">
        <ele>241.9</ele>
        <time>2021-04-27T14:04:18Z</time>
      </trkpt>
      <trkpt lat="43.48879" lon="5.51769">
        <ele>229.5</ele>
        <time>2021-04-27T14:04:24Z</time>
      </trkpt>
      <trkpt lat="43.48879" lon="5.51769">
        <ele>229.9</ele>
        <time>2021-04-27T14:04:29Z</time>
      </trkpt>
      <trkpt lat="43.4888" lon="5.51769">
        <ele>251.6</ele>
        <time>2021-04-27T14:04:35Z</time>
      </trkpt>
      <trkpt lat="43.48879" lon="5.51761">
        <ele>251</ele>
        <time>2021-04-27T14:04:41Z</time>
      </trkpt>
      <trkpt lat="43.48877" lon="5.51755">
        <ele>250.2</ele>
        <time>2021-04-27T14:04:47Z</time>
      </trkpt>
      <trkpt lat="43.48876" lon="5.51751">
        <ele>241.8</ele>
        <time>2021-04-27T14:04:53Z</time>
      </trkpt>
      <trkpt lat="43.48876" lon="5.51744">
        <ele>238.9</ele>
        <time>2021-04-27T14:04:58Z</time>
      </trkpt>
      <trkpt lat="43.48876" lon="5.51741">
        <ele>221.8</ele>
        <time>2021-04-27T14:05:03Z</time>
      </trkpt>
      <trkpt lat="43.48876" lon="5.51733">
        <ele>235</ele>
        <time>2021-04-27T14:05:09Z</time>
      </trkpt>
      <trkpt lat="43.48875" lon="5.51727">
        <ele>229.8</ele>
        <time>2021-04-27T14:05:14Z</time>
      </trkpt>
      <trkpt lat="43.48875" lon="5.5172">
        <ele>231.3</ele>
        <time>2021-04-27T14:05:20Z</time>
      </trkpt>
      <trkpt lat="43.48874" lon="5.51714">
        <ele>227.7</ele>
        <time>2021-04-27T14:05:26Z</time>
      </trkpt>
      <trkpt lat="43.48874" lon="5.51706">
        <ele>255.3</ele>
        <time>2021-04-27T14:05:32Z</time>
      </trkpt>
      <trkpt lat="43.48874" lon="5.51699">
        <ele>223.4</ele>
        <time>2021-04-27T14:05:38Z</time>
      </trkpt>
      <trkpt lat="43.48873" lon="5.51698">
        <ele>243.2</ele>
        <time>2021-04-27T14:05:44Z</time>
      </trkpt>
      <trkpt lat="43.48874" lon="5.51693">
        <ele>244.5</ele>
        <time>2021-04-27T14:05:50Z</time>
      </trkpt>
      <trkpt lat="43.48875" lon="5.51688">
        <ele>235.4</ele>
        <time>2021-04-27T14:05:55Z</time>
      </trkpt>
      <trkpt lat="43.48875" lon="5.51681">
        <ele>239.2</ele>
        <time>2021-04-27T14:06:01Z</time>
      </trkpt>
      <trkpt lat="43.48875" lon="5.51673">
        <ele>227.9</ele>
        <time>2021-04-27T14:06:07Z</time>
      </trkpt>
      <trkpt lat="43.48874" lon="5.51666">
        <ele>231.5</ele>
        <time>2021-04-27T14:06:12Z</time>
      </trkpt>
      <trkpt lat="43.48872" lon="5.51659">
        <ele>237.1</ele>
        <time>2021-04-27T14:06:18Z</time>
      </trkpt>
      <trkpt lat="43.48872" lon="5.51654">
        <ele>252.5</ele>
        <time>2021-04-27T14:06:23Z</time>
      </trkpt>
      <trkpt lat="43.48872" lon="5.51647">
        <ele>248.6</ele>
        <time>2021-04-27T14:06:29Z</time>
      </trkpt>
      <trkpt lat="43.48871" lon="5.51641">
        <ele>244.6</ele>
        <time>2021-04-27T14:06:35Z</time>
      </trkpt>
      <trkpt lat="43.4887" lon="5.51633">
        <ele>251.4</ele>
        <time>2021-04-27T14:06:41Z</time>
      </trkpt>
      <trkpt lat="43.48871" lon="5.51626">
        <ele>235.9</ele>
        <time>2021-04-27T14:06:47Z</time>
      </trkpt>
      <trkpt lat="43.48871" lon="5.51621">
        <ele>234.1</ele>
        <time>2021-04-27T14:06:52Z</time>
      </trkpt>
      <trkpt lat="43.4887" lon="5.51615">
        <ele>226</ele>
        <time>2021-04-27T14:06:58Z</time>
      </trkpt>
      <trkpt lat="43.4887" lon="5.51614">
        <ele>239.6</ele>
        <time>2021-04-27T14:07:03Z</time>
      </trkpt>
      <trkpt lat="43.48869" lon="5.51607">
        <ele>223.1</ele>
        <time>2021-04-27T14:07:09Z</time>
      </trkpt>
      <trkpt lat="43.48868" lon="5.516">
        <ele>258.7</ele>
        <time>2021-04-27T14:07:14Z</time>
      </trkpt>
      <trkpt lat="43.48869" lon="5.51593">
        <ele>254.6</ele>
        <time>2021-04-27T14:07:19Z</time>
      </trkpt>
      <trkpt lat="43.48871" lon="5.51586">
        <ele>241.7</ele>
        <time>2021-04-27T14:07:24Z</time>
      </trkpt>
      <trkpt lat="43.48872" lon="5.51578">
        <ele>248.1</ele>
        <time>2021-04-27T14:07:30Z</time>
      </trkpt>
      <trkpt lat="43.48873" lon="5.51572">
        <ele>246.6</ele>
        <time>2021-04-27T14:07:35Z</time>
      </trkpt>
      <trkpt lat="43.48873" lon="5.51566">
        <ele>227.3</ele>
        <time>2021-04-27T14:07:40Z</time>
      </trkpt>
      <trkpt lat="43.48874" lon="5.51557">
        <ele>261.8</ele>
        <time>2021-04-27T14:07:46Z</time>
      </trkpt>
      <trkpt lat="43.48875" lon="5.51549">
        <ele>251.9</ele>
        <time>2021-04-27T14:07:51Z</time>
      </trkpt>
      <trkpt lat="43.48876" lon="5.51542">
        <ele>241.4</ele>
        <time>2021-04-27T14:07:56Z</time>
      </trkpt>
      <trkpt lat="43.48877" lon="5.51536">
        <ele>236</ele>
        <time>2021-04-27T14:08:02Z</time>
      </trkpt>
      <trkpt lat="43.48877" lon="5.5153">
        <ele>243.3</ele>
        <time>2021-04-27T14:08:07Z</time>
      </trkpt>
      <trkpt lat="43.48878" lon="5.51524">
        <ele>230</ele>
        <time>2021-04-27T14:08:12Z</time>
      </trkpt>
      <trkpt lat="43.4888" lon="5.51517">
        <ele>223.8</ele>
        <time>2021-04-27T14:08:18Z</time>
      </trkpt>
      <trkpt lat="43.48882" lon="5.51514">
        <ele>236.4</ele>
        <time>2021-04-27T14:08:24Z</time>
      </trkpt>
      <trkpt lat="43.48886" lon="5.51514">
        <ele>238.4</ele>
        <time>2021-04-27T14:08:29Z</time>
      </trkpt>
      <trkpt lat="43.48886" lon="5.51517">
        <ele>251.6</ele>
        <time>2021-04-27T14:08:36Z</time>
      </trkpt>
      <trkpt lat="43.48889" lon="5.51513">
        <ele>236.7</ele>
        <time>2021-04-27T14:08:42Z</time>
      </trkpt>
      <trkpt lat="43.48893" lon="5.51509">
        <ele>244.1</ele>
        <time>2021-04-27T14:08:48Z</time>
      </trkpt>
      <trkpt lat="43.48898" lon="5.51506">
        <ele>253.4</ele>
        <time>2021-04-27T14:08:53Z</time>
      </trkpt>
      <trkpt lat="43.48903" lon="5.51505">
        <ele>241.4</ele>
        <time>2021-04-27T14:08:58Z</time>
      </trkpt>
      <trkpt lat="43.48906" lon="5.51501">
        <ele>241.2</ele>
        <time>2021-04-27T14:09:04Z</time>
      </trkpt>
      <trkpt lat="43.4891" lon="5.51497">
        <ele>236.6</ele>
        <time>2021-04-27T14:09:09Z</time>
      </trkpt>
      <trkpt lat="43.48914" lon="5.5149">
        <ele>238.2</ele>
        <time>2021-04-27T14:09:15Z</time>
      </trkpt>
      <trkpt lat="43.48914" lon="5.51484">
        <ele>224.7</ele>
        <time>2021-04-27T14:09:20Z</time>
      </trkpt>
      <trkpt lat="43.48917" lon="5.51477">
        <ele>243.1</ele>
        <time>2021-04-27T14:09:26Z</time>
      </trkpt>
      <trkpt lat="43.48919" lon="5.51469">
        <ele>236.8</ele>
        <time>2021-04-27T14:09:32Z</time>
      </trkpt>
      <trkpt lat="43.48921" lon="5.51463">
        <ele>243.4</ele>
        <time>2021-04-27T14:09:38Z</time>
      </trkpt>
      <trkpt lat="43.48925" lon="5.51455">
        <ele>251.2</ele>
        <time>2021-04-27T14:09:44Z</time>
      </trkpt>
      <trkpt lat="43.48928" lon="5.5145">
        <ele>243.8</ele>
        <time>2021-04-27T14:09:49Z</time>
      </trkpt>
      <trkpt lat="43.4893" lon="5.51443">
        <ele>243.9</ele>
        <time>2021-04-27T14:09:54Z</time>
      </trkpt>
      <trkpt lat="43.48931" lon="5.51442">
        <ele>257.3</ele>
        <time>2021-04-27T14:10:00Z</time>
      </trkpt>
      <trkpt lat="43.48933" lon="5.51435">
        <ele>235.2</ele>
        <time>2021-04-27T14:10:06Z</time>
      </trkpt>
      <trkpt lat="43.48936" lon="5.51431">
        <ele>236.2</ele>
        <time>2021-04-27T14:10:12Z</time>
      </trkpt>
      <trkpt lat="43.48939" lon="5.51434">
        <ele>240.3</ele>
        <time>2021-04-27T14:10:18Z</time>
      </trkpt>
      <trkpt lat="43.48941" lon="5.51438">
        <ele>218.9</ele>
        <time>2021-04-27T14:10:24Z</time>
      </trkpt>
      <trkpt lat="43.48942" lon="5.51438">
        <ele>243.9</ele>
        <time>2021-04-27T14:10:30Z</time>
      </trkpt>
      <trkpt lat="43.48941" lon="5.51438">
        <ele>232.7</ele>
        <time>2021-04-27T14:10:35Z</time>
      </trkpt>
      <trkpt lat="43.4894" lon="5.51438">
        <ele>248.9</ele>
        <time>2021-04-27T14:10:40Z</time>
      </trkpt>
      <trkpt lat="43.4894" lon="5.51438">
        <ele>238.9</ele>
        <time>2021-04-27T14:10:46Z</time>
      </trkpt>
      <trkpt lat="43.4894" lon="5.51438">
        <ele>233.8</ele>
        <time>2021-04-27T14:10:51Z</time>
      </trkpt>
      <trkpt lat="43.4894" lon="5.51438">
        <ele>214</ele>
        <time>2021-04-27T14:10:57Z</time>
      </trkpt>
      <trkpt lat="43.4894" lon="5.51438">
        <ele>238</ele>
        <time>2021-04-27T14:11:02Z</time>
      </trkpt>
      <trkpt lat="43.4894" lon="5.51438">
        <ele>242.2</ele>
        <time>2021-04-27T14:11:08Z</time>
      </trkpt>
      <trkpt lat="43.4894" lon="5.51438">
        <ele>241.4</ele>
        <time>2021-04-27T14:11:14Z</time>
      </trkpt>
      <trkpt lat="43.4894" lon="5.51438">
        <ele>233.9</ele>
        <time>2021-04-27T14:11:19Z</time>
      </trkpt>
      <trkpt lat="43.4894" lon="5.51438">
        <ele>235.6</ele>
        <time>2021-04-27T14:11:25Z</time>
      </trkpt>
      <trkpt lat="43.4894" lon="5.51438">
        <ele>240</ele>
        <time>2021-04-27T14:11:30Z</time>
      </trkpt>
      <trkpt lat="43.4894" lon="5.51438">
        <ele>258.1</ele>
        <time>2021-04-27T14:11:36Z</time>
      </trkpt>
      <trkpt lat="43.4894" lon="5.51438">
        <ele>244.1</ele>
        <time>2021-04-27T14:11:41Z</time>
      </trkpt>
      <trkpt lat="43.4894" lon="5.51438">
        <ele>261.5</ele>
        <time>2021-04-27T14:11:46Z</time>
      </trkpt>
      <trkpt lat="43.4894" lon="5.51438">
        <ele>241.7</ele>
        <time>2021-04-27T14:11:52Z</time>
      </trkpt>
      <trkpt lat="43.4894" lon="5.51438">
        <ele>241.8</ele>
        <time>2021-04-27T14:11:57Z</time>
      </trkpt>
      <trkpt lat="43.4894" lon="5.51438">
        <ele>243.6</ele>
        <time>2021-04-27T14:12:02Z</time>
      </trkpt>
      <trkpt lat="43.4894" lon="5.51438">
        <ele>229.3</ele>
        <time>2021-04-27T14:12:08Z</time>
      </trkpt>
      <trkpt lat="43.4894" lon="5.51438">
        <ele>209.2</ele>
        <time>2021-04-27T14:12:13Z</time>
      </trkpt>
      <trkpt lat="43.48938" lon="5.51438">
        <ele>237.8</ele>
        <time>2021-04-27T14:12:19Z</time>
      </trkpt>
      <trkpt lat="43.48938" lon="5.51438">
        <ele>240.4</ele>
        <time>2021-04-27T14:12:25Z</time>
      </trkpt>
      <trkpt lat="43.48939" lon="5.51443">
        <ele>233.6</ele>
        <time>2021-04-27T14:12:31Z</time>
      </trkpt>
      <trkpt lat="43.48941" lon="5.51448">
        <ele>217.7</ele>
        <time>2021-04-27T14:12:36Z</time>
      </trkpt>
      <trkpt lat="43.48947" lon="5.51452">
        <ele>242.5</ele>
        <time>2021-04-27T14:12:42Z</time>
      </trkpt>
      <trkpt lat="43.48949" lon="5.51454">
        <ele>215.5</ele>
        <time>2021-04-27T14:12:47Z</time>
      </trkpt>
      <trkpt lat="43.48953" lon="5.5146">
        <ele>248.5</ele>
        <time>2021-04-27T14:12:53Z</time>
      </trkpt>
      <trkpt lat="43.48958" lon="5.51462">
        <ele>251.2</ele>
        <time>2021-04-27T14:12:58Z</time>
      </trkpt>
      <trkpt lat="43.48961" lon="5.51465">
        <ele>222.2</ele>
        <time>2021-04-27T14:13:04Z</time>
      </trkpt>
      <trkpt lat="43.48964" lon="5.5147">
        <ele>244.2</ele>
        <time>2021-04-27T14:13:10Z</time>
      </trkpt>
      <trkpt lat="43.48966" lon="5.51474">
        <ele>227.1</ele>
        <time>2021-04-27T14:13:15Z</time>
      </trkpt>
      <trkpt lat="43.48969" lon="5.51478">
        <ele>243.4</ele>
        <time>2021-04-27T14:13:21Z</time>
      </trkpt>
      <trkpt lat="43.48973" lon="5.51483">
        <ele>234.9</ele>
        <time>2021-04-27T14:13:27Z</time>
      </trkpt>
      <trkpt lat="43.48977" lon="5.51487">
        <ele>211.6</ele>
        <time>2021-04-27T14:13:33Z</time>
      </trkpt>
      <trkpt lat="43.48981" lon="5.51489">
        <ele>231.4</ele>
        <time>2021-04-27T14:13:39Z</time>
      </trkpt>
      <trkpt lat="43.48983" lon="5.5149">
        <ele>244.7</ele>
        <time>2021-04-27T14:13:44Z</time>
      </trkpt>
      <trkpt lat="43.48986" lon="5.51495">
        <ele>237.5</ele>
        <time>2021-04-27T14:13:50Z</time>
      </trkpt>
      <trkpt lat="43.48989" lon="5.51498">
        <ele>214.8</ele>
        <time>2021-04-27T14:13:55Z</time>
      </trkpt>
      <trkpt lat="43.48992" lon="5.51501">
        <ele>236.5</ele>
        <time>2021-04-27T14:14:01Z</time>
      </trkpt>
      <trkpt lat="43.48997" lon="5.51503">
        <ele>235.3</ele>
        <time>2021-04-27T14:14:06Z</time>
      </trkpt>
      <trkpt lat="43.49" lon="5.51506">
        <ele>226.6</ele>
        <time>2021-04-27T14:14:11Z</time>
      </trkpt>
      <trkpt lat="43.49005" lon="5.51508">
        <ele>225.5</ele>
        <time>2021-04-27T14:14:16Z</time>
      </trkpt>
      <trkpt lat="43.49009" lon="5.5151">
        <ele>224.6</ele>
        <time>2021-04-27T14:14:22Z</time>
      </trkpt>
      <trkpt lat="43.49013" lon="5.5151">
        <ele>229.8</ele>
        <time>2021-04-27T14:14:28Z</time>
      </trkpt>
      <trkpt lat="43.49017" lon="5.51509">
        <ele>243.5</ele>
        <time>2021-04-27T14:14:34Z</time>
      </trkpt>
      <trkpt lat="43.49021" lon="5.51509">
        <ele>220.7</ele>
        <time>2021-04-27T14:14:39Z</time>
      </trkpt>
      <trkpt lat="43.49025" lon="5.51513">
        <ele>235.9</ele>
        <time>2021-04-27T14:14:45Z</time>
      </trkpt>
      <trkpt lat="43.49029" lon="5.51516">
        <ele>229.2</ele>
        <time>2021-04-27T14:14:50Z</time>
      </trkpt>
      <trkpt lat="43.49031" lon="5.51518">
        <ele>221.4</ele>
        <time>2021-04-27T14:14:55Z</time>
      </trkpt>
    </trkseg>
  </trk>
</gpx>